PWSweather.com
Personal Weather Stations
Station Observations
KCASARAT2
Saratoga, Saratoga, CA 95070

SaratogaSaratoga, CA 95070

Lat: 37.2625, Lon: -122.0033

Elevation: 370

Station Type: Davis Vantage Pro 2

High Low Average
Temperature 55.4°F13.0°C 40.3°F4.6°C 47.2°F8.4°C
Dew Point 38.3°F3.5°C 25.9°F-3.4°C 32.7°F0.4°C
Winds 7.6 mph 12.2 kmh Calm Calm 3.0 mph WNW4.8 kmh WNW
Wind Gusts 15.9 mph25.6 kmh -- 5.0 mph8.0 kmh
Humidity 84% 36% 59%
Pressure 29.93 in1013.5 mb 29.68 in1005.1 mb -
Precipitation 0.04 in1.0 mm - -
Hour Temp Dew Point Humidity Winds Wind Gusts Pressure Precip Precip Rate Daily Precip Total
12:00 AM 44.1°F6.7°C 37.4°F3.0°C 77% 0.9 mph SSE1.4 kmh SSE 1.1 mph1.8 kmh 29.74 in1007.1 mb 0.00 in0.0 mm 0.00 in0.0 mm 0.08 in2.0 mm
12:01 AM 44.1°F6.7°C 37.4°F3.0°C 77% 0.9 mph ESE1.4 kmh ESE 2.0 mph3.2 kmh 29.74 in1007.1 mb 0.00 in0.0 mm 0.00 in0.0 mm 0.08 in2.0 mm
12:02 AM 44.1°F6.7°C 37.4°F3.0°C 77% 1.1 mph SE1.8 kmh SE 2.0 mph3.2 kmh 29.74 in1007.1 mb 0.00 in0.0 mm 0.00 in0.0 mm 0.08 in2.0 mm
12:03 AM 44.1°F6.7°C 37.4°F3.0°C 77% 1.3 mph SSE2.1 kmh SSE 1.1 mph1.8 kmh 29.74 in1007.1 mb 0.00 in0.0 mm 0.00 in0.0 mm 0.08 in2.0 mm
12:04 AM 44.1°F6.7°C 37.4°F3.0°C 77% 0.9 mph SSE1.4 kmh SSE 2.0 mph3.2 kmh 29.74 in1007.1 mb 0.00 in0.0 mm 0.00 in0.0 mm 0.08 in2.0 mm
12:05 AM 44.1°F6.7°C 37.4°F3.0°C 77% 0.9 mph SSE1.4 kmh SSE 2.0 mph3.2 kmh 29.74 in1007.1 mb 0.00 in0.0 mm 0.00 in0.0 mm 0.08 in2.0 mm
12:06 AM 44.1°F6.7°C 37.4°F3.0°C 77% 0.9 mph SSE1.4 kmh SSE 2.0 mph3.2 kmh 29.74 in1007.1 mb 0.00 in0.0 mm 0.00 in0.0 mm 0.08 in2.0 mm
12:07 AM 44.1°F6.7°C 37.4°F3.0°C 77% 0.7 mph SSE1.1 kmh SSE 1.1 mph1.8 kmh 29.74 in1007.1 mb 0.00 in0.0 mm 0.00 in0.0 mm 0.08 in2.0 mm
12:08 AM 44.1°F6.7°C 37.4°F3.0°C 77% 0.4 mph SSE0.6 kmh SSE 1.1 mph1.8 kmh 29.74 in1007.1 mb 0.00 in0.0 mm 0.00 in0.0 mm 0.08 in2.0 mm
12:09 AM 44.1°F6.7°C 37.4°F3.0°C 77% 0.2 mph SSE0.3 kmh SSE -- 29.74 in1007.1 mb 0.00 in0.0 mm 0.00 in0.0 mm 0.08 in2.0 mm
12:10 AM 44.1°F6.7°C 37.4°F3.0°C 77% 0.7 mph SSE1.1 kmh SSE 2.0 mph3.2 kmh 29.74 in1007.1 mb 0.00 in0.0 mm 0.00 in0.0 mm 0.08 in2.0 mm
12:11 AM 44.1°F6.7°C 37.4°F3.0°C 77% 1.1 mph SSE1.8 kmh SSE 1.1 mph1.8 kmh 29.74 in1007.1 mb 0.00 in0.0 mm 0.00 in0.0 mm 0.08 in2.0 mm
12:12 AM 44.1°F6.7°C 37.4°F3.0°C 77% 0.7 mph S1.1 kmh S 2.0 mph3.2 kmh 29.74 in1007.1 mb 0.00 in0.0 mm 0.00 in0.0 mm 0.08 in2.0 mm
12:13 AM 43.9°F6.6°C 37.2°F2.9°C 77% 1.6 mph NW2.6 kmh NW 4.3 mph6.9 kmh 29.74 in1007.1 mb 0.00 in0.0 mm 0.00 in0.0 mm 0.08 in2.0 mm
12:14 AM 43.9°F6.6°C 37.2°F2.9°C 77% 2.2 mph NW3.5 kmh NW 3.1 mph5.0 kmh 29.74 in1007.1 mb 0.00 in0.0 mm 0.00 in0.0 mm 0.08 in2.0 mm
12:15 AM 43.9°F6.6°C 37.2°F2.9°C 77% 1.6 mph NW2.6 kmh NW 3.1 mph5.0 kmh 29.74 in1007.1 mb 0.00 in0.0 mm 0.00 in0.0 mm 0.08 in2.0 mm
12:16 AM 44.1°F6.7°C 37.4°F3.0°C 77% 0.9 mph W1.4 kmh W 2.0 mph3.2 kmh 29.74 in1007.1 mb 0.00 in0.0 mm 0.00 in0.0 mm 0.08 in2.0 mm
12:17 AM 44.1°F6.7°C 37.4°F3.0°C 77% 0.2 mph W0.3 kmh W 1.1 mph1.8 kmh 29.74 in1007.1 mb 0.01 in0.3 mm 0.60 in15.2 mm 0.09 in2.3 mm
12:18 AM 44.1°F6.7°C 37.4°F3.0°C 77% 0.2 mph W0.3 kmh W 1.1 mph1.8 kmh 29.74 in1007.1 mb 0.01 in0.3 mm 0.00 in0.0 mm 0.09 in2.3 mm
12:19 AM 44.1°F6.7°C 37.4°F3.0°C 77% 0.4 mph W0.6 kmh W 2.0 mph3.2 kmh 29.73 in1006.8 mb 0.01 in0.3 mm 0.00 in0.0 mm 0.09 in2.3 mm
12:20 AM 44.1°F6.7°C 37.4°F3.0°C 77% 0.7 mph W1.1 kmh W 2.0 mph3.2 kmh 29.73 in1006.8 mb 0.01 in0.3 mm 0.00 in0.0 mm 0.09 in2.3 mm
12:21 AM 43.9°F6.6°C 37.2°F2.9°C 77% 0.7 mph W1.1 kmh W 2.0 mph3.2 kmh 29.73 in1006.8 mb 0.01 in0.3 mm 0.00 in0.0 mm 0.09 in2.3 mm
12:22 AM 44.1°F6.7°C 37.4°F3.0°C 77% 0.9 mph SE1.4 kmh SE 2.0 mph3.2 kmh 29.73 in1006.8 mb 0.01 in0.3 mm 0.00 in0.0 mm 0.09 in2.3 mm
12:23 AM 43.9°F6.6°C 37.2°F2.9°C 77% 1.1 mph SE1.8 kmh SE 1.1 mph1.8 kmh 29.73 in1006.8 mb 0.01 in0.3 mm 0.00 in0.0 mm 0.09 in2.3 mm
12:24 AM 43.9°F6.6°C 37.2°F2.9°C 77% 0.7 mph SE1.1 kmh SE 1.1 mph1.8 kmh 29.73 in1006.8 mb 0.01 in0.3 mm 0.00 in0.0 mm 0.09 in2.3 mm
12:25 AM 43.9°F6.6°C 37.4°F3.0°C 78% 0.9 mph SE1.4 kmh SE 1.1 mph1.8 kmh 29.73 in1006.8 mb 0.01 in0.3 mm 0.00 in0.0 mm 0.09 in2.3 mm
12:26 AM 43.9°F6.6°C 37.4°F3.0°C 78% 0.9 mph SE1.4 kmh SE 1.1 mph1.8 kmh 29.73 in1006.8 mb 0.01 in0.3 mm 0.00 in0.0 mm 0.09 in2.3 mm
12:28 AM 43.9°F6.6°C 37.4°F3.0°C 78% 1.1 mph SE1.8 kmh SE 2.0 mph3.2 kmh 29.73 in1006.8 mb 0.01 in0.3 mm 0.00 in0.0 mm 0.09 in2.3 mm
12:29 AM 43.9°F6.6°C 37.4°F3.0°C 78% 1.8 mph SSE2.9 kmh SSE 4.3 mph6.9 kmh 29.74 in1007.1 mb 0.01 in0.3 mm 0.00 in0.0 mm 0.09 in2.3 mm
12:30 AM 43.9°F6.6°C 37.4°F3.0°C 78% 1.6 mph SSE2.6 kmh SSE 1.1 mph1.8 kmh 29.73 in1006.8 mb 0.01 in0.3 mm 0.00 in0.0 mm 0.09 in2.3 mm
12:31 AM 43.9°F6.6°C 37.4°F3.0°C 78% Calm Calm -- 29.73 in1006.8 mb 0.01 in0.3 mm 0.00 in0.0 mm 0.09 in2.3 mm
12:32 AM 43.9°F6.6°C 37.4°F3.0°C 78% Calm Calm -- 29.73 in1006.8 mb 0.01 in0.3 mm 0.00 in0.0 mm 0.09 in2.3 mm
12:33 AM 43.7°F6.5°C 37.2°F2.9°C 78% 0.4 mph SSE0.6 kmh SSE 2.0 mph3.2 kmh 29.73 in1006.8 mb 0.01 in0.3 mm 0.00 in0.0 mm 0.09 in2.3 mm
12:34 AM 43.7°F6.5°C 37.2°F2.9°C 78% 0.9 mph SSE1.4 kmh SSE 2.0 mph3.2 kmh 29.73 in1006.8 mb 0.01 in0.3 mm 0.00 in0.0 mm 0.09 in2.3 mm
12:35 AM 43.7°F6.5°C 37.2°F2.9°C 78% 0.9 mph SSE1.4 kmh SSE 1.1 mph1.8 kmh 29.73 in1006.8 mb 0.01 in0.3 mm 0.00 in0.0 mm 0.09 in2.3 mm
12:36 AM 43.5°F6.4°C 37.0°F2.8°C 78% 0.9 mph SSE1.4 kmh SSE 1.1 mph1.8 kmh 29.73 in1006.8 mb 0.01 in0.3 mm 0.00 in0.0 mm 0.09 in2.3 mm
12:37 AM 43.5°F6.4°C 37.0°F2.8°C 78% 1.1 mph SSE1.8 kmh SSE 2.0 mph3.2 kmh 29.73 in1006.8 mb 0.01 in0.3 mm 0.00 in0.0 mm 0.09 in2.3 mm
12:38 AM 43.5°F6.4°C 37.0°F2.8°C 78% 0.7 mph SSE1.1 kmh SSE 1.1 mph1.8 kmh 29.73 in1006.8 mb 0.01 in0.3 mm 0.00 in0.0 mm 0.09 in2.3 mm
12:39 AM 43.5°F6.4°C 37.0°F2.8°C 78% Calm Calm -- 29.73 in1006.8 mb 0.01 in0.3 mm 0.00 in0.0 mm 0.09 in2.3 mm
12:40 AM 43.5°F6.4°C 37.0°F2.8°C 78% 0.4 mph SSE0.6 kmh SSE 2.0 mph3.2 kmh 29.73 in1006.8 mb 0.01 in0.3 mm 0.00 in0.0 mm 0.09 in2.3 mm
12:41 AM 43.3°F6.3°C 36.9°F2.7°C 78% 0.9 mph SSE1.4 kmh SSE 1.1 mph1.8 kmh 29.73 in1006.8 mb 0.01 in0.3 mm 0.00 in0.0 mm 0.09 in2.3 mm
12:42 AM 43.3°F6.3°C 36.9°F2.7°C 78% 0.7 mph SSE1.1 kmh SSE 1.1 mph1.8 kmh 29.73 in1006.8 mb 0.01 in0.3 mm 0.00 in0.0 mm 0.09 in2.3 mm
12:43 AM 43.3°F6.3°C 36.9°F2.7°C 78% Calm Calm -- 29.73 in1006.8 mb 0.01 in0.3 mm 0.00 in0.0 mm 0.09 in2.3 mm
12:44 AM 43.3°F6.3°C 36.9°F2.7°C 78% 0.4 mph SSE0.6 kmh SSE 2.0 mph3.2 kmh 29.73 in1006.8 mb 0.01 in0.3 mm 0.00 in0.0 mm 0.09 in2.3 mm
12:45 AM 43.3°F6.3°C 36.9°F2.7°C 78% 0.9 mph SSE1.4 kmh SSE 1.1 mph1.8 kmh 29.73 in1006.8 mb 0.01 in0.3 mm 0.00 in0.0 mm 0.09 in2.3 mm
12:46 AM 43.3°F6.3°C 36.9°F2.7°C 78% 0.7 mph SSE1.1 kmh SSE 1.1 mph1.8 kmh 29.73 in1006.8 mb 0.01 in0.3 mm 0.00 in0.0 mm 0.09 in2.3 mm
12:47 AM 43.3°F6.3°C 37.2°F2.9°C 79% 0.4 mph SSE0.6 kmh SSE 1.1 mph1.8 kmh 29.73 in1006.8 mb 0.01 in0.3 mm 0.00 in0.0 mm 0.09 in2.3 mm
12:48 AM 43.2°F6.2°C 37.0°F2.8°C 79% Calm Calm -- 29.73 in1006.8 mb 0.01 in0.3 mm 0.00 in0.0 mm 0.09 in2.3 mm
12:49 AM 43.2°F6.2°C 37.0°F2.8°C 79% Calm Calm -- 29.73 in1006.8 mb 0.01 in0.3 mm 0.00 in0.0 mm 0.09 in2.3 mm
12:50 AM 43.2°F6.2°C 36.7°F2.6°C 78% 0.4 mph SSE0.6 kmh SSE 1.1 mph1.8 kmh 29.73 in1006.8 mb 0.01 in0.3 mm 0.00 in0.0 mm 0.09 in2.3 mm
12:51 AM 43.2°F6.2°C 36.7°F2.6°C 78% 0.9 mph SSE1.4 kmh SSE 1.1 mph1.8 kmh 29.73 in1006.8 mb 0.01 in0.3 mm 0.00 in0.0 mm 0.09 in2.3 mm
12:52 AM 43.2°F6.2°C 36.7°F2.6°C 78% 0.9 mph SSE1.4 kmh SSE 1.1 mph1.8 kmh 29.73 in1006.8 mb 0.01 in0.3 mm 0.00 in0.0 mm 0.09 in2.3 mm
12:53 AM 43.0°F6.1°C 36.9°F2.7°C 79% 0.9 mph SSE1.4 kmh SSE 1.1 mph1.8 kmh 29.73 in1006.8 mb 0.01 in0.3 mm 0.00 in0.0 mm 0.09 in2.3 mm
12:54 AM 43.0°F6.1°C 36.9°F2.7°C 79% 0.9 mph SSE1.4 kmh SSE 1.1 mph1.8 kmh 29.72 in1006.4 mb 0.01 in0.3 mm 0.00 in0.0 mm 0.09 in2.3 mm
12:55 AM 43.0°F6.1°C 36.9°F2.7°C 79% 0.9 mph SSE1.4 kmh SSE 1.1 mph1.8 kmh 29.73 in1006.8 mb 0.01 in0.3 mm 0.00 in0.0 mm 0.09 in2.3 mm
12:56 AM 43.0°F6.1°C 36.9°F2.7°C 79% 0.9 mph SSE1.4 kmh SSE 1.1 mph1.8 kmh 29.72 in1006.4 mb 0.01 in0.3 mm 0.00 in0.0 mm 0.09 in2.3 mm
12:57 AM 42.8°F6.0°C 36.7°F2.6°C 79% 1.1 mph SSE1.8 kmh SSE 2.0 mph3.2 kmh 29.72 in1006.4 mb 0.01 in0.3 mm 0.00 in0.0 mm 0.09 in2.3 mm
12:58 AM 42.6°F5.9°C 36.5°F2.5°C 79% 1.1 mph SSE1.8 kmh SSE 2.0 mph3.2 kmh 29.72 in1006.4 mb 0.01 in0.3 mm 0.00 in0.0 mm 0.09 in2.3 mm
12:59 AM 42.6°F5.9°C 36.5°F2.5°C 79% 1.3 mph SSE2.1 kmh SSE 2.0 mph3.2 kmh 29.72 in1006.4 mb 0.01 in0.3 mm 0.00 in0.0 mm 0.09 in2.3 mm
01:00 AM 42.6°F5.9°C 36.5°F2.5°C 79% 1.1 mph SSE1.8 kmh SSE 2.0 mph3.2 kmh 29.72 in1006.4 mb 0.01 in0.3 mm 0.00 in0.0 mm 0.01 in0.3 mm
01:01 AM 42.4°F5.8°C 36.3°F2.4°C 79% 0.7 mph SSE1.1 kmh SSE 1.1 mph1.8 kmh 29.72 in1006.4 mb 0.01 in0.3 mm 0.00 in0.0 mm 0.01 in0.3 mm
01:02 AM 42.4°F5.8°C 36.3°F2.4°C 79% 0.2 mph SSE0.3 kmh SSE -- 29.73 in1006.8 mb 0.01 in0.3 mm 0.00 in0.0 mm 0.01 in0.3 mm
01:03 AM 42.4°F5.8°C 36.7°F2.6°C 80% Calm Calm -- 29.72 in1006.4 mb 0.01 in0.3 mm 0.00 in0.0 mm 0.01 in0.3 mm
01:04 AM 42.4°F5.8°C 36.7°F2.6°C 80% 0.4 mph SSE0.6 kmh SSE 2.0 mph3.2 kmh 29.72 in1006.4 mb 0.01 in0.3 mm 0.00 in0.0 mm 0.01 in0.3 mm
01:05 AM 42.4°F5.8°C 36.7°F2.6°C 80% 0.9 mph SSE1.4 kmh SSE 1.1 mph1.8 kmh 29.72 in1006.4 mb 0.01 in0.3 mm 0.00 in0.0 mm 0.01 in0.3 mm
01:06 AM 42.3°F5.7°C 36.5°F2.5°C 80% 0.4 mph SSE0.6 kmh SSE 1.1 mph1.8 kmh 29.72 in1006.4 mb 0.01 in0.3 mm 0.00 in0.0 mm 0.01 in0.3 mm
01:07 AM 42.3°F5.7°C 36.5°F2.5°C 80% 0.9 mph SSE1.4 kmh SSE 2.0 mph3.2 kmh 29.72 in1006.4 mb 0.01 in0.3 mm 0.00 in0.0 mm 0.01 in0.3 mm
01:08 AM 42.3°F5.7°C 36.5°F2.5°C 80% 1.1 mph SSE1.8 kmh SSE 2.0 mph3.2 kmh 29.72 in1006.4 mb 0.01 in0.3 mm 0.00 in0.0 mm 0.01 in0.3 mm
01:09 AM 42.3°F5.7°C 36.5°F2.5°C 80% 0.4 mph SSE0.6 kmh SSE 1.1 mph1.8 kmh 29.72 in1006.4 mb 0.01 in0.3 mm 0.00 in0.0 mm 0.01 in0.3 mm
01:10 AM 42.3°F5.7°C 36.5°F2.5°C 80% Calm Calm -- 29.72 in1006.4 mb 0.01 in0.3 mm 0.00 in0.0 mm 0.01 in0.3 mm
01:11 AM 42.1°F5.6°C 36.3°F2.4°C 80% Calm Calm -- 29.72 in1006.4 mb 0.01 in0.3 mm 0.00 in0.0 mm 0.01 in0.3 mm
01:12 AM 42.1°F5.6°C 36.3°F2.4°C 80% Calm Calm -- 29.72 in1006.4 mb 0.01 in0.3 mm 0.00 in0.0 mm 0.01 in0.3 mm
01:13 AM 42.1°F5.6°C 36.3°F2.4°C 80% Calm Calm -- 29.72 in1006.4 mb 0.01 in0.3 mm 0.00 in0.0 mm 0.01 in0.3 mm
01:14 AM 42.1°F5.6°C 36.3°F2.4°C 80% Calm Calm -- 29.72 in1006.4 mb 0.01 in0.3 mm 0.00 in0.0 mm 0.01 in0.3 mm
01:15 AM 42.1°F5.6°C 36.3°F2.4°C 80% Calm Calm -- 29.72 in1006.4 mb 0.01 in0.3 mm 0.00 in0.0 mm 0.01 in0.3 mm
01:16 AM 41.9°F5.5°C 36.1°F2.3°C 80% Calm Calm -- 29.72 in1006.4 mb 0.00 in0.0 mm 0.00 in0.0 mm 0.01 in0.3 mm
01:17 AM 41.9°F5.5°C 36.1°F2.3°C 80% Calm Calm -- 29.72 in1006.4 mb 0.00 in0.0 mm 0.00 in0.0 mm 0.01 in0.3 mm
01:18 AM 41.9°F5.5°C 36.1°F2.3°C 80% Calm Calm -- 29.72 in1006.4 mb 0.00 in0.0 mm 0.00 in0.0 mm 0.01 in0.3 mm
01:19 AM 41.7°F5.4°C 36.0°F2.2°C 80% Calm Calm 1.1 mph1.8 kmh 29.72 in1006.4 mb 0.00 in0.0 mm 0.00 in0.0 mm 0.01 in0.3 mm
01:20 AM 41.7°F5.4°C 36.0°F2.2°C 80% 0.7 mph NNW1.1 kmh NNW 3.1 mph5.0 kmh 29.72 in1006.4 mb 0.00 in0.0 mm 0.00 in0.0 mm 0.01 in0.3 mm
01:21 AM 41.7°F5.4°C 36.0°F2.2°C 80% 1.6 mph WNW2.6 kmh WNW 2.0 mph3.2 kmh 29.72 in1006.4 mb 0.00 in0.0 mm 0.00 in0.0 mm 0.01 in0.3 mm
01:22 AM 41.7°F5.4°C 36.3°F2.4°C 81% 1.8 mph W2.9 kmh W 3.1 mph5.0 kmh 29.72 in1006.4 mb 0.00 in0.0 mm 0.00 in0.0 mm 0.01 in0.3 mm
01:23 AM 41.7°F5.4°C 36.3°F2.4°C 81% 2.0 mph W3.2 kmh W 3.1 mph5.0 kmh 29.72 in1006.4 mb 0.00 in0.0 mm 0.00 in0.0 mm 0.01 in0.3 mm
01:24 AM 41.7°F5.4°C 36.3°F2.4°C 81% 1.3 mph W2.1 kmh W 2.0 mph3.2 kmh 29.72 in1006.4 mb 0.00 in0.0 mm 0.00 in0.0 mm 0.01 in0.3 mm
01:25 AM 41.7°F5.4°C 36.3°F2.4°C 81% 0.7 mph W1.1 kmh W 1.1 mph1.8 kmh 29.71 in1006.1 mb 0.00 in0.0 mm 0.00 in0.0 mm 0.01 in0.3 mm
01:26 AM 41.7°F5.4°C 36.3°F2.4°C 81% 0.7 mph SW1.1 kmh SW 2.0 mph3.2 kmh 29.72 in1006.4 mb 0.00 in0.0 mm 0.00 in0.0 mm 0.01 in0.3 mm
01:27 AM 41.7°F5.4°C 36.3°F2.4°C 81% 0.9 mph SW1.4 kmh SW 1.1 mph1.8 kmh 29.71 in1006.1 mb 0.00 in0.0 mm 0.00 in0.0 mm 0.01 in0.3 mm
01:28 AM 41.7°F5.4°C 36.3°F2.4°C 81% 0.7 mph SW1.1 kmh SW 2.0 mph3.2 kmh 29.71 in1006.1 mb 0.00 in0.0 mm 0.00 in0.0 mm 0.01 in0.3 mm
01:29 AM 41.7°F5.4°C 36.3°F2.4°C 81% 0.9 mph SW1.4 kmh SW 2.0 mph3.2 kmh 29.72 in1006.4 mb 0.00 in0.0 mm 0.00 in0.0 mm 0.01 in0.3 mm
01:30 AM 41.7°F5.4°C 36.3°F2.4°C 81% 1.3 mph S2.1 kmh S 2.0 mph3.2 kmh 29.71 in1006.1 mb 0.00 in0.0 mm 0.00 in0.0 mm 0.01 in0.3 mm
01:31 AM 41.7°F5.4°C 36.3°F2.4°C 81% 0.9 mph S1.4 kmh S 2.0 mph3.2 kmh 29.72 in1006.4 mb 0.00 in0.0 mm 0.00 in0.0 mm 0.01 in0.3 mm
01:32 AM 41.7°F5.4°C 36.3°F2.4°C 81% 0.2 mph S0.3 kmh S 1.1 mph1.8 kmh 29.71 in1006.1 mb 0.00 in0.0 mm 0.00 in0.0 mm 0.01 in0.3 mm
01:33 AM 41.7°F5.4°C 36.3°F2.4°C 81% 0.2 mph S0.3 kmh S 1.1 mph1.8 kmh 29.71 in1006.1 mb 0.00 in0.0 mm 0.00 in0.0 mm 0.01 in0.3 mm
01:34 AM 41.7°F5.4°C 36.3°F2.4°C 81% 0.7 mph S1.1 kmh S 2.0 mph3.2 kmh 29.71 in1006.1 mb 0.00 in0.0 mm 0.00 in0.0 mm 0.01 in0.3 mm
01:35 AM 41.7°F5.4°C 36.3°F2.4°C 81% 1.1 mph S1.8 kmh S 2.0 mph3.2 kmh 29.71 in1006.1 mb 0.00 in0.0 mm 0.00 in0.0 mm 0.01 in0.3 mm
01:36 AM 41.7°F5.4°C 36.3°F2.4°C 81% 1.3 mph WSW2.1 kmh WSW 3.1 mph5.0 kmh 29.71 in1006.1 mb 0.00 in0.0 mm 0.00 in0.0 mm 0.01 in0.3 mm
01:37 AM 41.7°F5.4°C 36.3°F2.4°C 81% 2.7 mph NW4.3 kmh NW 7.4 mph11.9 kmh 29.71 in1006.1 mb 0.00 in0.0 mm 0.00 in0.0 mm 0.01 in0.3 mm
01:38 AM 41.7°F5.4°C 36.3°F2.4°C 81% 4.0 mph NNW6.4 kmh NNW 7.4 mph11.9 kmh 29.71 in1006.1 mb 0.00 in0.0 mm 0.00 in0.0 mm 0.01 in0.3 mm
01:39 AM 42.1°F5.6°C 37.0°F2.8°C 82% 2.7 mph WSW4.3 kmh WSW 3.1 mph5.0 kmh 29.71 in1006.1 mb 0.00 in0.0 mm 0.00 in0.0 mm 0.01 in0.3 mm
01:40 AM 42.1°F5.6°C 37.0°F2.8°C 82% 2.5 mph WNW4.0 kmh WNW 4.3 mph6.9 kmh 29.71 in1006.1 mb 0.00 in0.0 mm 0.00 in0.0 mm 0.01 in0.3 mm
01:41 AM 42.3°F5.7°C 37.2°F2.9°C 82% 3.1 mph NNW5.0 kmh NNW 5.4 mph8.7 kmh 29.71 in1006.1 mb 0.00 in0.0 mm 0.00 in0.0 mm 0.01 in0.3 mm
01:42 AM 42.4°F5.8°C 37.0°F2.8°C 81% 3.4 mph NNW5.5 kmh NNW 6.3 mph10.1 kmh 29.71 in1006.1 mb 0.00 in0.0 mm 0.00 in0.0 mm 0.01 in0.3 mm
01:43 AM 42.4°F5.8°C 37.4°F3.0°C 82% 3.4 mph NW5.5 kmh NW 6.3 mph10.1 kmh 29.71 in1006.1 mb 0.00 in0.0 mm 0.00 in0.0 mm 0.01 in0.3 mm
01:44 AM 42.6°F5.9°C 37.6°F3.1°C 82% 3.4 mph NW5.5 kmh NW 7.4 mph11.9 kmh 29.71 in1006.1 mb 0.00 in0.0 mm 0.00 in0.0 mm 0.01 in0.3 mm
01:45 AM 43.0°F6.1°C 37.9°F3.3°C 82% 4.3 mph NW6.9 kmh NW 8.5 mph13.7 kmh 29.71 in1006.1 mb 0.00 in0.0 mm 0.00 in0.0 mm 0.01 in0.3 mm
01:46 AM 43.0°F6.1°C 37.9°F3.3°C 82% 4.3 mph NW6.9 kmh NW 7.4 mph11.9 kmh 29.71 in1006.1 mb 0.00 in0.0 mm 0.00 in0.0 mm 0.01 in0.3 mm
01:47 AM 43.2°F6.2°C 37.8°F3.2°C 81% 3.1 mph N5.0 kmh N 5.4 mph8.7 kmh 29.70 in1005.8 mb 0.00 in0.0 mm 0.00 in0.0 mm 0.01 in0.3 mm
01:48 AM 43.3°F6.3°C 37.9°F3.3°C 81% 2.9 mph W4.7 kmh W 7.4 mph11.9 kmh 29.70 in1005.8 mb 0.00 in0.0 mm 0.00 in0.0 mm 0.01 in0.3 mm
01:49 AM 43.3°F6.3°C 37.9°F3.3°C 81% 2.5 mph W4.0 kmh W 3.1 mph5.0 kmh 29.70 in1005.8 mb 0.00 in0.0 mm 0.00 in0.0 mm 0.01 in0.3 mm
01:50 AM 43.5°F6.4°C 37.8°F3.2°C 80% 1.8 mph N2.9 kmh N 3.1 mph5.0 kmh 29.71 in1006.1 mb 0.00 in0.0 mm 0.00 in0.0 mm 0.01 in0.3 mm
01:51 AM 43.5°F6.4°C 37.8°F3.2°C 80% 1.8 mph N2.9 kmh N 3.1 mph5.0 kmh 29.71 in1006.1 mb 0.00 in0.0 mm 0.00 in0.0 mm 0.01 in0.3 mm
01:52 AM 43.5°F6.4°C 37.8°F3.2°C 80% 1.6 mph NNW2.6 kmh NNW 3.1 mph5.0 kmh 29.71 in1006.1 mb 0.00 in0.0 mm 0.00 in0.0 mm 0.01 in0.3 mm
01:53 AM 43.7°F6.5°C 37.9°F3.3°C 80% 2.0 mph NNW3.2 kmh NNW 4.3 mph6.9 kmh 29.71 in1006.1 mb 0.00 in0.0 mm 0.00 in0.0 mm 0.01 in0.3 mm
01:54 AM 43.9°F6.6°C 38.1°F3.4°C 80% 2.7 mph SW4.3 kmh SW 6.3 mph10.1 kmh 29.71 in1006.1 mb 0.00 in0.0 mm 0.00 in0.0 mm 0.01 in0.3 mm
01:55 AM 43.9°F6.6°C 38.1°F3.4°C 80% 2.9 mph NW4.7 kmh NW 5.4 mph8.7 kmh 29.71 in1006.1 mb 0.00 in0.0 mm 0.00 in0.0 mm 0.01 in0.3 mm
01:56 AM 43.9°F6.6°C 38.1°F3.4°C 80% 2.5 mph NW4.0 kmh NW 4.3 mph6.9 kmh 29.71 in1006.1 mb 0.00 in0.0 mm 0.00 in0.0 mm 0.01 in0.3 mm
01:57 AM 44.1°F6.7°C 38.3°F3.5°C 80% 2.7 mph WNW4.3 kmh WNW 6.3 mph10.1 kmh 29.71 in1006.1 mb 0.00 in0.0 mm 0.00 in0.0 mm 0.01 in0.3 mm
01:58 AM 44.1°F6.7°C 37.9°F3.3°C 79% 2.7 mph NW4.3 kmh NW 6.3 mph10.1 kmh 29.70 in1005.8 mb 0.00 in0.0 mm 0.00 in0.0 mm 0.01 in0.3 mm
01:59 AM 44.1°F6.7°C 37.9°F3.3°C 79% 3.4 mph WNW5.5 kmh WNW 8.5 mph13.7 kmh 29.71 in1006.1 mb 0.00 in0.0 mm 0.00 in0.0 mm 0.01 in0.3 mm
02:00 AM 44.2°F6.8°C 38.1°F3.4°C 79% 3.1 mph NW5.0 kmh NW 6.3 mph10.1 kmh 29.71 in1006.1 mb 0.00 in0.0 mm 0.00 in0.0 mm 0.01 in0.3 mm
02:01 AM 44.2°F6.8°C 38.1°F3.4°C 79% 2.9 mph NW4.7 kmh NW 6.3 mph10.1 kmh 29.71 in1006.1 mb 0.00 in0.0 mm 0.00 in0.0 mm 0.01 in0.3 mm
02:02 AM 44.2°F6.8°C 38.1°F3.4°C 79% 2.9 mph W4.7 kmh W 5.4 mph8.7 kmh 29.70 in1005.8 mb 0.00 in0.0 mm 0.00 in0.0 mm 0.01 in0.3 mm
02:03 AM 44.4°F6.9°C 38.3°F3.5°C 79% 2.5 mph WSW4.0 kmh WSW 4.3 mph6.9 kmh 29.70 in1005.8 mb 0.00 in0.0 mm 0.00 in0.0 mm 0.01 in0.3 mm
02:04 AM 44.4°F6.9°C 38.3°F3.5°C 79% 2.7 mph SW4.3 kmh SW 5.4 mph8.7 kmh 29.71 in1006.1 mb 0.00 in0.0 mm 0.00 in0.0 mm 0.01 in0.3 mm
02:05 AM 44.4°F6.9°C 38.3°F3.5°C 79% 3.1 mph WSW5.0 kmh WSW 5.4 mph8.7 kmh 29.71 in1006.1 mb 0.00 in0.0 mm 0.00 in0.0 mm 0.01 in0.3 mm
02:06 AM 44.4°F6.9°C 38.3°F3.5°C 79% 3.1 mph WSW5.0 kmh WSW 6.3 mph10.1 kmh 29.71 in1006.1 mb 0.00 in0.0 mm 0.00 in0.0 mm 0.01 in0.3 mm
02:07 AM 44.4°F6.9°C 37.9°F3.3°C 78% 2.0 mph 3.2 kmh 3.1 mph5.0 kmh 29.71 in1006.1 mb 0.00 in0.0 mm 0.00 in0.0 mm 0.01 in0.3 mm
02:08 AM 44.6°F7.0°C 38.1°F3.4°C 78% 1.1 mph 1.8 kmh 2.0 mph3.2 kmh 29.71 in1006.1 mb 0.00 in0.0 mm 0.00 in0.0 mm 0.01 in0.3 mm
02:09 AM 44.6°F7.0°C 38.1°F3.4°C 78% 1.3 mph WSW2.1 kmh WSW 2.0 mph3.2 kmh 29.71 in1006.1 mb 0.00 in0.0 mm 0.00 in0.0 mm 0.01 in0.3 mm
02:10 AM 44.6°F7.0°C 38.1°F3.4°C 78% 2.0 mph WSW3.2 kmh WSW 3.1 mph5.0 kmh 29.71 in1006.1 mb 0.00 in0.0 mm 0.00 in0.0 mm 0.01 in0.3 mm
02:11 AM 44.6°F7.0°C 38.1°F3.4°C 78% 2.0 mph WSW3.2 kmh WSW 3.1 mph5.0 kmh 29.71 in1006.1 mb 0.00 in0.0 mm 0.00 in0.0 mm 0.01 in0.3 mm
02:12 AM 44.6°F7.0°C 38.1°F3.4°C 78% 1.8 mph W2.9 kmh W 3.1 mph5.0 kmh 29.71 in1006.1 mb 0.00 in0.0 mm 0.00 in0.0 mm 0.01 in0.3 mm
02:13 AM 44.6°F7.0°C 38.1°F3.4°C 78% 1.6 mph WNW2.6 kmh WNW 3.1 mph5.0 kmh 29.71 in1006.1 mb 0.00 in0.0 mm 0.00 in0.0 mm 0.01 in0.3 mm
02:14 AM 44.6°F7.0°C 38.1°F3.4°C 78% 1.6 mph WNW2.6 kmh WNW 2.0 mph3.2 kmh 29.71 in1006.1 mb 0.00 in0.0 mm 0.00 in0.0 mm 0.01 in0.3 mm
02:15 AM 44.6°F7.0°C 38.1°F3.4°C 78% 2.7 mph WNW4.3 kmh WNW 7.4 mph11.9 kmh 29.70 in1005.8 mb 0.00 in0.0 mm 0.00 in0.0 mm 0.01 in0.3 mm
02:16 AM 44.6°F7.0°C 38.1°F3.4°C 78% 3.6 mph WSW5.8 kmh WSW 7.4 mph11.9 kmh 29.71 in1006.1 mb 0.00 in0.0 mm 0.00 in0.0 mm 0.01 in0.3 mm
02:17 AM 44.6°F7.0°C 38.1°F3.4°C 78% 2.5 mph WSW4.0 kmh WSW 3.1 mph5.0 kmh 29.71 in1006.1 mb 0.00 in0.0 mm 0.00 in0.0 mm 0.01 in0.3 mm
02:18 AM 44.6°F7.0°C 38.1°F3.4°C 78% 1.8 mph WSW2.9 kmh WSW 3.1 mph5.0 kmh 29.71 in1006.1 mb 0.00 in0.0 mm 0.00 in0.0 mm 0.01 in0.3 mm
02:19 AM 44.6°F7.0°C 38.1°F3.4°C 78% 1.8 mph WSW2.9 kmh WSW 3.1 mph5.0 kmh 29.71 in1006.1 mb 0.00 in0.0 mm 0.00 in0.0 mm 0.01 in0.3 mm
02:20 AM 44.6°F7.0°C 38.1°F3.4°C 78% 1.6 mph NW2.6 kmh NW 3.1 mph5.0 kmh 29.71 in1006.1 mb 0.00 in0.0 mm 0.00 in0.0 mm 0.01 in0.3 mm
02:21 AM 44.6°F7.0°C 38.1°F3.4°C 78% 1.6 mph WNW2.6 kmh WNW 2.0 mph3.2 kmh 29.71 in1006.1 mb 0.00 in0.0 mm 0.00 in0.0 mm 0.01 in0.3 mm
02:22 AM 44.6°F7.0°C 38.1°F3.4°C 78% 0.9 mph N1.4 kmh N 1.1 mph1.8 kmh 29.71 in1006.1 mb 0.00 in0.0 mm 0.00 in0.0 mm 0.01 in0.3 mm
02:23 AM 44.6°F7.0°C 38.1°F3.4°C 78% 0.7 mph 1.1 kmh 1.1 mph1.8 kmh 29.71 in1006.1 mb 0.00 in0.0 mm 0.00 in0.0 mm 0.01 in0.3 mm
02:24 AM 44.6°F7.0°C 38.1°F3.4°C 78% 1.8 mph NNW2.9 kmh NNW 3.1 mph5.0 kmh 29.71 in1006.1 mb 0.00 in0.0 mm 0.00 in0.0 mm 0.01 in0.3 mm
02:25 AM 44.6°F7.0°C 38.1°F3.4°C 78% 2.2 mph NNW3.5 kmh NNW 3.1 mph5.0 kmh 29.71 in1006.1 mb 0.00 in0.0 mm 0.00 in0.0 mm 0.01 in0.3 mm
02:26 AM 44.6°F7.0°C 38.1°F3.4°C 78% 2.2 mph NW3.5 kmh NW 3.1 mph5.0 kmh 29.71 in1006.1 mb 0.00 in0.0 mm 0.00 in0.0 mm 0.01 in0.3 mm
02:27 AM 44.6°F7.0°C 38.1°F3.4°C 78% 2.5 mph NW4.0 kmh NW 4.3 mph6.9 kmh 29.71 in1006.1 mb 0.00 in0.0 mm 0.00 in0.0 mm 0.01 in0.3 mm
02:28 AM 44.6°F7.0°C 38.1°F3.4°C 78% 2.7 mph W4.3 kmh W 5.4 mph8.7 kmh 29.71 in1006.1 mb 0.00 in0.0 mm 0.00 in0.0 mm 0.01 in0.3 mm
02:29 AM 44.6°F7.0°C 38.1°F3.4°C 78% 2.5 mph W4.0 kmh W 6.3 mph10.1 kmh 29.71 in1006.1 mb 0.00 in0.0 mm 0.00 in0.0 mm 0.01 in0.3 mm
02:30 AM 44.6°F7.0°C 38.1°F3.4°C 78% 2.0 mph W3.2 kmh W 2.0 mph3.2 kmh 29.71 in1006.1 mb 0.00 in0.0 mm 0.00 in0.0 mm 0.01 in0.3 mm
02:31 AM 44.6°F7.0°C 38.1°F3.4°C 78% 1.6 mph WSW2.6 kmh WSW 2.0 mph3.2 kmh 29.71 in1006.1 mb 0.00 in0.0 mm 0.00 in0.0 mm 0.01 in0.3 mm
02:32 AM 44.6°F7.0°C 38.1°F3.4°C 78% 1.6 mph WSW2.6 kmh WSW 2.0 mph3.2 kmh 29.71 in1006.1 mb 0.00 in0.0 mm 0.00 in0.0 mm 0.01 in0.3 mm
02:33 AM 44.6°F7.0°C 38.1°F3.4°C 78% 2.2 mph NNW3.5 kmh NNW 3.1 mph5.0 kmh 29.71 in1006.1 mb 0.00 in0.0 mm 0.00 in0.0 mm 0.01 in0.3 mm
02:34 AM 44.6°F7.0°C 38.1°F3.4°C 78% 2.9 mph NW4.7 kmh NW 5.4 mph8.7 kmh 29.71 in1006.1 mb 0.00 in0.0 mm 0.00 in0.0 mm 0.01 in0.3 mm
02:35 AM 44.6°F7.0°C 38.1°F3.4°C 78% 3.4 mph NW5.5 kmh NW 4.3 mph6.9 kmh 29.71 in1006.1 mb 0.00 in0.0 mm 0.00 in0.0 mm 0.01 in0.3 mm
02:36 AM 44.6°F7.0°C 38.1°F3.4°C 78% 2.2 mph NW3.5 kmh NW 3.1 mph5.0 kmh 29.71 in1006.1 mb 0.00 in0.0 mm 0.00 in0.0 mm 0.01 in0.3 mm
02:37 AM 44.6°F7.0°C 38.1°F3.4°C 78% 2.5 mph NNW4.0 kmh NNW 6.3 mph10.1 kmh 29.71 in1006.1 mb 0.00 in0.0 mm 0.00 in0.0 mm 0.01 in0.3 mm
02:38 AM 44.6°F7.0°C 38.1°F3.4°C 78% 3.6 mph NW5.8 kmh NW 6.3 mph10.1 kmh 29.71 in1006.1 mb 0.00 in0.0 mm 0.00 in0.0 mm 0.01 in0.3 mm
02:39 AM 44.6°F7.0°C 38.1°F3.4°C 78% 3.6 mph NNW5.8 kmh NNW 5.4 mph8.7 kmh 29.71 in1006.1 mb 0.00 in0.0 mm 0.00 in0.0 mm 0.01 in0.3 mm
02:40 AM 44.6°F7.0°C 38.1°F3.4°C 78% 4.0 mph W6.4 kmh W 8.5 mph13.7 kmh 29.71 in1006.1 mb 0.00 in0.0 mm 0.00 in0.0 mm 0.01 in0.3 mm
02:41 AM 44.6°F7.0°C 38.1°F3.4°C 78% 3.8 mph W6.1 kmh W 8.5 mph13.7 kmh 29.71 in1006.1 mb 0.00 in0.0 mm 0.00 in0.0 mm 0.01 in0.3 mm
02:42 AM 44.6°F7.0°C 38.1°F3.4°C 78% 3.4 mph NW5.5 kmh NW 5.4 mph8.7 kmh 29.71 in1006.1 mb 0.00 in0.0 mm 0.00 in0.0 mm 0.01 in0.3 mm
02:43 AM 44.8°F7.1°C 38.3°F3.5°C 78% 3.1 mph W5.0 kmh W 7.4 mph11.9 kmh 29.71 in1006.1 mb 0.00 in0.0 mm 0.00 in0.0 mm 0.01 in0.3 mm
02:44 AM 44.8°F7.1°C 38.3°F3.5°C 78% 2.7 mph W4.3 kmh W 3.1 mph5.0 kmh 29.71 in1006.1 mb 0.00 in0.0 mm 0.00 in0.0 mm 0.01 in0.3 mm
02:45 AM 44.8°F7.1°C 38.3°F3.5°C 78% 2.0 mph NNW3.2 kmh NNW 3.1 mph5.0 kmh 29.71 in1006.1 mb 0.00 in0.0 mm 0.00 in0.0 mm 0.01 in0.3 mm
02:46 AM 44.8°F7.1°C 38.3°F3.5°C 78% 1.6 mph NNW2.6 kmh NNW 2.0 mph3.2 kmh 29.71 in1006.1 mb 0.00 in0.0 mm 0.00 in0.0 mm 0.01 in0.3 mm
02:47 AM 44.8°F7.1°C 38.3°F3.5°C 78% 1.3 mph NNW2.1 kmh NNW 2.0 mph3.2 kmh 29.71 in1006.1 mb 0.00 in0.0 mm 0.00 in0.0 mm 0.01 in0.3 mm
02:48 AM 44.8°F7.1°C 38.3°F3.5°C 78% 1.6 mph N2.6 kmh N 3.1 mph5.0 kmh 29.70 in1005.8 mb 0.00 in0.0 mm 0.00 in0.0 mm 0.01 in0.3 mm
02:49 AM 44.8°F7.1°C 38.3°F3.5°C 78% 2.5 mph W4.0 kmh W 4.3 mph6.9 kmh 29.70 in1005.8 mb 0.00 in0.0 mm 0.00 in0.0 mm 0.01 in0.3 mm
02:50 AM 44.8°F7.1°C 38.3°F3.5°C 78% 2.5 mph NW4.0 kmh NW 4.3 mph6.9 kmh 29.71 in1006.1 mb 0.00 in0.0 mm 0.00 in0.0 mm 0.01 in0.3 mm
02:51 AM 44.8°F7.1°C 38.3°F3.5°C 78% 2.2 mph WSW3.5 kmh WSW 3.1 mph5.0 kmh 29.70 in1005.8 mb 0.00 in0.0 mm 0.00 in0.0 mm 0.01 in0.3 mm
02:52 AM 44.8°F7.1°C 38.3°F3.5°C 78% 2.2 mph WSW3.5 kmh WSW 3.1 mph5.0 kmh 29.70 in1005.8 mb 0.00 in0.0 mm 0.00 in0.0 mm 0.01 in0.3 mm
02:53 AM 44.8°F7.1°C 38.3°F3.5°C 78% 1.6 mph WSW2.6 kmh WSW 2.0 mph3.2 kmh 29.70 in1005.8 mb 0.00 in0.0 mm 0.00 in0.0 mm 0.01 in0.3 mm
02:54 AM 44.8°F7.1°C 38.3°F3.5°C 78% 1.1 mph WSW1.8 kmh WSW 2.0 mph3.2 kmh 29.70 in1005.8 mb 0.00 in0.0 mm 0.00 in0.0 mm 0.01 in0.3 mm
02:55 AM 44.8°F7.1°C 38.3°F3.5°C 78% 1.6 mph WNW2.6 kmh WNW 4.3 mph6.9 kmh 29.70 in1005.8 mb 0.00 in0.0 mm 0.00 in0.0 mm 0.01 in0.3 mm
02:56 AM 44.6°F7.0°C 38.1°F3.4°C 78% 1.8 mph WNW2.9 kmh WNW 4.3 mph6.9 kmh 29.70 in1005.8 mb 0.00 in0.0 mm 0.00 in0.0 mm 0.01 in0.3 mm
02:57 AM 44.6°F7.0°C 38.1°F3.4°C 78% 1.8 mph NW2.9 kmh NW 3.1 mph5.0 kmh 29.70 in1005.8 mb 0.00 in0.0 mm 0.00 in0.0 mm 0.01 in0.3 mm
02:58 AM 44.6°F7.0°C 38.1°F3.4°C 78% 1.8 mph WNW2.9 kmh WNW 2.0 mph3.2 kmh 29.70 in1005.8 mb 0.00 in0.0 mm 0.00 in0.0 mm 0.01 in0.3 mm
02:59 AM 44.6°F7.0°C 38.1°F3.4°C 78% 1.8 mph W2.9 kmh W 3.1 mph5.0 kmh 29.70 in1005.8 mb 0.00 in0.0 mm 0.00 in0.0 mm 0.01 in0.3 mm
03:00 AM 44.6°F7.0°C 38.1°F3.4°C 78% 1.6 mph W2.6 kmh W 2.0 mph3.2 kmh 29.70 in1005.8 mb 0.00 in0.0 mm 0.00 in0.0 mm 0.01 in0.3 mm
03:01 AM 44.6°F7.0°C 38.1°F3.4°C 78% 2.5 mph NW4.0 kmh NW 6.3 mph10.1 kmh 29.70 in1005.8 mb 0.00 in0.0 mm 0.00 in0.0 mm 0.01 in0.3 mm
03:02 AM 44.6°F7.0°C 38.1°F3.4°C 78% 3.1 mph NW5.0 kmh NW 5.4 mph8.7 kmh 29.70 in1005.8 mb 0.00 in0.0 mm 0.00 in0.0 mm 0.01 in0.3 mm
03:03 AM 44.6°F7.0°C 38.1°F3.4°C 78% 3.4 mph W5.5 kmh W 5.4 mph8.7 kmh 29.70 in1005.8 mb 0.00 in0.0 mm 0.00 in0.0 mm 0.01 in0.3 mm
03:04 AM 44.6°F7.0°C 38.1°F3.4°C 78% 3.4 mph N5.5 kmh N 4.3 mph6.9 kmh 29.70 in1005.8 mb 0.00 in0.0 mm 0.00 in0.0 mm 0.01 in0.3 mm
03:05 AM 44.6°F7.0°C 38.1°F3.4°C 78% 2.5 mph SW4.0 kmh SW 4.3 mph6.9 kmh 29.70 in1005.8 mb 0.00 in0.0 mm 0.00 in0.0 mm 0.01 in0.3 mm
03:06 AM 44.6°F7.0°C 38.1°F3.4°C 78% 2.2 mph NNW3.5 kmh NNW 3.1 mph5.0 kmh 29.70 in1005.8 mb 0.00 in0.0 mm 0.00 in0.0 mm 0.01 in0.3 mm
03:07 AM 44.6°F7.0°C 38.1°F3.4°C 78% 2.0 mph NNW3.2 kmh NNW 3.1 mph5.0 kmh 29.70 in1005.8 mb 0.00 in0.0 mm 0.00 in0.0 mm 0.01 in0.3 mm
03:08 AM 44.6°F7.0°C 38.1°F3.4°C 78% 2.7 mph WSW4.3 kmh WSW 7.4 mph11.9 kmh 29.70 in1005.8 mb 0.00 in0.0 mm 0.00 in0.0 mm 0.01 in0.3 mm
03:09 AM 44.6°F7.0°C 38.1°F3.4°C 78% 2.9 mph NW4.7 kmh NW 3.1 mph5.0 kmh 29.70 in1005.8 mb 0.00 in0.0 mm 0.00 in0.0 mm 0.01 in0.3 mm
03:10 AM 44.6°F7.0°C 38.1°F3.4°C 78% 2.0 mph NW3.2 kmh NW 3.1 mph5.0 kmh 29.70 in1005.8 mb 0.00 in0.0 mm 0.00 in0.0 mm 0.01 in0.3 mm
03:11 AM 44.6°F7.0°C 38.1°F3.4°C 78% 1.8 mph NW2.9 kmh NW 2.0 mph3.2 kmh 29.70 in1005.8 mb 0.00 in0.0 mm 0.00 in0.0 mm 0.01 in0.3 mm
03:12 AM 44.6°F7.0°C 38.1°F3.4°C 78% 1.6 mph NW2.6 kmh NW 2.0 mph3.2 kmh 29.70 in1005.8 mb 0.00 in0.0 mm 0.00 in0.0 mm 0.01 in0.3 mm
03:13 AM 44.6°F7.0°C 38.1°F3.4°C 78% 1.8 mph WSW2.9 kmh WSW 4.3 mph6.9 kmh 29.70 in1005.8 mb 0.00 in0.0 mm 0.00 in0.0 mm 0.01 in0.3 mm
03:14 AM 44.6°F7.0°C 38.1°F3.4°C 78% 2.2 mph WSW3.5 kmh WSW 4.3 mph6.9 kmh 29.70 in1005.8 mb 0.00 in0.0 mm 0.00 in0.0 mm 0.01 in0.3 mm
03:15 AM 44.4°F6.9°C 37.9°F3.3°C 78% 2.0 mph W3.2 kmh W 4.3 mph6.9 kmh 29.70 in1005.8 mb 0.00 in0.0 mm 0.00 in0.0 mm 0.01 in0.3 mm
03:16 AM 44.4°F6.9°C 37.9°F3.3°C 78% 2.0 mph WNW3.2 kmh WNW 4.3 mph6.9 kmh 29.70 in1005.8 mb 0.00 in0.0 mm 0.00 in0.0 mm 0.01 in0.3 mm
03:17 AM 44.4°F6.9°C 37.9°F3.3°C 78% 2.2 mph WSW3.5 kmh WSW 4.3 mph6.9 kmh 29.70 in1005.8 mb 0.00 in0.0 mm 0.00 in0.0 mm 0.01 in0.3 mm
03:18 AM 44.4°F6.9°C 37.9°F3.3°C 78% 2.0 mph W3.2 kmh W 3.1 mph5.0 kmh 29.70 in1005.8 mb 0.00 in0.0 mm 0.00 in0.0 mm 0.01 in0.3 mm
03:19 AM 44.4°F6.9°C 37.9°F3.3°C 78% 1.8 mph NW2.9 kmh NW 4.3 mph6.9 kmh 29.70 in1005.8 mb 0.00 in0.0 mm 0.00 in0.0 mm 0.01 in0.3 mm
03:20 AM 44.4°F6.9°C 37.9°F3.3°C 78% 2.0 mph NNW3.2 kmh NNW 3.1 mph5.0 kmh 29.70 in1005.8 mb 0.00 in0.0 mm 0.00 in0.0 mm 0.01 in0.3 mm
03:21 AM 44.4°F6.9°C 37.9°F3.3°C 78% 1.8 mph WNW2.9 kmh WNW 3.1 mph5.0 kmh 29.70 in1005.8 mb 0.00 in0.0 mm 0.00 in0.0 mm 0.01 in0.3 mm
03:22 AM 44.4°F6.9°C 37.6°F3.1°C 77% 1.8 mph NW2.9 kmh NW 3.1 mph5.0 kmh 29.70 in1005.8 mb 0.00 in0.0 mm 0.00 in0.0 mm 0.01 in0.3 mm
03:23 AM 44.4°F6.9°C 37.6°F3.1°C 77% 2.5 mph WNW4.0 kmh WNW 6.3 mph10.1 kmh 29.70 in1005.8 mb 0.00 in0.0 mm 0.00 in0.0 mm 0.01 in0.3 mm
03:24 AM 44.4°F6.9°C 37.6°F3.1°C 77% 3.1 mph NW5.0 kmh NW 6.3 mph10.1 kmh 29.70 in1005.8 mb 0.00 in0.0 mm 0.00 in0.0 mm 0.01 in0.3 mm
03:25 AM 44.4°F6.9°C 37.6°F3.1°C 77% 2.7 mph NNE4.3 kmh NNE 3.1 mph5.0 kmh 29.70 in1005.8 mb 0.00 in0.0 mm 0.00 in0.0 mm 0.01 in0.3 mm
03:26 AM 44.4°F6.9°C 37.6°F3.1°C 77% 2.0 mph NNW3.2 kmh NNW 3.1 mph5.0 kmh 29.70 in1005.8 mb 0.00 in0.0 mm 0.00 in0.0 mm 0.01 in0.3 mm
03:27 AM 44.4°F6.9°C 37.6°F3.1°C 77% 2.2 mph NW3.5 kmh NW 4.3 mph6.9 kmh 29.70 in1005.8 mb 0.00 in0.0 mm 0.00 in0.0 mm 0.01 in0.3 mm
03:28 AM 44.4°F6.9°C 37.6°F3.1°C 77% 2.5 mph NNW4.0 kmh NNW 4.3 mph6.9 kmh 29.70 in1005.8 mb 0.00 in0.0 mm 0.00 in0.0 mm 0.01 in0.3 mm
03:29 AM 44.4°F6.9°C 37.6°F3.1°C 77% 2.7 mph NW4.3 kmh NW 5.4 mph8.7 kmh 29.70 in1005.8 mb 0.00 in0.0 mm 0.00 in0.0 mm 0.01 in0.3 mm
03:30 AM 44.4°F6.9°C 37.6°F3.1°C 77% 3.4 mph WNW5.5 kmh WNW 6.3 mph10.1 kmh 29.70 in1005.8 mb 0.00 in0.0 mm 0.00 in0.0 mm 0.01 in0.3 mm
03:31 AM 44.4°F6.9°C 37.4°F3.0°C 76% 3.1 mph WNW5.0 kmh WNW 6.3 mph10.1 kmh 29.70 in1005.8 mb 0.00 in0.0 mm 0.00 in0.0 mm 0.01 in0.3 mm
03:32 AM 44.4°F6.9°C 37.4°F3.0°C 76% 2.0 mph WNW3.2 kmh WNW 2.0 mph3.2 kmh 29.70 in1005.8 mb 0.00 in0.0 mm 0.00 in0.0 mm 0.01 in0.3 mm
03:33 AM 44.2°F6.8°C 37.2°F2.9°C 76% 1.3 mph WNW2.1 kmh WNW 2.0 mph3.2 kmh 29.70 in1005.8 mb 0.00 in0.0 mm 0.00 in0.0 mm 0.01 in0.3 mm
03:34 AM 44.2°F6.8°C 37.2°F2.9°C 76% 1.1 mph WNW1.8 kmh WNW 2.0 mph3.2 kmh 29.70 in1005.8 mb 0.00 in0.0 mm 0.00 in0.0 mm 0.01 in0.3 mm
03:35 AM 44.2°F6.8°C 37.2°F2.9°C 76% 1.1 mph WNW1.8 kmh WNW 2.0 mph3.2 kmh 29.70 in1005.8 mb 0.00 in0.0 mm 0.00 in0.0 mm 0.01 in0.3 mm
03:36 AM 44.2°F6.8°C 37.2°F2.9°C 76% 1.6 mph WNW2.6 kmh WNW 2.0 mph3.2 kmh 29.70 in1005.8 mb 0.00 in0.0 mm 0.00 in0.0 mm 0.01 in0.3 mm
03:37 AM 44.2°F6.8°C 37.2°F2.9°C 76% 1.6 mph WNW2.6 kmh WNW 2.0 mph3.2 kmh 29.70 in1005.8 mb 0.00 in0.0 mm 0.00 in0.0 mm 0.01 in0.3 mm
03:38 AM 44.2°F6.8°C 37.2°F2.9°C 76% 1.8 mph WNW2.9 kmh WNW 3.1 mph5.0 kmh 29.70 in1005.8 mb 0.00 in0.0 mm 0.00 in0.0 mm 0.01 in0.3 mm
03:39 AM 44.2°F6.8°C 37.2°F2.9°C 76% 2.0 mph WNW3.2 kmh WNW 2.0 mph3.2 kmh 29.70 in1005.8 mb 0.00 in0.0 mm 0.00 in0.0 mm 0.01 in0.3 mm
03:40 AM 44.2°F6.8°C 37.2°F2.9°C 76% 1.6 mph WNW2.6 kmh WNW 2.0 mph3.2 kmh 29.70 in1005.8 mb 0.00 in0.0 mm 0.00 in0.0 mm 0.01 in0.3 mm
03:41 AM 44.2°F6.8°C 37.2°F2.9°C 76% 1.3 mph 2.1 kmh 2.0 mph3.2 kmh 29.70 in1005.8 mb 0.00 in0.0 mm 0.00 in0.0 mm 0.01 in0.3 mm
03:42 AM 44.2°F6.8°C 37.2°F2.9°C 76% 1.3 mph 2.1 kmh 2.0 mph3.2 kmh 29.70 in1005.8 mb 0.00 in0.0 mm 0.00 in0.0 mm 0.01 in0.3 mm
03:43 AM 44.2°F6.8°C 37.2°F2.9°C 76% 1.1 mph N1.8 kmh N 2.0 mph3.2 kmh 29.70 in1005.8 mb 0.00 in0.0 mm 0.00 in0.0 mm 0.01 in0.3 mm
03:44 AM 44.2°F6.8°C 37.2°F2.9°C 76% 1.6 mph N2.6 kmh N 3.1 mph5.0 kmh 29.70 in1005.8 mb 0.00 in0.0 mm 0.00 in0.0 mm 0.01 in0.3 mm
03:45 AM 44.1°F6.7°C 37.0°F2.8°C 76% 2.2 mph W3.5 kmh W 4.3 mph6.9 kmh 29.70 in1005.8 mb 0.00 in0.0 mm 0.00 in0.0 mm 0.01 in0.3 mm
03:46 AM 44.1°F6.7°C 37.0°F2.8°C 76% 3.1 mph W5.0 kmh W 5.4 mph8.7 kmh 29.70 in1005.8 mb 0.00 in0.0 mm 0.00 in0.0 mm 0.01 in0.3 mm
03:47 AM 44.1°F6.7°C 37.0°F2.8°C 76% 3.1 mph NNW5.0 kmh NNW 5.4 mph8.7 kmh 29.70 in1005.8 mb 0.00 in0.0 mm 0.00 in0.0 mm 0.01 in0.3 mm
03:48 AM 44.1°F6.7°C 37.0°F2.8°C 76% 2.5 mph NNW4.0 kmh NNW 3.1 mph5.0 kmh 29.70 in1005.8 mb 0.00 in0.0 mm 0.00 in0.0 mm 0.01 in0.3 mm
03:49 AM 44.1°F6.7°C 37.0°F2.8°C 76% 2.0 mph NNW3.2 kmh NNW 3.1 mph5.0 kmh 29.70 in1005.8 mb 0.00 in0.0 mm 0.00 in0.0 mm 0.01 in0.3 mm
03:50 AM 44.1°F6.7°C 37.0°F2.8°C 76% 1.8 mph WNW2.9 kmh WNW 3.1 mph5.0 kmh 29.70 in1005.8 mb 0.00 in0.0 mm 0.00 in0.0 mm 0.01 in0.3 mm
03:51 AM 44.1°F6.7°C 37.0°F2.8°C 76% 1.8 mph WNW2.9 kmh WNW 2.0 mph3.2 kmh 29.70 in1005.8 mb 0.00 in0.0 mm 0.00 in0.0 mm 0.01 in0.3 mm
03:52 AM 44.1°F6.7°C 37.0°F2.8°C 76% 1.8 mph WSW2.9 kmh WSW 3.1 mph5.0 kmh 29.70 in1005.8 mb 0.00 in0.0 mm 0.00 in0.0 mm 0.01 in0.3 mm
03:53 AM 43.9°F6.6°C 36.9°F2.7°C 76% 2.5 mph W4.0 kmh W 4.3 mph6.9 kmh 29.69 in1005.4 mb 0.00 in0.0 mm 0.00 in0.0 mm 0.01 in0.3 mm
03:54 AM 43.9°F6.6°C 36.9°F2.7°C 76% 2.5 mph W4.0 kmh W 3.1 mph5.0 kmh 29.70 in1005.8 mb 0.00 in0.0 mm 0.00 in0.0 mm 0.01 in0.3 mm
03:55 AM 43.9°F6.6°C 36.9°F2.7°C 76% 1.8 mph N2.9 kmh N 3.1 mph5.0 kmh 29.70 in1005.8 mb 0.00 in0.0 mm 0.00 in0.0 mm 0.01 in0.3 mm
03:56 AM 43.9°F6.6°C 36.9°F2.7°C 76% 2.0 mph NW3.2 kmh NW 3.1 mph5.0 kmh 29.69 in1005.4 mb 0.00 in0.0 mm 0.00 in0.0 mm 0.01 in0.3 mm
03:57 AM 43.9°F6.6°C 36.9°F2.7°C 76% 2.0 mph NW3.2 kmh NW 3.1 mph5.0 kmh 29.69 in1005.4 mb 0.00 in0.0 mm 0.00 in0.0 mm 0.01 in0.3 mm
03:58 AM 43.9°F6.6°C 36.9°F2.7°C 76% 1.8 mph NW2.9 kmh NW 2.0 mph3.2 kmh 29.70 in1005.8 mb 0.00 in0.0 mm 0.00 in0.0 mm 0.01 in0.3 mm
03:59 AM 43.9°F6.6°C 36.9°F2.7°C 76% 1.8 mph NW2.9 kmh NW 2.0 mph3.2 kmh 29.69 in1005.4 mb 0.00 in0.0 mm 0.00 in0.0 mm 0.01 in0.3 mm
04:00 AM 43.9°F6.6°C 36.9°F2.7°C 76% 1.6 mph NW2.6 kmh NW 2.0 mph3.2 kmh 29.70 in1005.8 mb 0.00 in0.0 mm 0.00 in0.0 mm 0.01 in0.3 mm
04:01 AM 43.9°F6.6°C 36.9°F2.7°C 76% 1.3 mph NW2.1 kmh NW 2.0 mph3.2 kmh 29.70 in1005.8 mb 0.00 in0.0 mm 0.00 in0.0 mm 0.01 in0.3 mm
04:02 AM 43.7°F6.5°C 36.7°F2.6°C 76% 1.6 mph WSW2.6 kmh WSW 5.4 mph8.7 kmh 29.70 in1005.8 mb 0.00 in0.0 mm 0.00 in0.0 mm 0.01 in0.3 mm
04:03 AM 43.7°F6.5°C 36.7°F2.6°C 76% 2.0 mph W3.2 kmh W 5.4 mph8.7 kmh 29.69 in1005.4 mb 0.00 in0.0 mm 0.00 in0.0 mm 0.01 in0.3 mm
04:04 AM 43.7°F6.5°C 36.7°F2.6°C 76% 2.5 mph WNW4.0 kmh WNW 4.3 mph6.9 kmh 29.69 in1005.4 mb 0.00 in0.0 mm 0.00 in0.0 mm 0.01 in0.3 mm
04:05 AM 43.5°F6.4°C 36.5°F2.5°C 76% 2.7 mph W4.3 kmh W 5.4 mph8.7 kmh 29.69 in1005.4 mb 0.00 in0.0 mm 0.00 in0.0 mm 0.01 in0.3 mm
04:06 AM 43.5°F6.4°C 36.5°F2.5°C 76% 2.2 mph NW3.5 kmh NW 3.1 mph5.0 kmh 29.69 in1005.4 mb 0.00 in0.0 mm 0.00 in0.0 mm 0.01 in0.3 mm
04:07 AM 43.5°F6.4°C 36.5°F2.5°C 76% 2.0 mph NW3.2 kmh NW 3.1 mph5.0 kmh 29.69 in1005.4 mb 0.00 in0.0 mm 0.00 in0.0 mm 0.01 in0.3 mm
04:08 AM 43.5°F6.4°C 36.5°F2.5°C 76% 1.8 mph NW2.9 kmh NW 2.0 mph3.2 kmh 29.69 in1005.4 mb 0.00 in0.0 mm 0.00 in0.0 mm 0.01 in0.3 mm
04:09 AM 43.5°F6.4°C 36.5°F2.5°C 76% 1.1 mph NW1.8 kmh NW 1.1 mph1.8 kmh 29.70 in1005.8 mb 0.00 in0.0 mm 0.00 in0.0 mm 0.01 in0.3 mm
04:10 AM 43.5°F6.4°C 36.5°F2.5°C 76% 1.1 mph W1.8 kmh W 3.1 mph5.0 kmh 29.69 in1005.4 mb 0.00 in0.0 mm 0.00 in0.0 mm 0.01 in0.3 mm
04:11 AM 43.5°F6.4°C 36.5°F2.5°C 76% 1.6 mph W2.6 kmh W 2.0 mph3.2 kmh 29.69 in1005.4 mb 0.00 in0.0 mm 0.00 in0.0 mm 0.01 in0.3 mm
04:12 AM 43.5°F6.4°C 36.5°F2.5°C 76% 1.6 mph W2.6 kmh W 2.0 mph3.2 kmh 29.69 in1005.4 mb 0.00 in0.0 mm 0.00 in0.0 mm 0.01 in0.3 mm
04:13 AM 43.5°F6.4°C 36.5°F2.5°C 76% 1.1 mph W1.8 kmh W 1.1 mph1.8 kmh 29.69 in1005.4 mb 0.00 in0.0 mm 0.00 in0.0 mm 0.01 in0.3 mm
04:14 AM 43.5°F6.4°C 36.5°F2.5°C 76% 0.9 mph W1.4 kmh W 2.0 mph3.2 kmh 29.69 in1005.4 mb 0.00 in0.0 mm 0.00 in0.0 mm 0.01 in0.3 mm
04:15 AM 43.3°F6.3°C 36.3°F2.4°C 76% 0.9 mph W1.4 kmh W 2.0 mph3.2 kmh 29.69 in1005.4 mb 0.00 in0.0 mm 0.00 in0.0 mm 0.01 in0.3 mm
04:16 AM 43.3°F6.3°C 36.3°F2.4°C 76% 1.1 mph W1.8 kmh W 2.0 mph3.2 kmh 29.70 in1005.8 mb 0.00 in0.0 mm 0.00 in0.0 mm 0.01 in0.3 mm
04:17 AM 43.3°F6.3°C 36.3°F2.4°C 76% 1.3 mph W2.1 kmh W 2.0 mph3.2 kmh 29.69 in1005.4 mb 0.00 in0.0 mm 0.00 in0.0 mm 0.01 in0.3 mm
04:18 AM 43.3°F6.3°C 36.3°F2.4°C 76% 1.1 mph W1.8 kmh W 2.0 mph3.2 kmh 29.69 in1005.4 mb 0.00 in0.0 mm 0.00 in0.0 mm 0.01 in0.3 mm
04:19 AM 43.3°F6.3°C 36.3°F2.4°C 76% 1.1 mph W1.8 kmh W 2.0 mph3.2 kmh 29.69 in1005.4 mb 0.00 in0.0 mm 0.00 in0.0 mm 0.01 in0.3 mm
04:20 AM 43.3°F6.3°C 36.3°F2.4°C 76% 1.6 mph W2.6 kmh W 2.0 mph3.2 kmh 29.69 in1005.4 mb 0.00 in0.0 mm 0.00 in0.0 mm 0.01 in0.3 mm
04:21 AM 43.3°F6.3°C 36.3°F2.4°C 76% 1.8 mph W2.9 kmh W 2.0 mph3.2 kmh 29.70 in1005.8 mb 0.00 in0.0 mm 0.00 in0.0 mm 0.01 in0.3 mm
04:22 AM 43.3°F6.3°C 36.3°F2.4°C 76% 1.3 mph W2.1 kmh W 2.0 mph3.2 kmh 29.70 in1005.8 mb 0.00 in0.0 mm 0.00 in0.0 mm 0.01 in0.3 mm
04:23 AM 43.3°F6.3°C 36.3°F2.4°C 76% 1.3 mph W2.1 kmh W 4.3 mph6.9 kmh 29.69 in1005.4 mb 0.00 in0.0 mm 0.00 in0.0 mm 0.01 in0.3 mm
04:24 AM 43.3°F6.3°C 36.3°F2.4°C 76% 2.2 mph W3.5 kmh W 4.3 mph6.9 kmh 29.70 in1005.8 mb 0.00 in0.0 mm 0.00 in0.0 mm 0.01 in0.3 mm
04:25 AM 43.2°F6.2°C 36.1°F2.3°C 76% 1.8 mph W2.9 kmh W 3.1 mph5.0 kmh 29.69 in1005.4 mb 0.00 in0.0 mm 0.00 in0.0 mm 0.01 in0.3 mm
04:26 AM 43.2°F6.2°C 36.1°F2.3°C 76% 1.6 mph WNW2.6 kmh WNW 3.1 mph5.0 kmh 29.69 in1005.4 mb 0.00 in0.0 mm 0.00 in0.0 mm 0.01 in0.3 mm
04:27 AM 43.2°F6.2°C 36.1°F2.3°C 76% 1.3 mph WNW2.1 kmh WNW 3.1 mph5.0 kmh 29.69 in1005.4 mb 0.00 in0.0 mm 0.00 in0.0 mm 0.01 in0.3 mm
04:28 AM 43.2°F6.2°C 36.1°F2.3°C 76% 1.1 mph WNW1.8 kmh WNW 2.0 mph3.2 kmh 29.69 in1005.4 mb 0.00 in0.0 mm 0.00 in0.0 mm 0.01 in0.3 mm
04:29 AM 43.2°F6.2°C 36.1°F2.3°C 76% 1.6 mph WSW2.6 kmh WSW 3.1 mph5.0 kmh 29.69 in1005.4 mb 0.00 in0.0 mm 0.00 in0.0 mm 0.01 in0.3 mm
04:30 AM 43.2°F6.2°C 36.1°F2.3°C 76% 1.8 mph WSW2.9 kmh WSW 3.1 mph5.0 kmh 29.69 in1005.4 mb 0.00 in0.0 mm 0.00 in0.0 mm 0.01 in0.3 mm
04:31 AM 43.2°F6.2°C 36.1°F2.3°C 76% 1.3 mph WSW2.1 kmh WSW 2.0 mph3.2 kmh 29.69 in1005.4 mb 0.00 in0.0 mm 0.00 in0.0 mm 0.01 in0.3 mm
04:32 AM 43.2°F6.2°C 36.1°F2.3°C 76% 1.1 mph WSW1.8 kmh WSW 2.0 mph3.2 kmh 29.69 in1005.4 mb 0.00 in0.0 mm 0.00 in0.0 mm 0.01 in0.3 mm
04:33 AM 43.2°F6.2°C 36.1°F2.3°C 76% 1.6 mph WSW2.6 kmh WSW 3.1 mph5.0 kmh 29.69 in1005.4 mb 0.00 in0.0 mm 0.00 in0.0 mm 0.01 in0.3 mm
04:34 AM 43.2°F6.2°C 36.1°F2.3°C 76% 1.8 mph SW2.9 kmh SW 3.1 mph5.0 kmh 29.69 in1005.4 mb 0.00 in0.0 mm 0.00 in0.0 mm 0.01 in0.3 mm
04:36 AM 43.2°F6.2°C 36.1°F2.3°C 76% 2.2 mph WSW3.5 kmh WSW 3.1 mph5.0 kmh 29.69 in1005.4 mb 0.00 in0.0 mm 0.00 in0.0 mm 0.01 in0.3 mm
04:37 AM 43.2°F6.2°C 36.1°F2.3°C 76% 2.5 mph WNW4.0 kmh WNW 4.3 mph6.9 kmh 29.69 in1005.4 mb 0.00 in0.0 mm 0.00 in0.0 mm 0.01 in0.3 mm
04:38 AM 43.0°F6.1°C 36.0°F2.2°C 76% 2.0 mph WNW3.2 kmh WNW 3.1 mph5.0 kmh 29.69 in1005.4 mb 0.00 in0.0 mm 0.00 in0.0 mm 0.01 in0.3 mm
04:39 AM 43.0°F6.1°C 36.0°F2.2°C 76% 1.6 mph WNW2.6 kmh WNW 2.0 mph3.2 kmh 29.69 in1005.4 mb 0.00 in0.0 mm 0.00 in0.0 mm 0.01 in0.3 mm
04:40 AM 43.0°F6.1°C 36.0°F2.2°C 76% 1.1 mph WNW1.8 kmh WNW 2.0 mph3.2 kmh 29.69 in1005.4 mb 0.00 in0.0 mm 0.00 in0.0 mm 0.01 in0.3 mm
04:41 AM 43.0°F6.1°C 36.0°F2.2°C 76% 1.6 mph WNW2.6 kmh WNW 3.1 mph5.0 kmh 29.68 in1005.1 mb 0.00 in0.0 mm 0.00 in0.0 mm 0.01 in0.3 mm
04:42 AM 43.0°F6.1°C 36.0°F2.2°C 76% 2.5 mph WSW4.0 kmh WSW 6.3 mph10.1 kmh 29.68 in1005.1 mb 0.00 in0.0 mm 0.00 in0.0 mm 0.01 in0.3 mm
04:43 AM 43.0°F6.1°C 36.0°F2.2°C 76% 2.7 mph W4.3 kmh W 6.3 mph10.1 kmh 29.68 in1005.1 mb 0.00 in0.0 mm 0.00 in0.0 mm 0.01 in0.3 mm
04:44 AM 43.0°F6.1°C 36.0°F2.2°C 76% 2.5 mph WSW4.0 kmh WSW 3.1 mph5.0 kmh 29.68 in1005.1 mb 0.00 in0.0 mm 0.00 in0.0 mm 0.01 in0.3 mm
04:45 AM 43.0°F6.1°C 36.0°F2.2°C 76% 2.0 mph WSW3.2 kmh WSW 3.1 mph5.0 kmh 29.69 in1005.4 mb 0.00 in0.0 mm 0.00 in0.0 mm 0.01 in0.3 mm
04:46 AM 43.0°F6.1°C 36.0°F2.2°C 76% 1.6 mph W2.6 kmh W 3.1 mph5.0 kmh 29.68 in1005.1 mb 0.00 in0.0 mm 0.00 in0.0 mm 0.01 in0.3 mm
04:47 AM 43.0°F6.1°C 36.0°F2.2°C 76% 1.8 mph W2.9 kmh W 3.1 mph5.0 kmh 29.68 in1005.1 mb 0.00 in0.0 mm 0.00 in0.0 mm 0.01 in0.3 mm
04:48 AM 42.8°F6.0°C 35.8°F2.1°C 76% 2.5 mph W4.0 kmh W 4.3 mph6.9 kmh 29.68 in1005.1 mb 0.00 in0.0 mm 0.00 in0.0 mm 0.01 in0.3 mm
04:49 AM 42.8°F6.0°C 35.8°F2.1°C 76% 3.6 mph WSW5.8 kmh WSW 7.4 mph11.9 kmh 29.68 in1005.1 mb 0.00 in0.0 mm 0.00 in0.0 mm 0.01 in0.3 mm
04:50 AM 42.8°F6.0°C 35.8°F2.1°C 76% 2.9 mph WNW4.7 kmh WNW 7.4 mph11.9 kmh 29.68 in1005.1 mb 0.00 in0.0 mm 0.00 in0.0 mm 0.01 in0.3 mm
04:51 AM 42.8°F6.0°C 35.8°F2.1°C 76% 2.0 mph NW3.2 kmh NW 3.1 mph5.0 kmh 29.68 in1005.1 mb 0.00 in0.0 mm 0.00 in0.0 mm 0.01 in0.3 mm
04:52 AM 42.8°F6.0°C 35.8°F2.1°C 76% 1.6 mph NW2.6 kmh NW 3.1 mph5.0 kmh 29.68 in1005.1 mb 0.00 in0.0 mm 0.00 in0.0 mm 0.01 in0.3 mm
04:53 AM 42.6°F5.9°C 35.6°F2.0°C 76% 1.8 mph WSW2.9 kmh WSW 4.3 mph6.9 kmh 29.68 in1005.1 mb 0.00 in0.0 mm 0.00 in0.0 mm 0.01 in0.3 mm
04:54 AM 42.8°F6.0°C 35.8°F2.1°C 76% 2.7 mph NNW4.3 kmh NNW 4.3 mph6.9 kmh 29.68 in1005.1 mb 0.00 in0.0 mm 0.00 in0.0 mm 0.01 in0.3 mm
04:55 AM 42.6°F5.9°C 35.6°F2.0°C 76% 2.2 mph NNW3.5 kmh NNW 3.1 mph5.0 kmh 29.68 in1005.1 mb 0.00 in0.0 mm 0.00 in0.0 mm 0.01 in0.3 mm
04:56 AM 42.6°F5.9°C 35.6°F2.0°C 76% 2.0 mph WSW3.2 kmh WSW 7.4 mph11.9 kmh 29.68 in1005.1 mb 0.00 in0.0 mm 0.00 in0.0 mm 0.01 in0.3 mm
04:57 AM 42.6°F5.9°C 35.6°F2.0°C 76% 3.1 mph WNW5.0 kmh WNW 7.4 mph11.9 kmh 29.68 in1005.1 mb 0.00 in0.0 mm 0.00 in0.0 mm 0.01 in0.3 mm
04:58 AM 42.8°F6.0°C 35.8°F2.1°C 76% 3.4 mph WSW5.5 kmh WSW 6.3 mph10.1 kmh 29.68 in1005.1 mb 0.00 in0.0 mm 0.00 in0.0 mm 0.01 in0.3 mm
04:59 AM 42.8°F6.0°C 35.8°F2.1°C 76% 2.7 mph NNW4.3 kmh NNW 3.1 mph5.0 kmh 29.68 in1005.1 mb 0.00 in0.0 mm 0.00 in0.0 mm 0.01 in0.3 mm
05:00 AM 42.8°F6.0°C 35.8°F2.1°C 76% 2.0 mph NW3.2 kmh NW 2.0 mph3.2 kmh 29.68 in1005.1 mb 0.00 in0.0 mm 0.00 in0.0 mm 0.01 in0.3 mm
05:01 AM 42.8°F6.0°C 35.8°F2.1°C 76% 2.2 mph W3.5 kmh W 5.4 mph8.7 kmh 29.68 in1005.1 mb 0.00 in0.0 mm 0.00 in0.0 mm 0.01 in0.3 mm
05:02 AM 42.8°F6.0°C 35.8°F2.1°C 76% 2.5 mph N4.0 kmh N 3.1 mph5.0 kmh 29.68 in1005.1 mb 0.00 in0.0 mm 0.00 in0.0 mm 0.01 in0.3 mm
05:03 AM 42.8°F6.0°C 35.8°F2.1°C 76% 1.8 mph NNW2.9 kmh NNW 3.1 mph5.0 kmh 29.68 in1005.1 mb 0.00 in0.0 mm 0.00 in0.0 mm 0.01 in0.3 mm
05:04 AM 42.8°F6.0°C 35.8°F2.1°C 76% 1.8 mph NW2.9 kmh NW 3.1 mph5.0 kmh 29.68 in1005.1 mb 0.00 in0.0 mm 0.00 in0.0 mm 0.01 in0.3 mm
05:05 AM 42.8°F6.0°C 35.8°F2.1°C 76% 2.2 mph W3.5 kmh W 3.1 mph5.0 kmh 29.68 in1005.1 mb 0.00 in0.0 mm 0.00 in0.0 mm 0.01 in0.3 mm
05:06 AM 42.6°F5.9°C 35.2°F1.8°C 75% 2.5 mph WSW4.0 kmh WSW 5.4 mph8.7 kmh 29.68 in1005.1 mb 0.00 in0.0 mm 0.00 in0.0 mm 0.01 in0.3 mm
05:07 AM 42.6°F5.9°C 35.2°F1.8°C 75% 2.9 mph NW4.7 kmh NW 5.4 mph8.7 kmh 29.68 in1005.1 mb 0.00 in0.0 mm 0.00 in0.0 mm 0.01 in0.3 mm
05:08 AM 42.6°F5.9°C 35.2°F1.8°C 75% 2.2 mph NW3.5 kmh NW 3.1 mph5.0 kmh 29.68 in1005.1 mb 0.00 in0.0 mm 0.00 in0.0 mm 0.01 in0.3 mm
05:09 AM 42.6°F5.9°C 35.2°F1.8°C 75% 2.2 mph WSW3.5 kmh WSW 4.3 mph6.9 kmh 29.68 in1005.1 mb 0.00 in0.0 mm 0.00 in0.0 mm 0.01 in0.3 mm
05:10 AM 42.8°F6.0°C 35.4°F1.9°C 75% 2.2 mph W3.5 kmh W 4.3 mph6.9 kmh 29.68 in1005.1 mb 0.00 in0.0 mm 0.00 in0.0 mm 0.01 in0.3 mm
05:11 AM 42.8°F6.0°C 35.4°F1.9°C 75% 1.8 mph WNW2.9 kmh WNW 3.1 mph5.0 kmh 29.68 in1005.1 mb 0.00 in0.0 mm 0.00 in0.0 mm 0.01 in0.3 mm
05:12 AM 42.8°F6.0°C 35.4°F1.9°C 75% 2.0 mph WSW3.2 kmh WSW 3.1 mph5.0 kmh 29.68 in1005.1 mb 0.00 in0.0 mm 0.00 in0.0 mm 0.01 in0.3 mm
05:13 AM 42.8°F6.0°C 35.4°F1.9°C 75% 1.8 mph NW2.9 kmh NW 3.1 mph5.0 kmh 29.68 in1005.1 mb 0.00 in0.0 mm 0.00 in0.0 mm 0.01 in0.3 mm
05:14 AM 42.8°F6.0°C 35.4°F1.9°C 75% 1.6 mph NW2.6 kmh NW 2.0 mph3.2 kmh 29.68 in1005.1 mb 0.00 in0.0 mm 0.00 in0.0 mm 0.01 in0.3 mm
05:15 AM 42.8°F6.0°C 35.4°F1.9°C 75% 1.3 mph NW2.1 kmh NW 2.0 mph3.2 kmh 29.68 in1005.1 mb 0.00 in0.0 mm 0.00 in0.0 mm 0.01 in0.3 mm
05:16 AM 42.8°F6.0°C 35.4°F1.9°C 75% 1.3 mph NW2.1 kmh NW 2.0 mph3.2 kmh 29.68 in1005.1 mb 0.00 in0.0 mm 0.00 in0.0 mm 0.01 in0.3 mm
05:17 AM 42.8°F6.0°C 35.4°F1.9°C 75% 1.3 mph NW2.1 kmh NW 2.0 mph3.2 kmh 29.68 in1005.1 mb 0.00 in0.0 mm 0.00 in0.0 mm 0.01 in0.3 mm
05:18 AM 42.8°F6.0°C 35.4°F1.9°C 75% 1.3 mph NW2.1 kmh NW 2.0 mph3.2 kmh 29.68 in1005.1 mb 0.00 in0.0 mm 0.00 in0.0 mm 0.01 in0.3 mm
05:19 AM 42.8°F6.0°C 35.4°F1.9°C 75% 1.3 mph NW2.1 kmh NW 2.0 mph3.2 kmh 29.68 in1005.1 mb 0.00 in0.0 mm 0.00 in0.0 mm 0.01 in0.3 mm
05:20 AM 42.8°F6.0°C 35.4°F1.9°C 75% 1.3 mph NW2.1 kmh NW 3.1 mph5.0 kmh 29.68 in1005.1 mb 0.00 in0.0 mm 0.00 in0.0 mm 0.01 in0.3 mm
05:21 AM 42.8°F6.0°C 35.4°F1.9°C 75% 1.3 mph NW2.1 kmh NW 2.0 mph3.2 kmh 29.68 in1005.1 mb 0.00 in0.0 mm 0.00 in0.0 mm 0.01 in0.3 mm
05:22 AM 42.8°F6.0°C 35.4°F1.9°C 75% 0.9 mph NW1.4 kmh NW 2.0 mph3.2 kmh 29.68 in1005.1 mb 0.00 in0.0 mm 0.00 in0.0 mm 0.01 in0.3 mm
05:23 AM 42.8°F6.0°C 35.4°F1.9°C 75% 0.9 mph NW1.4 kmh NW 2.0 mph3.2 kmh 29.68 in1005.1 mb 0.00 in0.0 mm 0.00 in0.0 mm 0.01 in0.3 mm
05:24 AM 42.8°F6.0°C 35.4°F1.9°C 75% 0.9 mph NW1.4 kmh NW 2.0 mph3.2 kmh 29.68 in1005.1 mb 0.00 in0.0 mm 0.00 in0.0 mm 0.01 in0.3 mm
05:25 AM 42.6°F5.9°C 35.2°F1.8°C 75% 1.3 mph NW2.1 kmh NW 2.0 mph3.2 kmh 29.68 in1005.1 mb 0.00 in0.0 mm 0.00 in0.0 mm 0.01 in0.3 mm
05:26 AM 42.6°F5.9°C 35.2°F1.8°C 75% 0.9 mph NW1.4 kmh NW 1.1 mph1.8 kmh 29.68 in1005.1 mb 0.00 in0.0 mm 0.00 in0.0 mm 0.01 in0.3 mm
05:27 AM 42.6°F5.9°C 35.2°F1.8°C 75% 0.2 mph NW0.3 kmh NW 1.1 mph1.8 kmh 29.68 in1005.1 mb 0.00 in0.0 mm 0.00 in0.0 mm 0.01 in0.3 mm
05:28 AM 42.6°F5.9°C 35.2°F1.8°C 75% 0.2 mph W0.3 kmh W 2.0 mph3.2 kmh 29.68 in1005.1 mb 0.00 in0.0 mm 0.00 in0.0 mm 0.01 in0.3 mm
05:29 AM 42.6°F5.9°C 35.2°F1.8°C 75% 1.1 mph WSW1.8 kmh WSW 3.1 mph5.0 kmh 29.68 in1005.1 mb 0.00 in0.0 mm 0.00 in0.0 mm 0.01 in0.3 mm
05:30 AM 42.6°F5.9°C 35.2°F1.8°C 75% 1.1 mph WSW1.8 kmh WSW 1.1 mph1.8 kmh 29.68 in1005.1 mb 0.00 in0.0 mm 0.00 in0.0 mm 0.01 in0.3 mm
05:31 AM 42.6°F5.9°C 35.2°F1.8°C 75% 0.2 mph WSW0.3 kmh WSW 1.1 mph1.8 kmh 29.68 in1005.1 mb 0.00 in0.0 mm 0.00 in0.0 mm 0.01 in0.3 mm
05:32 AM 42.6°F5.9°C 35.2°F1.8°C 75% 0.4 mph WSW0.6 kmh WSW 2.0 mph3.2 kmh 29.68 in1005.1 mb 0.00 in0.0 mm 0.00 in0.0 mm 0.01 in0.3 mm
05:33 AM 42.6°F5.9°C 35.2°F1.8°C 75% 0.7 mph WSW1.1 kmh WSW 1.1 mph1.8 kmh 29.69 in1005.4 mb 0.00 in0.0 mm 0.00 in0.0 mm 0.01 in0.3 mm
05:34 AM 42.6°F5.9°C 35.2°F1.8°C 75% 0.4 mph WSW0.6 kmh WSW 1.1 mph1.8 kmh 29.69 in1005.4 mb 0.00 in0.0 mm 0.00 in0.0 mm 0.01 in0.3 mm
05:35 AM 42.6°F5.9°C 35.2°F1.8°C 75% 0.7 mph WSW1.1 kmh WSW 1.1 mph1.8 kmh 29.69 in1005.4 mb 0.00 in0.0 mm 0.00 in0.0 mm 0.01 in0.3 mm
05:36 AM 42.6°F5.9°C 35.2°F1.8°C 75% 0.4 mph WSW0.6 kmh WSW 1.1 mph1.8 kmh 29.69 in1005.4 mb 0.00 in0.0 mm 0.00 in0.0 mm 0.01 in0.3 mm
05:37 AM 42.6°F5.9°C 35.2°F1.8°C 75% Calm Calm 1.1 mph1.8 kmh 29.69 in1005.4 mb 0.00 in0.0 mm 0.00 in0.0 mm 0.01 in0.3 mm
05:38 AM 42.6°F5.9°C 35.2°F1.8°C 75% 0.2 mph WSW0.3 kmh WSW 1.1 mph1.8 kmh 29.69 in1005.4 mb 0.00 in0.0 mm 0.00 in0.0 mm 0.01 in0.3 mm
05:39 AM 42.6°F5.9°C 35.2°F1.8°C 75% 0.2 mph WSW0.3 kmh WSW 1.1 mph1.8 kmh 29.69 in1005.4 mb 0.00 in0.0 mm 0.00 in0.0 mm 0.01 in0.3 mm
05:40 AM 42.6°F5.9°C 35.2°F1.8°C 75% 0.2 mph WSW0.3 kmh WSW 1.1 mph1.8 kmh 29.69 in1005.4 mb 0.00 in0.0 mm 0.00 in0.0 mm 0.01 in0.3 mm
05:41 AM 42.6°F5.9°C 35.2°F1.8°C 75% 0.2 mph WSW0.3 kmh WSW -- 29.69 in1005.4 mb 0.00 in0.0 mm 0.00 in0.0 mm 0.01 in0.3 mm
05:42 AM 42.6°F5.9°C 35.6°F2.0°C 76% Calm Calm -- 29.69 in1005.4 mb 0.00 in0.0 mm 0.00 in0.0 mm 0.01 in0.3 mm
05:43 AM 42.6°F5.9°C 35.2°F1.8°C 75% Calm Calm -- 29.69 in1005.4 mb 0.00 in0.0 mm 0.00 in0.0 mm 0.01 in0.3 mm
05:44 AM 42.6°F5.9°C 35.2°F1.8°C 75% Calm Calm -- 29.69 in1005.4 mb 0.00 in0.0 mm 0.00 in0.0 mm 0.01 in0.3 mm
05:45 AM 42.6°F5.9°C 35.2°F1.8°C 75% Calm Calm -- 29.69 in1005.4 mb 0.00 in0.0 mm 0.00 in0.0 mm 0.01 in0.3 mm
05:46 AM 42.6°F5.9°C 35.6°F2.0°C 76% Calm Calm -- 29.69 in1005.4 mb 0.00 in0.0 mm 0.00 in0.0 mm 0.01 in0.3 mm
05:47 AM 42.6°F5.9°C 35.6°F2.0°C 76% 0.2 mph WSW0.3 kmh WSW 1.1 mph1.8 kmh 29.69 in1005.4 mb 0.00 in0.0 mm 0.00 in0.0 mm 0.01 in0.3 mm
05:48 AM 42.6°F5.9°C 35.6°F2.0°C 76% 0.2 mph WSW0.3 kmh WSW 1.1 mph1.8 kmh 29.69 in1005.4 mb 0.00 in0.0 mm 0.00 in0.0 mm 0.01 in0.3 mm
05:49 AM 42.6°F5.9°C 35.6°F2.0°C 76% Calm Calm -- 29.69 in1005.4 mb 0.00 in0.0 mm 0.00 in0.0 mm 0.01 in0.3 mm
05:50 AM 42.6°F5.9°C 35.6°F2.0°C 76% Calm Calm -- 29.69 in1005.4 mb 0.00 in0.0 mm 0.00 in0.0 mm 0.01 in0.3 mm
05:51 AM 42.6°F5.9°C 35.6°F2.0°C 76% Calm Calm -- 29.69 in1005.4 mb 0.00 in0.0 mm 0.00 in0.0 mm 0.01 in0.3 mm
05:52 AM 42.6°F5.9°C 35.6°F2.0°C 76% Calm Calm -- 29.69 in1005.4 mb 0.00 in0.0 mm 0.00 in0.0 mm 0.01 in0.3 mm
05:53 AM 42.6°F5.9°C 35.6°F2.0°C 76% 0.2 mph WSW0.3 kmh WSW 1.1 mph1.8 kmh 29.69 in1005.4 mb 0.00 in0.0 mm 0.00 in0.0 mm 0.01 in0.3 mm
05:54 AM 42.6°F5.9°C 36.0°F2.2°C 77% 0.4 mph WSW0.6 kmh WSW 2.0 mph3.2 kmh 29.69 in1005.4 mb 0.00 in0.0 mm 0.00 in0.0 mm 0.01 in0.3 mm
05:55 AM 42.4°F5.8°C 35.8°F2.1°C 77% 1.3 mph W2.1 kmh W 2.0 mph3.2 kmh 29.69 in1005.4 mb 0.00 in0.0 mm 0.00 in0.0 mm 0.01 in0.3 mm
05:56 AM 42.6°F5.9°C 36.0°F2.2°C 77% 1.3 mph W2.1 kmh W 2.0 mph3.2 kmh 29.69 in1005.4 mb 0.00 in0.0 mm 0.00 in0.0 mm 0.01 in0.3 mm
05:57 AM 42.4°F5.8°C 35.8°F2.1°C 77% 1.3 mph W2.1 kmh W 2.0 mph3.2 kmh 29.69 in1005.4 mb 0.00 in0.0 mm 0.00 in0.0 mm 0.01 in0.3 mm
05:58 AM 42.4°F5.8°C 35.8°F2.1°C 77% 1.6 mph W2.6 kmh W 2.0 mph3.2 kmh 29.69 in1005.4 mb 0.00 in0.0 mm 0.00 in0.0 mm 0.01 in0.3 mm
05:59 AM 42.4°F5.8°C 35.8°F2.1°C 77% 1.6 mph W2.6 kmh W 3.1 mph5.0 kmh 29.69 in1005.4 mb 0.00 in0.0 mm 0.00 in0.0 mm 0.01 in0.3 mm
06:00 AM 42.4°F5.8°C 35.8°F2.1°C 77% 1.1 mph W1.8 kmh W 1.1 mph1.8 kmh 29.69 in1005.4 mb 0.00 in0.0 mm 0.00 in0.0 mm 0.01 in0.3 mm
06:01 AM 42.4°F5.8°C 35.8°F2.1°C 77% 1.1 mph NW1.8 kmh NW 3.1 mph5.0 kmh 29.69 in1005.4 mb 0.00 in0.0 mm 0.00 in0.0 mm 0.01 in0.3 mm
06:02 AM 42.4°F5.8°C 35.8°F2.1°C 77% 1.8 mph NW2.9 kmh NW 3.1 mph5.0 kmh 29.69 in1005.4 mb 0.00 in0.0 mm 0.00 in0.0 mm 0.01 in0.3 mm
06:03 AM 42.4°F5.8°C 35.8°F2.1°C 77% 1.8 mph NW2.9 kmh NW 2.0 mph3.2 kmh 29.69 in1005.4 mb 0.00 in0.0 mm 0.00 in0.0 mm 0.01 in0.3 mm
06:04 AM 42.4°F5.8°C 35.8°F2.1°C 77% 1.1 mph NW1.8 kmh NW 2.0 mph3.2 kmh 29.69 in1005.4 mb 0.00 in0.0 mm 0.00 in0.0 mm 0.01 in0.3 mm
06:05 AM 42.4°F5.8°C 35.8°F2.1°C 77% 0.9 mph NW1.4 kmh NW 1.1 mph1.8 kmh 29.69 in1005.4 mb 0.00 in0.0 mm 0.00 in0.0 mm 0.01 in0.3 mm
06:06 AM 42.4°F5.8°C 35.8°F2.1°C 77% 0.9 mph NW1.4 kmh NW 1.1 mph1.8 kmh 29.69 in1005.4 mb 0.00 in0.0 mm 0.00 in0.0 mm 0.01 in0.3 mm
06:07 AM 42.4°F5.8°C 35.8°F2.1°C 77% 1.3 mph WSW2.1 kmh WSW 3.1 mph5.0 kmh 29.69 in1005.4 mb 0.00 in0.0 mm 0.00 in0.0 mm 0.01 in0.3 mm
06:08 AM 42.3°F5.7°C 35.6°F2.0°C 77% 2.5 mph W4.0 kmh W 5.4 mph8.7 kmh 29.69 in1005.4 mb 0.00 in0.0 mm 0.00 in0.0 mm 0.01 in0.3 mm
06:09 AM 42.3°F5.7°C 35.6°F2.0°C 77% 2.7 mph NW4.3 kmh NW 5.4 mph8.7 kmh 29.69 in1005.4 mb 0.00 in0.0 mm 0.00 in0.0 mm 0.01 in0.3 mm
06:10 AM 42.3°F5.7°C 35.6°F2.0°C 77% 2.0 mph NW3.2 kmh NW 3.1 mph5.0 kmh 29.69 in1005.4 mb 0.01 in0.3 mm 0.60 in15.2 mm 0.01 in0.3 mm
06:12 AM 42.3°F5.7°C 35.6°F2.0°C 77% 1.8 mph NW2.9 kmh NW 3.1 mph5.0 kmh 29.69 in1005.4 mb 0.01 in0.3 mm 0.00 in0.0 mm 0.01 in0.3 mm
06:13 AM 42.3°F5.7°C 35.6°F2.0°C 77% 1.6 mph NW2.6 kmh NW 2.0 mph3.2 kmh 29.69 in1005.4 mb 0.01 in0.3 mm 0.00 in0.0 mm 0.01 in0.3 mm
06:14 AM 42.3°F5.7°C 35.6°F2.0°C 77% 1.6 mph W2.6 kmh W 3.1 mph5.0 kmh 29.69 in1005.4 mb 0.01 in0.3 mm 0.00 in0.0 mm 0.01 in0.3 mm
06:15 AM 42.3°F5.7°C 35.6°F2.0°C 77% 1.3 mph W2.1 kmh W 2.0 mph3.2 kmh 29.70 in1005.8 mb 0.01 in0.3 mm 0.00 in0.0 mm 0.01 in0.3 mm
06:16 AM 42.3°F5.7°C 35.6°F2.0°C 77% 1.3 mph W2.1 kmh W 2.0 mph3.2 kmh 29.69 in1005.4 mb 0.01 in0.3 mm 0.00 in0.0 mm 0.01 in0.3 mm
06:17 AM 42.3°F5.7°C 35.6°F2.0°C 77% 1.6 mph NNW2.6 kmh NNW 3.1 mph5.0 kmh 29.70 in1005.8 mb 0.01 in0.3 mm 0.00 in0.0 mm 0.01 in0.3 mm
06:18 AM 42.3°F5.7°C 35.6°F2.0°C 77% 2.2 mph WSW3.5 kmh WSW 4.3 mph6.9 kmh 29.70 in1005.8 mb 0.01 in0.3 mm 0.00 in0.0 mm 0.01 in0.3 mm
06:19 AM 42.3°F5.7°C 35.6°F2.0°C 77% 1.8 mph WSW2.9 kmh WSW 4.3 mph6.9 kmh 29.70 in1005.8 mb 0.01 in0.3 mm 0.00 in0.0 mm 0.01 in0.3 mm
06:20 AM 42.3°F5.7°C 35.6°F2.0°C 77% 1.3 mph WSW2.1 kmh WSW 2.0 mph3.2 kmh 29.70 in1005.8 mb 0.01 in0.3 mm 0.00 in0.0 mm 0.01 in0.3 mm
06:21 AM 42.3°F5.7°C 35.6°F2.0°C 77% 1.3 mph WSW2.1 kmh WSW 2.0 mph3.2 kmh 29.70 in1005.8 mb 0.01 in0.3 mm 0.00 in0.0 mm 0.01 in0.3 mm
06:22 AM 42.1°F5.6°C 35.4°F1.9°C 77% 1.8 mph W2.9 kmh W 3.1 mph5.0 kmh 29.70 in1005.8 mb 0.01 in0.3 mm 0.00 in0.0 mm 0.01 in0.3 mm
06:23 AM 42.1°F5.6°C 35.8°F2.1°C 78% 1.6 mph W2.6 kmh W 2.0 mph3.2 kmh 29.70 in1005.8 mb 0.01 in0.3 mm 0.00 in0.0 mm 0.01 in0.3 mm
06:24 AM 42.1°F5.6°C 35.8°F2.1°C 78% 1.1 mph W1.8 kmh W 2.0 mph3.2 kmh 29.70 in1005.8 mb 0.01 in0.3 mm 0.00 in0.0 mm 0.01 in0.3 mm
06:25 AM 42.1°F5.6°C 35.8°F2.1°C 78% 1.3 mph W2.1 kmh W 2.0 mph3.2 kmh 29.70 in1005.8 mb 0.01 in0.3 mm 0.00 in0.0 mm 0.01 in0.3 mm
06:26 AM 42.1°F5.6°C 35.8°F2.1°C 78% 1.1 mph W1.8 kmh W 1.1 mph1.8 kmh 29.70 in1005.8 mb 0.01 in0.3 mm 0.00 in0.0 mm 0.01 in0.3 mm
06:27 AM 42.1°F5.6°C 35.8°F2.1°C 78% 1.1 mph W1.8 kmh W 3.1 mph5.0 kmh 29.70 in1005.8 mb 0.01 in0.3 mm 0.00 in0.0 mm 0.01 in0.3 mm
06:28 AM 42.1°F5.6°C 35.8°F2.1°C 78% 1.8 mph NW2.9 kmh NW 4.3 mph6.9 kmh 29.70 in1005.8 mb 0.01 in0.3 mm 0.00 in0.0 mm 0.01 in0.3 mm
06:29 AM 42.1°F5.6°C 35.8°F2.1°C 78% 2.2 mph NNW3.5 kmh NNW 3.1 mph5.0 kmh 29.70 in1005.8 mb 0.01 in0.3 mm 0.00 in0.0 mm 0.01 in0.3 mm
06:30 AM 42.1°F5.6°C 35.8°F2.1°C 78% 1.8 mph NNW2.9 kmh NNW 2.0 mph3.2 kmh 29.70 in1005.8 mb 0.01 in0.3 mm 0.00 in0.0 mm 0.01 in0.3 mm
06:31 AM 42.1°F5.6°C 35.8°F2.1°C 78% 1.3 mph NNW2.1 kmh NNW 2.0 mph3.2 kmh 29.70 in1005.8 mb 0.01 in0.3 mm 0.00 in0.0 mm 0.01 in0.3 mm
06:32 AM 41.9°F5.5°C 35.6°F2.0°C 78% 1.3 mph NNW2.1 kmh NNW 2.0 mph3.2 kmh 29.70 in1005.8 mb 0.01 in0.3 mm 0.00 in0.0 mm 0.01 in0.3 mm
06:33 AM 41.9°F5.5°C 35.6°F2.0°C 78% 1.1 mph NNW1.8 kmh NNW 2.0 mph3.2 kmh 29.70 in1005.8 mb 0.01 in0.3 mm 0.00 in0.0 mm 0.01 in0.3 mm
06:34 AM 41.9°F5.5°C 35.6°F2.0°C 78% 1.1 mph NNW1.8 kmh NNW 2.0 mph3.2 kmh 29.70 in1005.8 mb 0.01 in0.3 mm 0.00 in0.0 mm 0.01 in0.3 mm
06:35 AM 41.9°F5.5°C 35.6°F2.0°C 78% 1.1 mph NW1.8 kmh NW 2.0 mph3.2 kmh 29.70 in1005.8 mb 0.01 in0.3 mm 0.00 in0.0 mm 0.01 in0.3 mm
06:36 AM 41.7°F5.4°C 35.4°F1.9°C 78% 1.1 mph NW1.8 kmh NW 2.0 mph3.2 kmh 29.70 in1005.8 mb 0.01 in0.3 mm 0.00 in0.0 mm 0.01 in0.3 mm
06:37 AM 41.7°F5.4°C 35.4°F1.9°C 78% 1.3 mph NW2.1 kmh NW 3.1 mph5.0 kmh 29.70 in1005.8 mb 0.01 in0.3 mm 0.00 in0.0 mm 0.01 in0.3 mm
06:38 AM 41.7°F5.4°C 35.4°F1.9°C 78% 1.8 mph NW2.9 kmh NW 3.1 mph5.0 kmh 29.70 in1005.8 mb 0.01 in0.3 mm 0.00 in0.0 mm 0.01 in0.3 mm
06:39 AM 41.7°F5.4°C 35.4°F1.9°C 78% 1.6 mph NW2.6 kmh NW 2.0 mph3.2 kmh 29.70 in1005.8 mb 0.01 in0.3 mm 0.00 in0.0 mm 0.01 in0.3 mm
06:40 AM 41.7°F5.4°C 35.8°F2.1°C 79% 0.9 mph NW1.4 kmh NW 1.1 mph1.8 kmh 29.70 in1005.8 mb 0.01 in0.3 mm 0.00 in0.0 mm 0.01 in0.3 mm
06:41 AM 41.7°F5.4°C 35.4°F1.9°C 78% 0.7 mph NW1.1 kmh NW 1.1 mph1.8 kmh 29.70 in1005.8 mb 0.01 in0.3 mm 0.00 in0.0 mm 0.01 in0.3 mm
06:42 AM 41.7°F5.4°C 35.4°F1.9°C 78% 0.4 mph NW0.6 kmh NW 1.1 mph1.8 kmh 29.70 in1005.8 mb 0.01 in0.3 mm 0.00 in0.0 mm 0.01 in0.3 mm
06:43 AM 41.7°F5.4°C 35.4°F1.9°C 78% 0.7 mph N1.1 kmh N 2.0 mph3.2 kmh 29.70 in1005.8 mb 0.01 in0.3 mm 0.00 in0.0 mm 0.01 in0.3 mm
06:44 AM 41.7°F5.4°C 35.8°F2.1°C 79% 1.1 mph N1.8 kmh N 2.0 mph3.2 kmh 29.70 in1005.8 mb 0.01 in0.3 mm 0.00 in0.0 mm 0.01 in0.3 mm
06:45 AM 41.7°F5.4°C 35.8°F2.1°C 79% 1.3 mph 2.1 kmh 2.0 mph3.2 kmh 29.70 in1005.8 mb 0.01 in0.3 mm 0.00 in0.0 mm 0.01 in0.3 mm
06:46 AM 41.7°F5.4°C 35.8°F2.1°C 79% 1.6 mph 2.6 kmh 2.0 mph3.2 kmh 29.70 in1005.8 mb 0.01 in0.3 mm 0.00 in0.0 mm 0.01 in0.3 mm
06:47 AM 41.7°F5.4°C 35.8°F2.1°C 79% 1.8 mph WSW2.9 kmh WSW 3.1 mph5.0 kmh 29.70 in1005.8 mb 0.01 in0.3 mm 0.00 in0.0 mm 0.01 in0.3 mm
06:48 AM 41.5°F5.3°C 35.6°F2.0°C 79% 1.6 mph WSW2.6 kmh WSW 2.0 mph3.2 kmh 29.70 in1005.8 mb 0.01 in0.3 mm 0.00 in0.0 mm 0.01 in0.3 mm
06:49 AM 41.5°F5.3°C 35.6°F2.0°C 79% 1.3 mph WSW2.1 kmh WSW 2.0 mph3.2 kmh 29.70 in1005.8 mb 0.01 in0.3 mm 0.00 in0.0 mm 0.01 in0.3 mm
06:50 AM 41.5°F5.3°C 35.6°F2.0°C 79% 0.9 mph WSW1.4 kmh WSW 1.1 mph1.8 kmh 29.70 in1005.8 mb 0.01 in0.3 mm 0.00 in0.0 mm 0.01 in0.3 mm
06:51 AM 41.5°F5.3°C 35.6°F2.0°C 79% Calm Calm -- 29.70 in1005.8 mb 0.01 in0.3 mm 0.00 in0.0 mm 0.01 in0.3 mm
06:52 AM 41.5°F5.3°C 35.6°F2.0°C 79% Calm Calm -- 29.70 in1005.8 mb 0.01 in0.3 mm 0.00 in0.0 mm 0.01 in0.3 mm
06:53 AM 41.5°F5.3°C 35.6°F2.0°C 79% 0.2 mph NW0.3 kmh NW 2.0 mph3.2 kmh 29.70 in1005.8 mb 0.01 in0.3 mm 0.00 in0.0 mm 0.01 in0.3 mm
06:54 AM 41.5°F5.3°C 35.6°F2.0°C 79% 1.1 mph NW1.8 kmh NW 2.0 mph3.2 kmh 29.70 in1005.8 mb 0.01 in0.3 mm 0.00 in0.0 mm 0.01 in0.3 mm
06:55 AM 41.5°F5.3°C 35.6°F2.0°C 79% 1.8 mph W2.9 kmh W 3.1 mph5.0 kmh 29.70 in1005.8 mb 0.01 in0.3 mm 0.00 in0.0 mm 0.01 in0.3 mm
06:56 AM 41.5°F5.3°C 35.8°F2.1°C 80% 2.0 mph W3.2 kmh W 3.1 mph5.0 kmh 29.70 in1005.8 mb 0.01 in0.3 mm 0.00 in0.0 mm 0.01 in0.3 mm
06:57 AM 41.5°F5.3°C 35.8°F2.1°C 80% 1.3 mph W2.1 kmh W 2.0 mph3.2 kmh 29.70 in1005.8 mb 0.01 in0.3 mm 0.00 in0.0 mm 0.01 in0.3 mm
06:58 AM 41.4°F5.2°C 35.6°F2.0°C 80% 1.1 mph W1.8 kmh W 2.0 mph3.2 kmh 29.70 in1005.8 mb 0.01 in0.3 mm 0.00 in0.0 mm 0.01 in0.3 mm
06:59 AM 41.4°F5.2°C 35.6°F2.0°C 80% 1.1 mph W1.8 kmh W 2.0 mph3.2 kmh 29.70 in1005.8 mb 0.01 in0.3 mm 0.00 in0.0 mm 0.01 in0.3 mm
07:00 AM 41.4°F5.2°C 35.6°F2.0°C 80% 1.3 mph W2.1 kmh W 2.0 mph3.2 kmh 29.70 in1005.8 mb 0.01 in0.3 mm 0.00 in0.0 mm 0.01 in0.3 mm
07:01 AM 41.4°F5.2°C 35.6°F2.0°C 80% 1.3 mph SW2.1 kmh SW 3.1 mph5.0 kmh 29.70 in1005.8 mb 0.01 in0.3 mm 0.00 in0.0 mm 0.01 in0.3 mm
07:02 AM 41.4°F5.2°C 35.6°F2.0°C 80% 1.8 mph SW2.9 kmh SW 3.1 mph5.0 kmh 29.70 in1005.8 mb 0.01 in0.3 mm 0.00 in0.0 mm 0.01 in0.3 mm
07:03 AM 41.4°F5.2°C 35.6°F2.0°C 80% 2.0 mph W3.2 kmh W 3.1 mph5.0 kmh 29.70 in1005.8 mb 0.01 in0.3 mm 0.00 in0.0 mm 0.01 in0.3 mm
07:04 AM 41.4°F5.2°C 35.6°F2.0°C 80% 1.8 mph W2.9 kmh W 2.0 mph3.2 kmh 29.70 in1005.8 mb 0.01 in0.3 mm 0.00 in0.0 mm 0.01 in0.3 mm
07:05 AM 41.4°F5.2°C 35.6°F2.0°C 80% 1.3 mph W2.1 kmh W 2.0 mph3.2 kmh 29.70 in1005.8 mb 0.01 in0.3 mm 0.00 in0.0 mm 0.01 in0.3 mm
07:06 AM 41.4°F5.2°C 35.6°F2.0°C 80% 1.1 mph W1.8 kmh W 1.1 mph1.8 kmh 29.70 in1005.8 mb 0.01 in0.3 mm 0.00 in0.0 mm 0.01 in0.3 mm
07:07 AM 41.4°F5.2°C 35.6°F2.0°C 80% 1.3 mph W2.1 kmh W 2.0 mph3.2 kmh 29.70 in1005.8 mb 0.01 in0.3 mm 0.00 in0.0 mm 0.01 in0.3 mm
07:08 AM 41.4°F5.2°C 35.6°F2.0°C 80% 1.6 mph WSW2.6 kmh WSW 2.0 mph3.2 kmh 29.70 in1005.8 mb 0.01 in0.3 mm 0.00 in0.0 mm 0.01 in0.3 mm
07:09 AM 41.4°F5.2°C 35.6°F2.0°C 80% 1.3 mph WSW2.1 kmh WSW 2.0 mph3.2 kmh 29.70 in1005.8 mb 0.00 in0.0 mm 0.00 in0.0 mm 0.01 in0.3 mm
07:10 AM 41.2°F5.1°C 35.4°F1.9°C 80% 1.8 mph WSW2.9 kmh WSW 4.3 mph6.9 kmh 29.71 in1006.1 mb 0.00 in0.0 mm 0.00 in0.0 mm 0.01 in0.3 mm
07:11 AM 41.2°F5.1°C 35.4°F1.9°C 80% 1.8 mph WSW2.9 kmh WSW 5.4 mph8.7 kmh 29.70 in1005.8 mb 0.00 in0.0 mm 0.00 in0.0 mm 0.01 in0.3 mm
07:12 AM 41.2°F5.1°C 35.4°F1.9°C 80% 1.8 mph WSW2.9 kmh WSW 5.4 mph8.7 kmh 29.70 in1005.8 mb 0.00 in0.0 mm 0.00 in0.0 mm 0.01 in0.3 mm
07:13 AM 41.2°F5.1°C 35.4°F1.9°C 80% 2.0 mph NW3.2 kmh NW 3.1 mph5.0 kmh 29.71 in1006.1 mb 0.00 in0.0 mm 0.00 in0.0 mm 0.01 in0.3 mm
07:14 AM 41.2°F5.1°C 35.4°F1.9°C 80% 1.8 mph W2.9 kmh W 3.1 mph5.0 kmh 29.70 in1005.8 mb 0.00 in0.0 mm 0.00 in0.0 mm 0.01 in0.3 mm
07:15 AM 41.2°F5.1°C 35.4°F1.9°C 80% 2.0 mph WNW3.2 kmh WNW 3.1 mph5.0 kmh 29.70 in1005.8 mb 0.00 in0.0 mm 0.00 in0.0 mm 0.01 in0.3 mm
07:16 AM 41.2°F5.1°C 35.8°F2.1°C 81% 1.8 mph WNW2.9 kmh WNW 3.1 mph5.0 kmh 29.70 in1005.8 mb 0.00 in0.0 mm 0.00 in0.0 mm 0.01 in0.3 mm
07:17 AM 41.2°F5.1°C 35.8°F2.1°C 81% 1.6 mph WNW2.6 kmh WNW 2.0 mph3.2 kmh 29.70 in1005.8 mb 0.00 in0.0 mm 0.00 in0.0 mm 0.01 in0.3 mm
07:18 AM 41.2°F5.1°C 35.8°F2.1°C 81% 1.1 mph WNW1.8 kmh WNW 2.0 mph3.2 kmh 29.70 in1005.8 mb 0.00 in0.0 mm 0.00 in0.0 mm 0.01 in0.3 mm
07:19 AM 41.2°F5.1°C 35.8°F2.1°C 81% 1.6 mph NNW2.6 kmh NNW 3.1 mph5.0 kmh 29.70 in1005.8 mb 0.00 in0.0 mm 0.00 in0.0 mm 0.01 in0.3 mm
07:20 AM 41.0°F5.0°C 35.6°F2.0°C 81% 1.8 mph NW2.9 kmh NW 2.0 mph3.2 kmh 29.70 in1005.8 mb 0.00 in0.0 mm 0.00 in0.0 mm 0.01 in0.3 mm
07:21 AM 41.0°F5.0°C 35.6°F2.0°C 81% 1.6 mph NW2.6 kmh NW 2.0 mph3.2 kmh 29.71 in1006.1 mb 0.00 in0.0 mm 0.00 in0.0 mm 0.01 in0.3 mm
07:22 AM 41.0°F5.0°C 35.6°F2.0°C 81% 1.3 mph NW2.1 kmh NW 2.0 mph3.2 kmh 29.71 in1006.1 mb 0.00 in0.0 mm 0.00 in0.0 mm 0.01 in0.3 mm
07:23 AM 41.0°F5.0°C 35.6°F2.0°C 81% 1.3 mph NW2.1 kmh NW 2.0 mph3.2 kmh 29.70 in1005.8 mb 0.00 in0.0 mm 0.00 in0.0 mm 0.01 in0.3 mm
07:24 AM 41.0°F5.0°C 35.6°F2.0°C 81% 1.3 mph NW2.1 kmh NW 2.0 mph3.2 kmh 29.71 in1006.1 mb 0.00 in0.0 mm 0.00 in0.0 mm 0.01 in0.3 mm
07:25 AM 41.0°F5.0°C 35.6°F2.0°C 81% 3.1 mph WSW5.0 kmh WSW 5.4 mph8.7 kmh 29.71 in1006.1 mb 0.00 in0.0 mm 0.00 in0.0 mm 0.01 in0.3 mm
07:26 AM 41.0°F5.0°C 35.6°F2.0°C 81% 3.1 mph W5.0 kmh W 5.4 mph8.7 kmh 29.71 in1006.1 mb 0.00 in0.0 mm 0.00 in0.0 mm 0.01 in0.3 mm
07:27 AM 40.8°F4.9°C 35.4°F1.9°C 81% 2.2 mph N3.5 kmh N 3.1 mph5.0 kmh 29.71 in1006.1 mb 0.00 in0.0 mm 0.00 in0.0 mm 0.01 in0.3 mm
07:28 AM 40.8°F4.9°C 35.4°F1.9°C 81% 1.6 mph N2.6 kmh N 3.1 mph5.0 kmh 29.71 in1006.1 mb 0.00 in0.0 mm 0.00 in0.0 mm 0.01 in0.3 mm
07:29 AM 40.8°F4.9°C 35.4°F1.9°C 81% 1.6 mph N2.6 kmh N 2.0 mph3.2 kmh 29.71 in1006.1 mb 0.00 in0.0 mm 0.00 in0.0 mm 0.01 in0.3 mm
07:30 AM 40.8°F4.9°C 35.4°F1.9°C 81% 1.3 mph N2.1 kmh N 2.0 mph3.2 kmh 29.71 in1006.1 mb 0.00 in0.0 mm 0.00 in0.0 mm 0.01 in0.3 mm
07:31 AM 40.8°F4.9°C 35.4°F1.9°C 81% 1.1 mph NNW1.8 kmh NNW 2.0 mph3.2 kmh 29.71 in1006.1 mb 0.00 in0.0 mm 0.00 in0.0 mm 0.01 in0.3 mm
07:32 AM 40.8°F4.9°C 35.4°F1.9°C 81% 1.6 mph W2.6 kmh W 4.3 mph6.9 kmh 29.71 in1006.1 mb 0.00 in0.0 mm 0.00 in0.0 mm 0.01 in0.3 mm
07:33 AM 40.8°F4.9°C 35.4°F1.9°C 81% 1.8 mph W2.9 kmh W 5.4 mph8.7 kmh 29.71 in1006.1 mb 0.00 in0.0 mm 0.00 in0.0 mm 0.01 in0.3 mm
07:34 AM 40.8°F4.9°C 35.4°F1.9°C 81% 1.8 mph WNW2.9 kmh WNW 2.0 mph3.2 kmh 29.71 in1006.1 mb 0.00 in0.0 mm 0.00 in0.0 mm 0.01 in0.3 mm
07:35 AM 40.8°F4.9°C 35.4°F1.9°C 81% 1.1 mph WNW1.8 kmh WNW 2.0 mph3.2 kmh 29.71 in1006.1 mb 0.00 in0.0 mm 0.00 in0.0 mm 0.01 in0.3 mm
07:36 AM 40.8°F4.9°C 35.4°F1.9°C 81% 2.9 mph W4.7 kmh W 5.4 mph8.7 kmh 29.71 in1006.1 mb 0.00 in0.0 mm 0.00 in0.0 mm 0.01 in0.3 mm
07:37 AM 40.8°F4.9°C 35.4°F1.9°C 81% 2.7 mph W4.3 kmh W 3.1 mph5.0 kmh 29.71 in1006.1 mb 0.00 in0.0 mm 0.00 in0.0 mm 0.01 in0.3 mm
07:38 AM 40.8°F4.9°C 35.4°F1.9°C 81% 1.6 mph W2.6 kmh W 2.0 mph3.2 kmh 29.71 in1006.1 mb 0.00 in0.0 mm 0.00 in0.0 mm 0.01 in0.3 mm
07:39 AM 40.8°F4.9°C 35.4°F1.9°C 81% 1.8 mph NW2.9 kmh NW 3.1 mph5.0 kmh 29.71 in1006.1 mb 0.00 in0.0 mm 0.00 in0.0 mm 0.01 in0.3 mm
07:40 AM 40.8°F4.9°C 35.4°F1.9°C 81% 2.0 mph NW3.2 kmh NW 3.1 mph5.0 kmh 29.72 in1006.4 mb 0.00 in0.0 mm 0.00 in0.0 mm 0.01 in0.3 mm
07:41 AM 40.8°F4.9°C 35.4°F1.9°C 81% 1.3 mph NW2.1 kmh NW 2.0 mph3.2 kmh 29.72 in1006.4 mb 0.00 in0.0 mm 0.00 in0.0 mm 0.01 in0.3 mm
07:42 AM 40.6°F4.8°C 35.2°F1.8°C 81% 1.1 mph NNW1.8 kmh NNW 3.1 mph5.0 kmh 29.72 in1006.4 mb 0.00 in0.0 mm 0.00 in0.0 mm 0.01 in0.3 mm
07:43 AM 40.6°F4.8°C 35.2°F1.8°C 81% 1.6 mph NNW2.6 kmh NNW 3.1 mph5.0 kmh 29.72 in1006.4 mb 0.00 in0.0 mm 0.00 in0.0 mm 0.01 in0.3 mm
07:44 AM 40.6°F4.8°C 35.6°F2.0°C 82% 2.0 mph W3.2 kmh W 4.3 mph6.9 kmh 29.72 in1006.4 mb 0.00 in0.0 mm 0.00 in0.0 mm 0.01 in0.3 mm
07:45 AM 40.6°F4.8°C 35.6°F2.0°C 82% 1.8 mph W2.9 kmh W 2.0 mph3.2 kmh 29.72 in1006.4 mb 0.00 in0.0 mm 0.00 in0.0 mm 0.01 in0.3 mm
07:46 AM 40.6°F4.8°C 35.6°F2.0°C 82% 1.3 mph W2.1 kmh W 2.0 mph3.2 kmh 29.72 in1006.4 mb 0.00 in0.0 mm 0.00 in0.0 mm 0.01 in0.3 mm
07:47 AM 40.6°F4.8°C 35.6°F2.0°C 82% 1.6 mph WNW2.6 kmh WNW 3.1 mph5.0 kmh 29.72 in1006.4 mb 0.00 in0.0 mm 0.00 in0.0 mm 0.01 in0.3 mm
07:48 AM 40.6°F4.8°C 35.6°F2.0°C 82% 1.6 mph WNW2.6 kmh WNW 2.0 mph3.2 kmh 29.71 in1006.1 mb 0.00 in0.0 mm 0.00 in0.0 mm 0.01 in0.3 mm
07:49 AM 40.6°F4.8°C 35.6°F2.0°C 82% 1.6 mph WNW2.6 kmh WNW 2.0 mph3.2 kmh 29.72 in1006.4 mb 0.00 in0.0 mm 0.00 in0.0 mm 0.01 in0.3 mm
07:50 AM 40.6°F4.8°C 35.6°F2.0°C 82% 1.6 mph WNW2.6 kmh WNW 2.0 mph3.2 kmh 29.72 in1006.4 mb 0.00 in0.0 mm 0.00 in0.0 mm 0.01 in0.3 mm
07:51 AM 40.6°F4.8°C 35.6°F2.0°C 82% 1.3 mph WNW2.1 kmh WNW 2.0 mph3.2 kmh 29.72 in1006.4 mb 0.00 in0.0 mm 0.00 in0.0 mm 0.01 in0.3 mm
07:52 AM 40.6°F4.8°C 35.6°F2.0°C 82% 1.3 mph WNW2.1 kmh WNW 2.0 mph3.2 kmh 29.72 in1006.4 mb 0.00 in0.0 mm 0.00 in0.0 mm 0.01 in0.3 mm
07:53 AM 40.6°F4.8°C 35.6°F2.0°C 82% 1.6 mph WNW2.6 kmh WNW 2.0 mph3.2 kmh 29.72 in1006.4 mb 0.00 in0.0 mm 0.00 in0.0 mm 0.01 in0.3 mm
07:54 AM 40.5°F4.7°C 35.4°F1.9°C 82% 1.6 mph WNW2.6 kmh WNW 2.0 mph3.2 kmh 29.72 in1006.4 mb 0.00 in0.0 mm 0.00 in0.0 mm 0.01 in0.3 mm
07:55 AM 40.5°F4.7°C 35.4°F1.9°C 82% 1.6 mph N2.6 kmh N 2.0 mph3.2 kmh 29.72 in1006.4 mb 0.00 in0.0 mm 0.00 in0.0 mm 0.01 in0.3 mm
07:56 AM 40.5°F4.7°C 35.4°F1.9°C 82% 1.3 mph N2.1 kmh N 2.0 mph3.2 kmh 29.72 in1006.4 mb 0.00 in0.0 mm 0.00 in0.0 mm 0.01 in0.3 mm
07:57 AM 40.5°F4.7°C 35.4°F1.9°C 82% 1.3 mph N2.1 kmh N 1.1 mph1.8 kmh 29.72 in1006.4 mb 0.00 in0.0 mm 0.00 in0.0 mm 0.01 in0.3 mm
07:58 AM 40.5°F4.7°C 35.4°F1.9°C 82% 1.3 mph NNW2.1 kmh NNW 2.0 mph3.2 kmh 29.72 in1006.4 mb 0.00 in0.0 mm 0.00 in0.0 mm 0.01 in0.3 mm
07:59 AM 40.5°F4.7°C 35.4°F1.9°C 82% 1.8 mph NNW2.9 kmh NNW 3.1 mph5.0 kmh 29.72 in1006.4 mb 0.00 in0.0 mm 0.00 in0.0 mm 0.01 in0.3 mm
08:00 AM 40.5°F4.7°C 35.4°F1.9°C 82% 2.0 mph NW3.2 kmh NW 3.1 mph5.0 kmh 29.72 in1006.4 mb 0.00 in0.0 mm 0.00 in0.0 mm 0.01 in0.3 mm
08:01 AM 40.5°F4.7°C 35.4°F1.9°C 82% 1.8 mph NW2.9 kmh NW 3.1 mph5.0 kmh 29.72 in1006.4 mb 0.00 in0.0 mm 0.00 in0.0 mm 0.01 in0.3 mm
08:02 AM 40.5°F4.7°C 35.4°F1.9°C 82% 1.6 mph NW2.6 kmh NW 2.0 mph3.2 kmh 29.72 in1006.4 mb 0.00 in0.0 mm 0.00 in0.0 mm 0.01 in0.3 mm
08:03 AM 40.5°F4.7°C 35.4°F1.9°C 82% 1.1 mph NW1.8 kmh NW 2.0 mph3.2 kmh 29.72 in1006.4 mb 0.00 in0.0 mm 0.00 in0.0 mm 0.01 in0.3 mm
08:04 AM 40.5°F4.7°C 35.4°F1.9°C 82% 1.1 mph NW1.8 kmh NW 2.0 mph3.2 kmh 29.72 in1006.4 mb 0.00 in0.0 mm 0.00 in0.0 mm 0.01 in0.3 mm
08:05 AM 40.5°F4.7°C 35.4°F1.9°C 82% 1.3 mph NW2.1 kmh NW 2.0 mph3.2 kmh 29.72 in1006.4 mb 0.00 in0.0 mm 0.00 in0.0 mm 0.01 in0.3 mm
08:06 AM 40.5°F4.7°C 35.4°F1.9°C 82% 1.6 mph NW2.6 kmh NW 2.0 mph3.2 kmh 29.72 in1006.4 mb 0.00 in0.0 mm 0.00 in0.0 mm 0.01 in0.3 mm
08:07 AM 40.5°F4.7°C 35.4°F1.9°C 82% 1.3 mph NW2.1 kmh NW 2.0 mph3.2 kmh 29.72 in1006.4 mb 0.00 in0.0 mm 0.00 in0.0 mm 0.01 in0.3 mm
08:08 AM 40.5°F4.7°C 35.4°F1.9°C 82% 1.6 mph NW2.6 kmh NW 2.0 mph3.2 kmh 29.72 in1006.4 mb 0.00 in0.0 mm 0.00 in0.0 mm 0.01 in0.3 mm
08:09 AM 40.5°F4.7°C 35.4°F1.9°C 82% 1.6 mph NW2.6 kmh NW 2.0 mph3.2 kmh 29.72 in1006.4 mb 0.00 in0.0 mm 0.00 in0.0 mm 0.01 in0.3 mm
08:10 AM 40.5°F4.7°C 35.8°F2.1°C 83% 1.6 mph NW2.6 kmh NW 2.0 mph3.2 kmh 29.72 in1006.4 mb 0.00 in0.0 mm 0.00 in0.0 mm 0.01 in0.3 mm
08:11 AM 40.5°F4.7°C 35.8°F2.1°C 83% 1.6 mph NW2.6 kmh NW 2.0 mph3.2 kmh 29.72 in1006.4 mb 0.00 in0.0 mm 0.00 in0.0 mm 0.01 in0.3 mm
08:12 AM 40.5°F4.7°C 35.8°F2.1°C 83% 1.3 mph NW2.1 kmh NW 2.0 mph3.2 kmh 29.72 in1006.4 mb 0.00 in0.0 mm 0.00 in0.0 mm 0.01 in0.3 mm
08:13 AM 40.3°F4.6°C 35.6°F2.0°C 83% 1.3 mph NW2.1 kmh NW 2.0 mph3.2 kmh 29.72 in1006.4 mb 0.00 in0.0 mm 0.00 in0.0 mm 0.01 in0.3 mm
08:14 AM 40.3°F4.6°C 35.6°F2.0°C 83% 1.3 mph NW2.1 kmh NW 2.0 mph3.2 kmh 29.72 in1006.4 mb 0.00 in0.0 mm 0.00 in0.0 mm 0.01 in0.3 mm
08:15 AM 40.3°F4.6°C 35.6°F2.0°C 83% 1.6 mph NW2.6 kmh NW 3.1 mph5.0 kmh 29.72 in1006.4 mb 0.00 in0.0 mm 0.00 in0.0 mm 0.01 in0.3 mm
08:16 AM 40.3°F4.6°C 35.6°F2.0°C 83% 2.0 mph WNW3.2 kmh WNW 4.3 mph6.9 kmh 29.72 in1006.4 mb 0.00 in0.0 mm 0.00 in0.0 mm 0.01 in0.3 mm
08:17 AM 40.3°F4.6°C 35.6°F2.0°C 83% 2.0 mph WNW3.2 kmh WNW 4.3 mph6.9 kmh 29.72 in1006.4 mb 0.00 in0.0 mm 0.00 in0.0 mm 0.01 in0.3 mm
08:18 AM 40.3°F4.6°C 35.6°F2.0°C 83% 1.3 mph WNW2.1 kmh WNW 2.0 mph3.2 kmh 29.72 in1006.4 mb 0.00 in0.0 mm 0.00 in0.0 mm 0.01 in0.3 mm
08:19 AM 40.3°F4.6°C 35.6°F2.0°C 83% 1.6 mph NW2.6 kmh NW 3.1 mph5.0 kmh 29.72 in1006.4 mb 0.00 in0.0 mm 0.00 in0.0 mm 0.01 in0.3 mm
08:20 AM 40.3°F4.6°C 35.6°F2.0°C 83% 1.3 mph NW2.1 kmh NW 2.0 mph3.2 kmh 29.73 in1006.8 mb 0.00 in0.0 mm 0.00 in0.0 mm 0.01 in0.3 mm
08:21 AM 40.3°F4.6°C 35.6°F2.0°C 83% 0.9 mph NW1.4 kmh NW 2.0 mph3.2 kmh 29.73 in1006.8 mb 0.00 in0.0 mm 0.00 in0.0 mm 0.01 in0.3 mm
08:22 AM 40.3°F4.6°C 35.6°F2.0°C 83% 0.9 mph NW1.4 kmh NW 2.0 mph3.2 kmh 29.73 in1006.8 mb 0.00 in0.0 mm 0.00 in0.0 mm 0.01 in0.3 mm
08:23 AM 40.3°F4.6°C 35.6°F2.0°C 83% 1.1 mph NW1.8 kmh NW 2.0 mph3.2 kmh 29.73 in1006.8 mb 0.00 in0.0 mm 0.00 in0.0 mm 0.01 in0.3 mm
08:24 AM 40.3°F4.6°C 35.6°F2.0°C 83% 1.3 mph W2.1 kmh W 3.1 mph5.0 kmh 29.73 in1006.8 mb 0.00 in0.0 mm 0.00 in0.0 mm 0.01 in0.3 mm
08:25 AM 40.3°F4.6°C 35.6°F2.0°C 83% 1.6 mph W2.6 kmh W 3.1 mph5.0 kmh 29.73 in1006.8 mb 0.00 in0.0 mm 0.00 in0.0 mm 0.01 in0.3 mm
08:26 AM 40.3°F4.6°C 35.6°F2.0°C 83% 1.8 mph W2.9 kmh W 3.1 mph5.0 kmh 29.73 in1006.8 mb 0.00 in0.0 mm 0.00 in0.0 mm 0.01 in0.3 mm
08:27 AM 40.3°F4.6°C 35.6°F2.0°C 83% 1.8 mph 2.9 kmh 3.1 mph5.0 kmh 29.73 in1006.8 mb 0.00 in0.0 mm 0.00 in0.0 mm 0.01 in0.3 mm
08:28 AM 40.5°F4.7°C 35.8°F2.1°C 83% 2.0 mph NW3.2 kmh NW 3.1 mph5.0 kmh 29.73 in1006.8 mb 0.00 in0.0 mm 0.00 in0.0 mm 0.01 in0.3 mm
08:29 AM 40.5°F4.7°C 35.8°F2.1°C 83% 2.7 mph WSW4.3 kmh WSW 5.4 mph8.7 kmh 29.73 in1006.8 mb 0.00 in0.0 mm 0.00 in0.0 mm 0.01 in0.3 mm
08:30 AM 40.5°F4.7°C 35.8°F2.1°C 83% 2.9 mph NW4.7 kmh NW 4.3 mph6.9 kmh 29.73 in1006.8 mb 0.00 in0.0 mm 0.00 in0.0 mm 0.01 in0.3 mm
08:31 AM 40.5°F4.7°C 35.8°F2.1°C 83% 2.5 mph NW4.0 kmh NW 4.3 mph6.9 kmh 29.73 in1006.8 mb 0.00 in0.0 mm 0.00 in0.0 mm 0.01 in0.3 mm
08:32 AM 40.5°F4.7°C 36.0°F2.2°C 84% 2.2 mph 3.5 kmh 2.0 mph3.2 kmh 29.73 in1006.8 mb 0.00 in0.0 mm 0.00 in0.0 mm 0.01 in0.3 mm
08:33 AM 40.6°F4.8°C 36.1°F2.3°C 84% 1.6 mph 2.6 kmh 2.0 mph3.2 kmh 29.73 in1006.8 mb 0.00 in0.0 mm 0.00 in0.0 mm 0.01 in0.3 mm
08:34 AM 40.6°F4.8°C 36.1°F2.3°C 84% 1.6 mph NW2.6 kmh NW 3.1 mph5.0 kmh 29.73 in1006.8 mb 0.00 in0.0 mm 0.00 in0.0 mm 0.01 in0.3 mm
08:35 AM 40.6°F4.8°C 36.0°F2.2°C 83% 2.0 mph WSW3.2 kmh WSW 4.3 mph6.9 kmh 29.73 in1006.8 mb 0.00 in0.0 mm 0.00 in0.0 mm 0.01 in0.3 mm
08:36 AM 40.6°F4.8°C 36.0°F2.2°C 83% 2.0 mph W3.2 kmh W 2.0 mph3.2 kmh 29.73 in1006.8 mb 0.00 in0.0 mm 0.00 in0.0 mm 0.01 in0.3 mm
08:37 AM 40.6°F4.8°C 36.1°F2.3°C 84% 2.2 mph W3.5 kmh W 5.4 mph8.7 kmh 29.73 in1006.8 mb 0.00 in0.0 mm 0.00 in0.0 mm 0.01 in0.3 mm
08:38 AM 40.6°F4.8°C 36.1°F2.3°C 84% 2.2 mph W3.5 kmh W 5.4 mph8.7 kmh 29.73 in1006.8 mb 0.00 in0.0 mm 0.00 in0.0 mm 0.01 in0.3 mm
08:39 AM 40.6°F4.8°C 36.1°F2.3°C 84% 1.6 mph NW2.6 kmh NW 2.0 mph3.2 kmh 29.73 in1006.8 mb 0.00 in0.0 mm 0.00 in0.0 mm 0.01 in0.3 mm
08:40 AM 40.8°F4.9°C 36.3°F2.4°C 84% 1.6 mph NW2.6 kmh NW 2.0 mph3.2 kmh 29.73 in1006.8 mb 0.00 in0.0 mm 0.00 in0.0 mm 0.01 in0.3 mm
08:41 AM 40.8°F4.9°C 36.3°F2.4°C 84% 1.8 mph NNW2.9 kmh NNW 2.0 mph3.2 kmh 29.73 in1006.8 mb 0.00 in0.0 mm 0.00 in0.0 mm 0.01 in0.3 mm
08:42 AM 40.8°F4.9°C 36.3°F2.4°C 84% 2.7 mph W4.3 kmh W 5.4 mph8.7 kmh 29.73 in1006.8 mb 0.00 in0.0 mm 0.00 in0.0 mm 0.01 in0.3 mm
08:43 AM 40.8°F4.9°C 36.3°F2.4°C 84% 2.7 mph W4.3 kmh W 5.4 mph8.7 kmh 29.73 in1006.8 mb 0.00 in0.0 mm 0.00 in0.0 mm 0.01 in0.3 mm
08:44 AM 40.8°F4.9°C 36.3°F2.4°C 84% 1.6 mph W2.6 kmh W 2.0 mph3.2 kmh 29.73 in1006.8 mb 0.00 in0.0 mm 0.00 in0.0 mm 0.01 in0.3 mm
08:45 AM 40.8°F4.9°C 36.3°F2.4°C 84% 1.3 mph NW2.1 kmh NW 2.0 mph3.2 kmh 29.73 in1006.8 mb 0.00 in0.0 mm 0.00 in0.0 mm 0.01 in0.3 mm
08:46 AM 40.8°F4.9°C 36.3°F2.4°C 84% 1.6 mph NW2.6 kmh NW 2.0 mph3.2 kmh 29.73 in1006.8 mb 0.00 in0.0 mm 0.00 in0.0 mm 0.01 in0.3 mm
08:47 AM 40.8°F4.9°C 36.3°F2.4°C 84% 1.3 mph NW2.1 kmh NW 2.0 mph3.2 kmh 29.73 in1006.8 mb 0.00 in0.0 mm 0.00 in0.0 mm 0.01 in0.3 mm
08:48 AM 41.0°F5.0°C 36.5°F2.5°C 84% 1.3 mph NW2.1 kmh NW 2.0 mph3.2 kmh 29.73 in1006.8 mb 0.00 in0.0 mm 0.00 in0.0 mm 0.01 in0.3 mm
08:49 AM 41.0°F5.0°C 36.5°F2.5°C 84% 1.6 mph NNW2.6 kmh NNW 3.1 mph5.0 kmh 29.73 in1006.8 mb 0.00 in0.0 mm 0.00 in0.0 mm 0.01 in0.3 mm
08:50 AM 41.0°F5.0°C 36.5°F2.5°C 84% 2.0 mph NW3.2 kmh NW 3.1 mph5.0 kmh 29.73 in1006.8 mb 0.00 in0.0 mm 0.00 in0.0 mm 0.01 in0.3 mm
08:51 AM 41.0°F5.0°C 36.5°F2.5°C 84% 2.0 mph NW3.2 kmh NW 3.1 mph5.0 kmh 29.73 in1006.8 mb 0.00 in0.0 mm 0.00 in0.0 mm 0.01 in0.3 mm
08:52 AM 41.2°F5.1°C 36.7°F2.6°C 84% 1.8 mph NW2.9 kmh NW 3.1 mph5.0 kmh 29.73 in1006.8 mb 0.00 in0.0 mm 0.00 in0.0 mm 0.01 in0.3 mm
08:53 AM 41.2°F5.1°C 36.7°F2.6°C 84% 1.6 mph NW2.6 kmh NW 3.1 mph5.0 kmh 29.73 in1006.8 mb 0.00 in0.0 mm 0.00 in0.0 mm 0.01 in0.3 mm
08:54 AM 41.2°F5.1°C 36.7°F2.6°C 84% 2.0 mph NNW3.2 kmh NNW 3.1 mph5.0 kmh 29.73 in1006.8 mb 0.00 in0.0 mm 0.00 in0.0 mm 0.01 in0.3 mm
08:55 AM 41.2°F5.1°C 36.7°F2.6°C 84% 2.2 mph NNW3.5 kmh NNW 3.1 mph5.0 kmh 29.73 in1006.8 mb 0.00 in0.0 mm 0.00 in0.0 mm 0.01 in0.3 mm
08:56 AM 41.2°F5.1°C 36.7°F2.6°C 84% 2.0 mph WNW3.2 kmh WNW 4.3 mph6.9 kmh 29.73 in1006.8 mb 0.00 in0.0 mm 0.00 in0.0 mm 0.01 in0.3 mm
08:57 AM 41.4°F5.2°C 36.9°F2.7°C 84% 2.0 mph W3.2 kmh W 4.3 mph6.9 kmh 29.73 in1006.8 mb 0.00 in0.0 mm 0.00 in0.0 mm 0.01 in0.3 mm
08:58 AM 41.4°F5.2°C 36.9°F2.7°C 84% 2.2 mph WNW3.5 kmh WNW 4.3 mph6.9 kmh 29.73 in1006.8 mb 0.00 in0.0 mm 0.00 in0.0 mm 0.01 in0.3 mm
08:59 AM 41.4°F5.2°C 36.9°F2.7°C 84% 2.2 mph NNW3.5 kmh NNW 4.3 mph6.9 kmh 29.73 in1006.8 mb 0.00 in0.0 mm 0.00 in0.0 mm 0.01 in0.3 mm
09:00 AM 41.4°F5.2°C 36.9°F2.7°C 84% 2.2 mph NNW3.5 kmh NNW 4.3 mph6.9 kmh 29.73 in1006.8 mb 0.00 in0.0 mm 0.00 in0.0 mm 0.01 in0.3 mm
09:01 AM 41.4°F5.2°C 36.9°F2.7°C 84% 2.0 mph NNW3.2 kmh NNW 3.1 mph5.0 kmh 29.74 in1007.1 mb 0.00 in0.0 mm 0.00 in0.0 mm 0.01 in0.3 mm
09:02 AM 41.4°F5.2°C 36.9°F2.7°C 84% 2.2 mph NW3.5 kmh NW 4.3 mph6.9 kmh 29.74 in1007.1 mb 0.00 in0.0 mm 0.00 in0.0 mm 0.01 in0.3 mm
09:03 AM 41.5°F5.3°C 37.0°F2.8°C 84% 2.2 mph NW3.5 kmh NW 4.3 mph6.9 kmh 29.73 in1006.8 mb 0.00 in0.0 mm 0.00 in0.0 mm 0.01 in0.3 mm
09:04 AM 41.5°F5.3°C 37.0°F2.8°C 84% 2.5 mph NNW4.0 kmh NNW 4.3 mph6.9 kmh 29.73 in1006.8 mb 0.00 in0.0 mm 0.00 in0.0 mm 0.01 in0.3 mm
09:05 AM 41.5°F5.3°C 37.0°F2.8°C 84% 2.9 mph NNW4.7 kmh NNW 5.4 mph8.7 kmh 29.74 in1007.1 mb 0.00 in0.0 mm 0.00 in0.0 mm 0.01 in0.3 mm
09:06 AM 41.5°F5.3°C 37.0°F2.8°C 84% 3.1 mph NW5.0 kmh NW 5.4 mph8.7 kmh 29.73 in1006.8 mb 0.00 in0.0 mm 0.00 in0.0 mm 0.01 in0.3 mm
09:07 AM 41.7°F5.4°C 36.9°F2.7°C 83% 3.1 mph NW5.0 kmh NW 6.3 mph10.1 kmh 29.73 in1006.8 mb 0.00 in0.0 mm 0.00 in0.0 mm 0.01 in0.3 mm
09:08 AM 41.7°F5.4°C 36.9°F2.7°C 83% 2.9 mph NNW4.7 kmh NNW 6.3 mph10.1 kmh 29.74 in1007.1 mb 0.00 in0.0 mm 0.00 in0.0 mm 0.01 in0.3 mm
09:09 AM 41.7°F5.4°C 36.9°F2.7°C 83% 2.5 mph NNW4.0 kmh NNW 3.1 mph5.0 kmh 29.74 in1007.1 mb 0.00 in0.0 mm 0.00 in0.0 mm 0.01 in0.3 mm
09:10 AM 41.7°F5.4°C 36.9°F2.7°C 83% 2.0 mph NW3.2 kmh NW 2.0 mph3.2 kmh 29.74 in1007.1 mb 0.00 in0.0 mm 0.00 in0.0 mm 0.01 in0.3 mm
09:11 AM 41.7°F5.4°C 36.9°F2.7°C 83% 2.0 mph NNW3.2 kmh NNW 4.3 mph6.9 kmh 29.74 in1007.1 mb 0.00 in0.0 mm 0.00 in0.0 mm 0.01 in0.3 mm
09:12 AM 41.9°F5.5°C 37.0°F2.8°C 83% 2.2 mph NNW3.5 kmh NNW 3.1 mph5.0 kmh 29.74 in1007.1 mb 0.00 in0.0 mm 0.00 in0.0 mm 0.01 in0.3 mm
09:13 AM 41.9°F5.5°C 37.0°F2.8°C 83% 2.7 mph NNW4.3 kmh NNW 4.3 mph6.9 kmh 29.74 in1007.1 mb 0.00 in0.0 mm 0.00 in0.0 mm 0.01 in0.3 mm
09:14 AM 42.1°F5.6°C 37.2°F2.9°C 83% 3.1 mph NNW5.0 kmh NNW 5.4 mph8.7 kmh 29.74 in1007.1 mb 0.00 in0.0 mm 0.00 in0.0 mm 0.01 in0.3 mm
09:15 AM 42.1°F5.6°C 37.2°F2.9°C 83% 2.9 mph NNW4.7 kmh NNW 3.1 mph5.0 kmh 29.74 in1007.1 mb 0.00 in0.0 mm 0.00 in0.0 mm 0.01 in0.3 mm
09:16 AM 42.1°F5.6°C 37.2°F2.9°C 83% 2.9 mph NW4.7 kmh NW 3.1 mph5.0 kmh 29.74 in1007.1 mb 0.00 in0.0 mm 0.00 in0.0 mm 0.01 in0.3 mm
09:17 AM 42.1°F5.6°C 37.0°F2.8°C 82% 3.1 mph NNW5.0 kmh NNW 3.1 mph5.0 kmh 29.74 in1007.1 mb 0.00 in0.0 mm 0.00 in0.0 mm 0.01 in0.3 mm
09:18 AM 42.1°F5.6°C 37.0°F2.8°C 82% 2.5 mph NNW4.0 kmh NNW 4.3 mph6.9 kmh 29.74 in1007.1 mb 0.00 in0.0 mm 0.00 in0.0 mm 0.01 in0.3 mm
09:19 AM 42.3°F5.7°C 37.2°F2.9°C 82% 2.7 mph NW4.3 kmh NW 4.3 mph6.9 kmh 29.74 in1007.1 mb 0.00 in0.0 mm 0.00 in0.0 mm 0.01 in0.3 mm
09:20 AM 42.3°F5.7°C 37.2°F2.9°C 82% 3.1 mph NW5.0 kmh NW 5.4 mph8.7 kmh 29.74 in1007.1 mb 0.00 in0.0 mm 0.00 in0.0 mm 0.01 in0.3 mm
09:21 AM 42.3°F5.7°C 37.2°F2.9°C 82% 2.9 mph W4.7 kmh W 4.3 mph6.9 kmh 29.74 in1007.1 mb 0.00 in0.0 mm 0.00 in0.0 mm 0.01 in0.3 mm
09:22 AM 42.3°F5.7°C 37.2°F2.9°C 82% 2.0 mph W3.2 kmh W 4.3 mph6.9 kmh 29.74 in1007.1 mb 0.00 in0.0 mm 0.00 in0.0 mm 0.01 in0.3 mm
09:23 AM 42.4°F5.8°C 37.4°F3.0°C 82% 1.6 mph W2.6 kmh W 2.0 mph3.2 kmh 29.74 in1007.1 mb 0.00 in0.0 mm 0.00 in0.0 mm 0.01 in0.3 mm
09:24 AM 42.4°F5.8°C 37.4°F3.0°C 82% 2.2 mph NNW3.5 kmh NNW 5.4 mph8.7 kmh 29.74 in1007.1 mb 0.00 in0.0 mm 0.00 in0.0 mm 0.01 in0.3 mm
09:25 AM 42.4°F5.8°C 37.4°F3.0°C 82% 3.6 mph N5.8 kmh N 5.4 mph8.7 kmh 29.74 in1007.1 mb 0.00 in0.0 mm 0.00 in0.0 mm 0.01 in0.3 mm
09:26 AM 42.4°F5.8°C 37.4°F3.0°C 82% 3.8 mph NNW6.1 kmh NNW 5.4 mph8.7 kmh 29.74 in1007.1 mb 0.00 in0.0 mm 0.00 in0.0 mm 0.01 in0.3 mm
09:27 AM 42.4°F5.8°C 37.4°F3.0°C 82% 2.5 mph NNW4.0 kmh NNW 3.1 mph5.0 kmh 29.74 in1007.1 mb 0.00 in0.0 mm 0.00 in0.0 mm 0.01 in0.3 mm
09:28 AM 42.4°F5.8°C 37.4°F3.0°C 82% 2.0 mph 3.2 kmh 3.1 mph5.0 kmh 29.74 in1007.1 mb 0.00 in0.0 mm 0.00 in0.0 mm 0.01 in0.3 mm
09:29 AM 42.6°F5.9°C 37.6°F3.1°C 82% 2.5 mph NNW4.0 kmh NNW 4.3 mph6.9 kmh 29.74 in1007.1 mb 0.00 in0.0 mm 0.00 in0.0 mm 0.01 in0.3 mm
09:30 AM 42.6°F5.9°C 37.6°F3.1°C 82% 2.5 mph NW4.0 kmh NW 4.3 mph6.9 kmh 29.74 in1007.1 mb 0.00 in0.0 mm 0.00 in0.0 mm 0.01 in0.3 mm
09:31 AM 42.6°F5.9°C 37.6°F3.1°C 82% 2.5 mph NNW4.0 kmh NNW 3.1 mph5.0 kmh 29.74 in1007.1 mb 0.00 in0.0 mm 0.00 in0.0 mm 0.01 in0.3 mm
09:32 AM 42.6°F5.9°C 37.2°F2.9°C 81% 2.9 mph NW4.7 kmh NW 5.4 mph8.7 kmh 29.74 in1007.1 mb 0.00 in0.0 mm 0.00 in0.0 mm 0.01 in0.3 mm
09:33 AM 42.6°F5.9°C 37.2°F2.9°C 81% 4.5 mph NW7.2 kmh NW 8.5 mph13.7 kmh 29.74 in1007.1 mb 0.00 in0.0 mm 0.00 in0.0 mm 0.01 in0.3 mm
09:34 AM 42.8°F6.0°C 37.4°F3.0°C 81% 4.7 mph NW7.6 kmh NW 5.4 mph8.7 kmh 29.74 in1007.1 mb 0.00 in0.0 mm 0.00 in0.0 mm 0.01 in0.3 mm
09:35 AM 42.8°F6.0°C 37.4°F3.0°C 81% 4.7 mph NW7.6 kmh NW 7.4 mph11.9 kmh 29.74 in1007.1 mb 0.00 in0.0 mm 0.00 in0.0 mm 0.01 in0.3 mm
09:36 AM 43.0°F6.1°C 37.6°F3.1°C 81% 6.3 mph NW10.1 kmh NW 10.5 mph16.9 kmh 29.75 in1007.5 mb 0.00 in0.0 mm 0.00 in0.0 mm 0.01 in0.3 mm
09:37 AM 43.0°F6.1°C 37.6°F3.1°C 81% 5.8 mph NNW9.3 kmh NNW 7.4 mph11.9 kmh 29.74 in1007.1 mb 0.00 in0.0 mm 0.00 in0.0 mm 0.01 in0.3 mm
09:38 AM 43.2°F6.2°C 37.4°F3.0°C 80% 4.3 mph NNW6.9 kmh NNW 6.3 mph10.1 kmh 29.74 in1007.1 mb 0.00 in0.0 mm 0.00 in0.0 mm 0.01 in0.3 mm
09:39 AM 43.2°F6.2°C 37.4°F3.0°C 80% 4.0 mph W6.4 kmh W 8.5 mph13.7 kmh 29.74 in1007.1 mb 0.00 in0.0 mm 0.00 in0.0 mm 0.01 in0.3 mm
09:40 AM 43.2°F6.2°C 37.4°F3.0°C 80% 5.1 mph W8.2 kmh W 10.5 mph16.9 kmh 29.74 in1007.1 mb 0.00 in0.0 mm 0.00 in0.0 mm 0.01 in0.3 mm
09:41 AM 43.2°F6.2°C 37.0°F2.8°C 79% 5.4 mph NW8.7 kmh NW 6.3 mph10.1 kmh 29.74 in1007.1 mb 0.00 in0.0 mm 0.00 in0.0 mm 0.01 in0.3 mm
09:42 AM 43.2°F6.2°C 37.0°F2.8°C 79% 3.6 mph NW5.8 kmh NW 4.3 mph6.9 kmh 29.75 in1007.5 mb 0.00 in0.0 mm 0.00 in0.0 mm 0.01 in0.3 mm
09:43 AM 43.2°F6.2°C 37.0°F2.8°C 79% 3.1 mph NNW5.0 kmh NNW 4.3 mph6.9 kmh 29.75 in1007.5 mb 0.00 in0.0 mm 0.00 in0.0 mm 0.01 in0.3 mm
09:44 AM 43.3°F6.3°C 37.2°F2.9°C 79% 4.7 mph NW7.6 kmh NW 7.4 mph11.9 kmh 29.75 in1007.5 mb 0.00 in0.0 mm 0.00 in0.0 mm 0.01 in0.3 mm
09:45 AM 43.3°F6.3°C 36.9°F2.7°C 78% 5.8 mph NNW9.3 kmh NNW 7.4 mph11.9 kmh 29.75 in1007.5 mb 0.00 in0.0 mm 0.00 in0.0 mm 0.01 in0.3 mm
09:46 AM 43.3°F6.3°C 36.9°F2.7°C 78% 4.7 mph NW7.6 kmh NW 6.3 mph10.1 kmh 29.75 in1007.5 mb 0.00 in0.0 mm 0.00 in0.0 mm 0.01 in0.3 mm
09:47 AM 43.3°F6.3°C 36.9°F2.7°C 78% 3.6 mph NNW5.8 kmh NNW 4.3 mph6.9 kmh 29.75 in1007.5 mb 0.00 in0.0 mm 0.00 in0.0 mm 0.01 in0.3 mm
09:48 AM 43.3°F6.3°C 36.7°F2.6°C 77% 3.1 mph NNW5.0 kmh NNW 4.3 mph6.9 kmh 29.75 in1007.5 mb 0.00 in0.0 mm 0.00 in0.0 mm 0.01 in0.3 mm
09:49 AM 43.3°F6.3°C 36.7°F2.6°C 77% 3.1 mph NW5.0 kmh NW 4.3 mph6.9 kmh 29.75 in1007.5 mb 0.00 in0.0 mm 0.00 in0.0 mm 0.01 in0.3 mm
09:50 AM 43.5°F6.4°C 36.9°F2.7°C 77% 3.4 mph WNW5.5 kmh WNW 5.4 mph8.7 kmh 29.75 in1007.5 mb 0.00 in0.0 mm 0.00 in0.0 mm 0.01 in0.3 mm
09:51 AM 43.5°F6.4°C 36.9°F2.7°C 77% 2.5 mph NNW4.0 kmh NNW 4.3 mph6.9 kmh 29.75 in1007.5 mb 0.00 in0.0 mm 0.00 in0.0 mm 0.01 in0.3 mm
09:52 AM 43.5°F6.4°C 36.9°F2.7°C 77% 2.7 mph NW4.3 kmh NW 6.3 mph10.1 kmh 29.75 in1007.5 mb 0.00 in0.0 mm 0.00 in0.0 mm 0.01 in0.3 mm
09:53 AM 43.5°F6.4°C 36.9°F2.7°C 77% 3.8 mph WSW6.1 kmh WSW 7.4 mph11.9 kmh 29.75 in1007.5 mb 0.00 in0.0 mm 0.00 in0.0 mm 0.01 in0.3 mm
09:54 AM 43.5°F6.4°C 36.9°F2.7°C 77% 3.8 mph NNW6.1 kmh NNW 5.4 mph8.7 kmh 29.75 in1007.5 mb 0.00 in0.0 mm 0.00 in0.0 mm 0.01 in0.3 mm
09:55 AM 43.7°F6.5°C 37.0°F2.8°C 77% 4.3 mph NW6.9 kmh NW 7.4 mph11.9 kmh 29.75 in1007.5 mb 0.00 in0.0 mm 0.00 in0.0 mm 0.01 in0.3 mm
09:56 AM 43.7°F6.5°C 36.7°F2.6°C 76% 4.9 mph NW7.9 kmh NW 8.5 mph13.7 kmh 29.75 in1007.5 mb 0.00 in0.0 mm 0.00 in0.0 mm 0.01 in0.3 mm
09:57 AM 43.7°F6.5°C 36.7°F2.6°C 76% 5.1 mph NNW8.2 kmh NNW 8.5 mph13.7 kmh 29.75 in1007.5 mb 0.00 in0.0 mm 0.00 in0.0 mm 0.01 in0.3 mm
09:58 AM 43.7°F6.5°C 36.7°F2.6°C 76% 4.7 mph NW7.6 kmh NW 7.4 mph11.9 kmh 29.75 in1007.5 mb 0.00 in0.0 mm 0.00 in0.0 mm 0.01 in0.3 mm
09:59 AM 43.7°F6.5°C 36.3°F2.4°C 75% 5.4 mph NW8.7 kmh NW 9.6 mph15.4 kmh 29.75 in1007.5 mb 0.00 in0.0 mm 0.00 in0.0 mm 0.01 in0.3 mm
10:00 AM 43.9°F6.6°C 36.1°F2.3°C 74% 4.9 mph NW7.9 kmh NW 9.6 mph15.4 kmh 29.75 in1007.5 mb 0.00 in0.0 mm 0.00 in0.0 mm 0.01 in0.3 mm
10:01 AM 43.9°F6.6°C 36.1°F2.3°C 74% 4.5 mph NNW7.2 kmh NNW 7.4 mph11.9 kmh 29.75 in1007.5 mb 0.00 in0.0 mm 0.00 in0.0 mm 0.01 in0.3 mm
10:02 AM 43.9°F6.6°C 36.1°F2.3°C 74% 4.5 mph NW7.2 kmh NW 5.4 mph8.7 kmh 29.75 in1007.5 mb 0.00 in0.0 mm 0.00 in0.0 mm 0.01 in0.3 mm
10:03 AM 43.9°F6.6°C 36.5°F2.5°C 75% 3.1 mph W5.0 kmh W 4.3 mph6.9 kmh 29.75 in1007.5 mb 0.00 in0.0 mm 0.00 in0.0 mm 0.01 in0.3 mm
10:04 AM 43.9°F6.6°C 36.5°F2.5°C 75% 3.8 mph W6.1 kmh W 11.6 mph18.7 kmh 29.75 in1007.5 mb 0.00 in0.0 mm 0.00 in0.0 mm 0.01 in0.3 mm
10:05 AM 43.9°F6.6°C 36.5°F2.5°C 75% 5.8 mph N9.3 kmh N 11.6 mph18.7 kmh 29.75 in1007.5 mb 0.00 in0.0 mm 0.00 in0.0 mm 0.01 in0.3 mm
10:06 AM 43.9°F6.6°C 36.5°F2.5°C 75% 5.4 mph NW8.7 kmh NW 6.3 mph10.1 kmh 29.75 in1007.5 mb 0.00 in0.0 mm 0.00 in0.0 mm 0.01 in0.3 mm
10:08 AM 43.9°F6.6°C 36.5°F2.5°C 75% 4.0 mph NW6.4 kmh NW 6.3 mph10.1 kmh 29.75 in1007.5 mb 0.00 in0.0 mm 0.00 in0.0 mm 0.01 in0.3 mm
10:09 AM 43.9°F6.6°C 36.1°F2.3°C 74% 3.6 mph NNW5.8 kmh NNW 5.4 mph8.7 kmh 29.75 in1007.5 mb 0.00 in0.0 mm 0.00 in0.0 mm 0.01 in0.3 mm
10:10 AM 43.9°F6.6°C 36.5°F2.5°C 75% 3.8 mph NW6.1 kmh NW 5.4 mph8.7 kmh 29.75 in1007.5 mb 0.00 in0.0 mm 0.00 in0.0 mm 0.01 in0.3 mm
10:11 AM 44.1°F6.7°C 36.7°F2.6°C 75% 4.5 mph NNW7.2 kmh NNW 8.5 mph13.7 kmh 29.75 in1007.5 mb 0.00 in0.0 mm 0.00 in0.0 mm 0.01 in0.3 mm
10:12 AM 44.1°F6.7°C 36.7°F2.6°C 75% 4.7 mph NW7.6 kmh NW 7.4 mph11.9 kmh 29.75 in1007.5 mb 0.00 in0.0 mm 0.00 in0.0 mm 0.01 in0.3 mm
10:13 AM 44.1°F6.7°C 36.7°F2.6°C 75% 4.5 mph N7.2 kmh N 7.4 mph11.9 kmh 29.75 in1007.5 mb 0.00 in0.0 mm 0.00 in0.0 mm 0.01 in0.3 mm
10:14 AM 44.2°F6.8°C 36.9°F2.7°C 75% 4.0 mph N6.4 kmh N 5.4 mph8.7 kmh 29.75 in1007.5 mb 0.00 in0.0 mm 0.00 in0.0 mm 0.01 in0.3 mm
10:15 AM 44.2°F6.8°C 36.9°F2.7°C 75% 4.3 mph NW6.9 kmh NW 5.4 mph8.7 kmh 29.75 in1007.5 mb 0.00 in0.0 mm 0.00 in0.0 mm 0.01 in0.3 mm
10:16 AM 44.2°F6.8°C 36.5°F2.5°C 74% 3.8 mph NW6.1 kmh NW 5.4 mph8.7 kmh 29.75 in1007.5 mb 0.00 in0.0 mm 0.00 in0.0 mm 0.01 in0.3 mm
10:17 AM 44.2°F6.8°C 36.5°F2.5°C 74% 2.5 mph N4.0 kmh N 3.1 mph5.0 kmh 29.75 in1007.5 mb 0.00 in0.0 mm 0.00 in0.0 mm 0.01 in0.3 mm
10:18 AM 44.2°F6.8°C 36.5°F2.5°C 74% 2.5 mph NNW4.0 kmh NNW 3.1 mph5.0 kmh 29.75 in1007.5 mb 0.00 in0.0 mm 0.00 in0.0 mm 0.01 in0.3 mm
10:19 AM 44.2°F6.8°C 36.5°F2.5°C 74% 3.4 mph NNW5.5 kmh NNW 6.3 mph10.1 kmh 29.75 in1007.5 mb 0.00 in0.0 mm 0.00 in0.0 mm 0.01 in0.3 mm
10:20 AM 44.2°F6.8°C 36.5°F2.5°C 74% 3.4 mph NW5.5 kmh NW 4.3 mph6.9 kmh 29.75 in1007.5 mb 0.00 in0.0 mm 0.00 in0.0 mm 0.01 in0.3 mm
10:21 AM 44.2°F6.8°C 36.5°F2.5°C 74% 2.9 mph NW4.7 kmh NW 4.3 mph6.9 kmh 29.75 in1007.5 mb 0.00 in0.0 mm 0.00 in0.0 mm 0.01 in0.3 mm
10:22 AM 44.2°F6.8°C 36.5°F2.5°C 74% 2.7 mph NNW4.3 kmh NNW 3.1 mph5.0 kmh 29.75 in1007.5 mb 0.00 in0.0 mm 0.00 in0.0 mm 0.01 in0.3 mm
10:23 AM 44.4°F6.9°C 36.7°F2.6°C 74% 2.5 mph NW4.0 kmh NW 4.3 mph6.9 kmh 29.75 in1007.5 mb 0.00 in0.0 mm 0.00 in0.0 mm 0.01 in0.3 mm
10:24 AM 44.4°F6.9°C 36.7°F2.6°C 74% 2.7 mph NW4.3 kmh NW 4.3 mph6.9 kmh 29.75 in1007.5 mb 0.00 in0.0 mm 0.00 in0.0 mm 0.01 in0.3 mm
10:25 AM 44.8°F7.1°C 37.0°F2.8°C 74% 2.7 mph NW4.3 kmh NW 3.1 mph5.0 kmh 29.75 in1007.5 mb 0.00 in0.0 mm 0.00 in0.0 mm 0.01 in0.3 mm
10:26 AM 44.8°F7.1°C 37.0°F2.8°C 74% 2.5 mph NNW4.0 kmh NNW 4.3 mph6.9 kmh 29.75 in1007.5 mb 0.00 in0.0 mm 0.00 in0.0 mm 0.01 in0.3 mm
10:27 AM 45.0°F7.2°C 37.2°F2.9°C 74% 2.9 mph NNW4.7 kmh NNW 5.4 mph8.7 kmh 29.75 in1007.5 mb 0.00 in0.0 mm 0.00 in0.0 mm 0.01 in0.3 mm
10:28 AM 45.0°F7.2°C 37.2°F2.9°C 74% 3.6 mph WSW5.8 kmh WSW 5.4 mph8.7 kmh 29.75 in1007.5 mb 0.00 in0.0 mm 0.00 in0.0 mm 0.01 in0.3 mm
10:29 AM 45.1°F7.3°C 37.4°F3.0°C 74% 3.4 mph NW5.5 kmh NW 4.3 mph6.9 kmh 29.75 in1007.5 mb 0.00 in0.0 mm 0.00 in0.0 mm 0.01 in0.3 mm
10:30 AM 45.1°F7.3°C 37.0°F2.8°C 73% 2.5 mph NW4.0 kmh NW 4.3 mph6.9 kmh 29.75 in1007.5 mb 0.00 in0.0 mm 0.00 in0.0 mm 0.01 in0.3 mm
10:31 AM 45.1°F7.3°C 37.0°F2.8°C 73% 2.7 mph NNW4.3 kmh NNW 4.3 mph6.9 kmh 29.75 in1007.5 mb 0.00 in0.0 mm 0.00 in0.0 mm 0.01 in0.3 mm
10:32 AM 45.3°F7.4°C 36.9°F2.7°C 72% 2.5 mph 4.0 kmh 3.1 mph5.0 kmh 29.75 in1007.5 mb 0.00 in0.0 mm 0.00 in0.0 mm 0.01 in0.3 mm
10:33 AM 45.3°F7.4°C 36.9°F2.7°C 72% 2.5 mph NW4.0 kmh NW 3.1 mph5.0 kmh 29.75 in1007.5 mb 0.00 in0.0 mm 0.00 in0.0 mm 0.01 in0.3 mm
10:34 AM 45.5°F7.5°C 37.0°F2.8°C 72% 2.5 mph NW4.0 kmh NW 3.1 mph5.0 kmh 29.75 in1007.5 mb 0.00 in0.0 mm 0.00 in0.0 mm 0.01 in0.3 mm
10:35 AM 45.7°F7.6°C 37.2°F2.9°C 72% 2.2 mph NNW3.5 kmh NNW 4.3 mph6.9 kmh 29.75 in1007.5 mb 0.00 in0.0 mm 0.00 in0.0 mm 0.01 in0.3 mm
10:36 AM 45.9°F7.7°C 37.4°F3.0°C 72% 2.2 mph NNW3.5 kmh NNW 4.3 mph6.9 kmh 29.75 in1007.5 mb 0.00 in0.0 mm 0.00 in0.0 mm 0.01 in0.3 mm
10:37 AM 46.0°F7.8°C 37.6°F3.1°C 72% 2.0 mph W3.2 kmh W 3.1 mph5.0 kmh 29.75 in1007.5 mb 0.00 in0.0 mm 0.00 in0.0 mm 0.01 in0.3 mm
10:38 AM 46.4°F8.0°C 37.9°F3.3°C 72% 2.2 mph NW3.5 kmh NW 4.3 mph6.9 kmh 29.75 in1007.5 mb 0.00 in0.0 mm 0.00 in0.0 mm 0.01 in0.3 mm
10:39 AM 46.4°F8.0°C 37.9°F3.3°C 72% 2.9 mph NW4.7 kmh NW 5.4 mph8.7 kmh 29.75 in1007.5 mb 0.00 in0.0 mm 0.00 in0.0 mm 0.01 in0.3 mm
10:40 AM 46.4°F8.0°C 37.9°F3.3°C 72% 3.8 mph NW6.1 kmh NW 7.4 mph11.9 kmh 29.75 in1007.5 mb 0.00 in0.0 mm 0.00 in0.0 mm 0.01 in0.3 mm
10:41 AM 46.4°F8.0°C 37.9°F3.3°C 72% 3.6 mph NW5.8 kmh NW 5.4 mph8.7 kmh 29.75 in1007.5 mb 0.00 in0.0 mm 0.00 in0.0 mm 0.01 in0.3 mm
10:42 AM 46.4°F8.0°C 37.9°F3.3°C 72% 2.5 mph NW4.0 kmh NW 3.1 mph5.0 kmh 29.74 in1007.1 mb 0.00 in0.0 mm 0.00 in0.0 mm 0.01 in0.3 mm
10:43 AM 46.4°F8.0°C 37.9°F3.3°C 72% 1.6 mph 2.6 kmh 2.0 mph3.2 kmh 29.75 in1007.5 mb 0.00 in0.0 mm 0.00 in0.0 mm 0.01 in0.3 mm
10:44 AM 46.4°F8.0°C 37.9°F3.3°C 72% 1.8 mph NNW2.9 kmh NNW 4.3 mph6.9 kmh 29.75 in1007.5 mb 0.00 in0.0 mm 0.00 in0.0 mm 0.01 in0.3 mm
10:45 AM 46.4°F8.0°C 37.9°F3.3°C 72% 2.5 mph NNW4.0 kmh NNW 4.3 mph6.9 kmh 29.75 in1007.5 mb 0.00 in0.0 mm 0.00 in0.0 mm 0.01 in0.3 mm
10:46 AM 46.8°F8.2°C 36.7°F2.6°C 68% 2.7 mph NNW4.3 kmh NNW 3.1 mph5.0 kmh 29.75 in1007.5 mb 0.00 in0.0 mm 0.00 in0.0 mm 0.01 in0.3 mm
10:47 AM 46.8°F8.2°C 36.7°F2.6°C 68% 2.5 mph NW4.0 kmh NW 3.1 mph5.0 kmh 29.75 in1007.5 mb 0.00 in0.0 mm 0.00 in0.0 mm 0.01 in0.3 mm
10:48 AM 46.8°F8.2°C 37.2°F2.9°C 69% 2.9 mph NW4.7 kmh NW 5.4 mph8.7 kmh 29.74 in1007.1 mb 0.00 in0.0 mm 0.00 in0.0 mm 0.01 in0.3 mm
10:49 AM 46.8°F8.2°C 36.7°F2.6°C 68% 4.0 mph NNW6.4 kmh NNW 5.4 mph8.7 kmh 29.75 in1007.5 mb 0.00 in0.0 mm 0.00 in0.0 mm 0.01 in0.3 mm
10:50 AM 46.8°F8.2°C 36.7°F2.6°C 68% 4.0 mph WNW6.4 kmh WNW 6.3 mph10.1 kmh 29.74 in1007.1 mb 0.00 in0.0 mm 0.00 in0.0 mm 0.01 in0.3 mm
10:51 AM 46.8°F8.2°C 36.0°F2.2°C 66% 2.9 mph WSW4.7 kmh WSW 4.3 mph6.9 kmh 29.74 in1007.1 mb 0.00 in0.0 mm 0.00 in0.0 mm 0.01 in0.3 mm
10:52 AM 46.9°F8.3°C 36.1°F2.3°C 66% 2.5 mph WNW4.0 kmh WNW 5.4 mph8.7 kmh 29.74 in1007.1 mb 0.00 in0.0 mm 0.00 in0.0 mm 0.01 in0.3 mm
10:53 AM 47.1°F8.4°C 36.3°F2.4°C 66% 2.9 mph NNW4.7 kmh NNW 4.3 mph6.9 kmh 29.74 in1007.1 mb 0.00 in0.0 mm 0.00 in0.0 mm 0.01 in0.3 mm
10:54 AM 47.3°F8.5°C 37.2°F2.9°C 68% 3.1 mph NW5.0 kmh NW 4.3 mph6.9 kmh 29.75 in1007.5 mb 0.00 in0.0 mm 0.00 in0.0 mm 0.01 in0.3 mm
10:55 AM 47.5°F8.6°C 37.4°F3.0°C 68% 3.1 mph NNW5.0 kmh NNW 6.3 mph10.1 kmh 29.74 in1007.1 mb 0.00 in0.0 mm 0.00 in0.0 mm 0.01 in0.3 mm
10:56 AM 47.5°F8.6°C 36.3°F2.4°C 65% 2.9 mph NNW4.7 kmh NNW 4.3 mph6.9 kmh 29.74 in1007.1 mb 0.00 in0.0 mm 0.00 in0.0 mm 0.01 in0.3 mm
10:57 AM 47.5°F8.6°C 36.3°F2.4°C 65% 3.6 mph NNW5.8 kmh NNW 7.4 mph11.9 kmh 29.74 in1007.1 mb 0.00 in0.0 mm 0.00 in0.0 mm 0.01 in0.3 mm
10:58 AM 47.5°F8.6°C 36.3°F2.4°C 65% 4.7 mph NW7.6 kmh NW 7.4 mph11.9 kmh 29.74 in1007.1 mb 0.00 in0.0 mm 0.00 in0.0 mm 0.01 in0.3 mm
10:59 AM 47.5°F8.6°C 36.3°F2.4°C 65% 5.6 mph NW9.0 kmh NW 8.5 mph13.7 kmh 29.74 in1007.1 mb 0.00 in0.0 mm 0.00 in0.0 mm 0.01 in0.3 mm
11:00 AM 47.1°F8.4°C 35.2°F1.8°C 63% 4.7 mph NW7.6 kmh NW 7.4 mph11.9 kmh 29.74 in1007.1 mb 0.00 in0.0 mm 0.00 in0.0 mm 0.01 in0.3 mm
11:01 AM 47.1°F8.4°C 35.2°F1.8°C 63% 4.3 mph NNW6.9 kmh NNW 7.4 mph11.9 kmh 29.74 in1007.1 mb 0.00 in0.0 mm 0.00 in0.0 mm 0.01 in0.3 mm
11:02 AM 47.1°F8.4°C 35.2°F1.8°C 63% 4.7 mph NW7.6 kmh NW 6.3 mph10.1 kmh 29.74 in1007.1 mb 0.00 in0.0 mm 0.00 in0.0 mm 0.01 in0.3 mm
11:03 AM 47.1°F8.4°C 35.2°F1.8°C 63% 5.1 mph NNW8.2 kmh NNW 7.4 mph11.9 kmh 29.74 in1007.1 mb 0.00 in0.0 mm 0.00 in0.0 mm 0.01 in0.3 mm
11:04 AM 46.9°F8.3°C 35.1°F1.7°C 63% 6.7 mph WNW10.8 kmh WNW 12.8 mph20.6 kmh 29.74 in1007.1 mb 0.00 in0.0 mm 0.00 in0.0 mm 0.01 in0.3 mm
11:05 AM 46.9°F8.3°C 35.1°F1.7°C 63% 6.0 mph NW9.7 kmh NW 8.5 mph13.7 kmh 29.74 in1007.1 mb 0.00 in0.0 mm 0.00 in0.0 mm 0.01 in0.3 mm
11:06 AM 46.9°F8.3°C 35.1°F1.7°C 63% 4.0 mph NW6.4 kmh NW 5.4 mph8.7 kmh 29.74 in1007.1 mb 0.00 in0.0 mm 0.00 in0.0 mm 0.01 in0.3 mm
11:07 AM 47.1°F8.4°C 35.2°F1.8°C 63% 3.4 mph NW5.5 kmh NW 5.4 mph8.7 kmh 29.74 in1007.1 mb 0.00 in0.0 mm 0.00 in0.0 mm 0.01 in0.3 mm
11:08 AM 47.3°F8.5°C 35.4°F1.9°C 63% 3.1 mph NW5.0 kmh NW 4.3 mph6.9 kmh 29.74 in1007.1 mb 0.00 in0.0 mm 0.00 in0.0 mm 0.01 in0.3 mm
11:09 AM 47.3°F8.5°C 35.4°F1.9°C 63% 3.6 mph N5.8 kmh N 6.3 mph10.1 kmh 29.74 in1007.1 mb 0.00 in0.0 mm 0.00 in0.0 mm 0.01 in0.3 mm
11:10 AM 47.3°F8.5°C 35.4°F1.9°C 63% 4.7 mph NNW7.6 kmh NNW 8.5 mph13.7 kmh 29.74 in1007.1 mb 0.00 in0.0 mm 0.00 in0.0 mm 0.01 in0.3 mm
11:11 AM 47.3°F8.5°C 34.9°F1.6°C 62% 4.5 mph NNW7.2 kmh NNW 5.4 mph8.7 kmh 29.74 in1007.1 mb 0.00 in0.0 mm 0.00 in0.0 mm 0.01 in0.3 mm
11:12 AM 47.5°F8.6°C 35.1°F1.7°C 62% 3.6 mph NW5.8 kmh NW 5.4 mph8.7 kmh 29.74 in1007.1 mb 0.00 in0.0 mm 0.00 in0.0 mm 0.01 in0.3 mm
11:13 AM 47.5°F8.6°C 35.1°F1.7°C 62% 4.3 mph NNW6.9 kmh NNW 5.4 mph8.7 kmh 29.74 in1007.1 mb 0.00 in0.0 mm 0.00 in0.0 mm 0.01 in0.3 mm
11:14 AM 47.7°F8.7°C 35.2°F1.8°C 62% 3.8 mph NW6.1 kmh NW 6.3 mph10.1 kmh 29.74 in1007.1 mb 0.00 in0.0 mm 0.00 in0.0 mm 0.01 in0.3 mm
11:15 AM 47.8°F8.8°C 35.4°F1.9°C 62% 2.5 mph N4.0 kmh N 4.3 mph6.9 kmh 29.74 in1007.1 mb 0.00 in0.0 mm 0.00 in0.0 mm 0.01 in0.3 mm
11:16 AM 47.8°F8.8°C 34.2°F1.2°C 59% 1.6 mph N2.6 kmh N 3.1 mph5.0 kmh 29.74 in1007.1 mb 0.00 in0.0 mm 0.00 in0.0 mm 0.01 in0.3 mm
11:17 AM 48.0°F8.9°C 34.3°F1.3°C 59% 1.6 mph N2.6 kmh N 3.1 mph5.0 kmh 29.74 in1007.1 mb 0.00 in0.0 mm 0.00 in0.0 mm 0.01 in0.3 mm
11:18 AM 48.2°F9.0°C 34.5°F1.4°C 59% 2.5 mph NW4.0 kmh NW 5.4 mph8.7 kmh 29.74 in1007.1 mb 0.00 in0.0 mm 0.00 in0.0 mm 0.01 in0.3 mm
11:19 AM 48.4°F9.1°C 34.7°F1.5°C 59% 3.6 mph NW5.8 kmh NW 5.4 mph8.7 kmh 29.74 in1007.1 mb 0.00 in0.0 mm 0.00 in0.0 mm 0.01 in0.3 mm
11:20 AM 48.4°F9.1°C 34.3°F1.3°C 58% 4.0 mph NW6.4 kmh NW 6.3 mph10.1 kmh 29.74 in1007.1 mb 0.00 in0.0 mm 0.00 in0.0 mm 0.01 in0.3 mm
11:21 AM 48.4°F9.1°C 34.3°F1.3°C 58% 4.0 mph NW6.4 kmh NW 6.3 mph10.1 kmh 29.74 in1007.1 mb 0.00 in0.0 mm 0.00 in0.0 mm 0.01 in0.3 mm
11:22 AM 48.4°F9.1°C 34.7°F1.5°C 59% 4.3 mph NW6.9 kmh NW 7.4 mph11.9 kmh 29.74 in1007.1 mb 0.00 in0.0 mm 0.00 in0.0 mm 0.01 in0.3 mm
11:23 AM 48.2°F9.0°C 34.2°F1.2°C 58% 6.0 mph NW9.7 kmh NW 13.9 mph22.4 kmh 29.74 in1007.1 mb 0.00 in0.0 mm 0.00 in0.0 mm 0.01 in0.3 mm
11:24 AM 48.2°F9.0°C 33.6°F0.9°C 57% 6.7 mph NW10.8 kmh NW 13.9 mph22.4 kmh 29.74 in1007.1 mb 0.00 in0.0 mm 0.00 in0.0 mm 0.01 in0.3 mm
11:25 AM 48.4°F9.1°C 33.8°F1.0°C 57% 4.0 mph N6.4 kmh N 4.3 mph6.9 kmh 29.74 in1007.1 mb 0.00 in0.0 mm 0.00 in0.0 mm 0.01 in0.3 mm
11:26 AM 48.6°F9.2°C 35.2°F1.8°C 60% 3.4 mph NW5.5 kmh NW 7.4 mph11.9 kmh 29.74 in1007.1 mb 0.00 in0.0 mm 0.00 in0.0 mm 0.01 in0.3 mm
11:27 AM 48.6°F9.2°C 34.5°F1.4°C 58% 4.0 mph NW6.4 kmh NW 7.4 mph11.9 kmh 29.74 in1007.1 mb 0.00 in0.0 mm 0.00 in0.0 mm 0.01 in0.3 mm
11:28 AM 48.4°F9.1°C 34.3°F1.3°C 58% 4.3 mph NNW6.9 kmh NNW 5.4 mph8.7 kmh 29.74 in1007.1 mb 0.00 in0.0 mm 0.00 in0.0 mm 0.01 in0.3 mm
11:29 AM 48.4°F9.1°C 34.3°F1.3°C 58% 4.9 mph NW7.9 kmh NW 8.5 mph13.7 kmh 29.74 in1007.1 mb 0.00 in0.0 mm 0.00 in0.0 mm 0.01 in0.3 mm
11:30 AM 48.4°F9.1°C 34.3°F1.3°C 58% 4.9 mph W7.9 kmh W 6.3 mph10.1 kmh 29.74 in1007.1 mb 0.00 in0.0 mm 0.00 in0.0 mm 0.01 in0.3 mm
11:31 AM 48.6°F9.2°C 34.5°F1.4°C 58% 4.5 mph NW7.2 kmh NW 7.4 mph11.9 kmh 29.74 in1007.1 mb 0.00 in0.0 mm 0.00 in0.0 mm 0.01 in0.3 mm
11:32 AM 48.6°F9.2°C 34.0°F1.1°C 57% 4.7 mph NW7.6 kmh NW 7.4 mph11.9 kmh 29.74 in1007.1 mb 0.00 in0.0 mm 0.00 in0.0 mm 0.01 in0.3 mm
11:33 AM 48.7°F9.3°C 34.2°F1.2°C 57% 5.1 mph NNW8.2 kmh NNW 8.5 mph13.7 kmh 29.74 in1007.1 mb 0.00 in0.0 mm 0.00 in0.0 mm 0.01 in0.3 mm
11:34 AM 48.6°F9.2°C 34.0°F1.1°C 57% 6.9 mph NNW11.1 kmh NNW 14.8 mph23.8 kmh 29.74 in1007.1 mb 0.01 in0.3 mm 0.60 in15.2 mm 0.02 in0.5 mm
11:35 AM 48.6°F9.2°C 34.0°F1.1°C 57% 6.7 mph NW10.8 kmh NW 14.8 mph23.8 kmh 29.74 in1007.1 mb 0.01 in0.3 mm 0.00 in0.0 mm 0.02 in0.5 mm
11:36 AM 48.6°F9.2°C 34.0°F1.1°C 57% 4.5 mph NNW7.2 kmh NNW 6.3 mph10.1 kmh 29.74 in1007.1 mb 0.01 in0.3 mm 0.00 in0.0 mm 0.02 in0.5 mm
11:37 AM 48.4°F9.1°C 33.8°F1.0°C 57% 4.7 mph SW7.6 kmh SW 7.4 mph11.9 kmh 29.74 in1007.1 mb 0.01 in0.3 mm 0.00 in0.0 mm 0.02 in0.5 mm
11:38 AM 48.4°F9.1°C 33.8°F1.0°C 57% 4.9 mph NW7.9 kmh NW 8.5 mph13.7 kmh 29.74 in1007.1 mb 0.01 in0.3 mm 0.00 in0.0 mm 0.02 in0.5 mm
11:39 AM 48.4°F9.1°C 33.8°F1.0°C 57% 4.3 mph NNW6.9 kmh NNW 7.4 mph11.9 kmh 29.74 in1007.1 mb 0.01 in0.3 mm 0.00 in0.0 mm 0.02 in0.5 mm
11:40 AM 48.4°F9.1°C 33.8°F1.0°C 57% 4.0 mph N6.4 kmh N 5.4 mph8.7 kmh 29.75 in1007.5 mb 0.01 in0.3 mm 0.00 in0.0 mm 0.02 in0.5 mm
11:41 AM 48.7°F9.3°C 34.7°F1.5°C 58% 3.4 mph N5.5 kmh N 5.4 mph8.7 kmh 29.74 in1007.1 mb 0.01 in0.3 mm 0.00 in0.0 mm 0.02 in0.5 mm
11:42 AM 48.7°F9.3°C 34.7°F1.5°C 58% 2.9 mph NNW4.7 kmh NNW 5.4 mph8.7 kmh 29.74 in1007.1 mb 0.01 in0.3 mm 0.00 in0.0 mm 0.02 in0.5 mm
11:43 AM 48.7°F9.3°C 34.2°F1.2°C 57% 2.9 mph NNW4.7 kmh NNW 5.4 mph8.7 kmh 29.74 in1007.1 mb 0.01 in0.3 mm 0.00 in0.0 mm 0.02 in0.5 mm
11:44 AM 48.7°F9.3°C 34.2°F1.2°C 57% 2.9 mph N4.7 kmh N 5.4 mph8.7 kmh 29.75 in1007.5 mb 0.01 in0.3 mm 0.00 in0.0 mm 0.02 in0.5 mm
11:45 AM 48.9°F9.4°C 34.3°F1.3°C 57% 4.3 mph NW6.9 kmh NW 7.4 mph11.9 kmh 29.74 in1007.1 mb 0.01 in0.3 mm 0.00 in0.0 mm 0.02 in0.5 mm
11:46 AM 48.9°F9.4°C 34.3°F1.3°C 57% 5.4 mph NW8.7 kmh NW 7.4 mph11.9 kmh 29.75 in1007.5 mb 0.01 in0.3 mm 0.00 in0.0 mm 0.02 in0.5 mm
11:47 AM 48.7°F9.3°C 34.2°F1.2°C 57% 4.9 mph NNW7.9 kmh NNW 6.3 mph10.1 kmh 29.74 in1007.1 mb 0.01 in0.3 mm 0.00 in0.0 mm 0.02 in0.5 mm
11:48 AM 48.7°F9.3°C 33.8°F1.0°C 56% 3.8 mph NNW6.1 kmh NNW 5.4 mph8.7 kmh 29.74 in1007.1 mb 0.01 in0.3 mm 0.00 in0.0 mm 0.02 in0.5 mm
11:49 AM 48.7°F9.3°C 34.2°F1.2°C 57% 3.8 mph NW6.1 kmh NW 6.3 mph10.1 kmh 29.74 in1007.1 mb 0.01 in0.3 mm 0.00 in0.0 mm 0.02 in0.5 mm
11:50 AM 48.7°F9.3°C 34.2°F1.2°C 57% 5.8 mph W9.3 kmh W 7.4 mph11.9 kmh 29.75 in1007.5 mb 0.01 in0.3 mm 0.00 in0.0 mm 0.02 in0.5 mm
11:51 AM 48.7°F9.3°C 34.2°F1.2°C 57% 5.6 mph NW9.0 kmh NW 8.5 mph13.7 kmh 29.75 in1007.5 mb 0.01 in0.3 mm 0.00 in0.0 mm 0.02 in0.5 mm
11:52 AM 48.9°F9.4°C 34.3°F1.3°C 57% 4.5 mph NW7.2 kmh NW 6.3 mph10.1 kmh 29.75 in1007.5 mb 0.01 in0.3 mm 0.00 in0.0 mm 0.02 in0.5 mm
11:53 AM 49.1°F9.5°C 34.5°F1.4°C 57% 4.5 mph NNW7.2 kmh NNW 6.3 mph10.1 kmh 29.74 in1007.1 mb 0.01 in0.3 mm 0.00 in0.0 mm 0.02 in0.5 mm
11:54 AM 48.9°F9.4°C 34.0°F1.1°C 56% 4.3 mph NW6.9 kmh NW 6.3 mph10.1 kmh 29.75 in1007.5 mb 0.01 in0.3 mm 0.00 in0.0 mm 0.02 in0.5 mm
11:55 AM 48.9°F9.4°C 34.0°F1.1°C 56% 3.6 mph NW5.8 kmh NW 6.3 mph10.1 kmh 29.74 in1007.1 mb 0.01 in0.3 mm 0.00 in0.0 mm 0.02 in0.5 mm
11:56 AM 48.9°F9.4°C 34.3°F1.3°C 57% 4.0 mph W6.4 kmh W 6.3 mph10.1 kmh 29.75 in1007.5 mb 0.01 in0.3 mm 0.00 in0.0 mm 0.02 in0.5 mm
11:57 AM 48.9°F9.4°C 34.3°F1.3°C 57% 2.9 mph NNW4.7 kmh NNW 3.1 mph5.0 kmh 29.75 in1007.5 mb 0.01 in0.3 mm 0.00 in0.0 mm 0.02 in0.5 mm
11:58 AM 49.1°F9.5°C 34.5°F1.4°C 57% 2.0 mph 3.2 kmh 3.1 mph5.0 kmh 29.74 in1007.1 mb 0.01 in0.3 mm 0.00 in0.0 mm 0.02 in0.5 mm
11:59 AM 49.5°F9.7°C 34.9°F1.6°C 57% 2.0 mph NNW3.2 kmh NNW 4.3 mph6.9 kmh 29.74 in1007.1 mb 0.01 in0.3 mm 0.00 in0.0 mm 0.02 in0.5 mm
12:00 PM 49.5°F9.7°C 34.9°F1.6°C 57% 2.0 mph WNW3.2 kmh WNW 4.3 mph6.9 kmh 29.74 in1007.1 mb 0.01 in0.3 mm 0.00 in0.0 mm 0.02 in0.5 mm
12:01 PM 49.5°F9.7°C 34.3°F1.3°C 56% 2.2 mph SW3.5 kmh SW 5.4 mph8.7 kmh 29.74 in1007.1 mb 0.01 in0.3 mm 0.00 in0.0 mm 0.02 in0.5 mm
12:02 PM 49.8°F9.9°C 35.2°F1.8°C 57% 2.5 mph W4.0 kmh W 5.4 mph8.7 kmh 29.74 in1007.1 mb 0.01 in0.3 mm 0.00 in0.0 mm 0.02 in0.5 mm
12:03 PM 50.2°F10.1°C 36.0°F2.2°C 58% 2.9 mph N4.7 kmh N 5.4 mph8.7 kmh 29.74 in1007.1 mb 0.01 in0.3 mm 0.00 in0.0 mm 0.02 in0.5 mm
12:04 PM 50.4°F10.2°C 35.2°F1.8°C 56% 2.9 mph N4.7 kmh N 4.3 mph6.9 kmh 29.75 in1007.5 mb 0.01 in0.3 mm 0.00 in0.0 mm 0.02 in0.5 mm
12:05 PM 50.4°F10.2°C 35.2°F1.8°C 56% 2.7 mph NW4.3 kmh NW 7.4 mph11.9 kmh 29.74 in1007.1 mb 0.01 in0.3 mm 0.00 in0.0 mm 0.02 in0.5 mm
12:06 PM 50.2°F10.1°C 35.1°F1.7°C 56% 3.1 mph NNW5.0 kmh NNW 5.4 mph8.7 kmh 29.74 in1007.1 mb 0.01 in0.3 mm 0.00 in0.0 mm 0.02 in0.5 mm
12:07 PM 50.2°F10.1°C 35.6°F2.0°C 57% 4.0 mph NW6.4 kmh NW 6.3 mph10.1 kmh 29.74 in1007.1 mb 0.01 in0.3 mm 0.00 in0.0 mm 0.02 in0.5 mm
12:08 PM 50.0°F10.0°C 34.5°F1.4°C 55% 4.3 mph NW6.9 kmh NW 6.3 mph10.1 kmh 29.74 in1007.1 mb 0.01 in0.3 mm 0.00 in0.0 mm 0.02 in0.5 mm
12:09 PM 49.8°F9.9°C 34.7°F1.5°C 56% 4.5 mph NW7.2 kmh NW 7.4 mph11.9 kmh 29.74 in1007.1 mb 0.01 in0.3 mm 0.00 in0.0 mm 0.02 in0.5 mm
12:10 PM 49.6°F9.8°C 34.5°F1.4°C 56% 4.0 mph NNW6.4 kmh NNW 6.3 mph10.1 kmh 29.75 in1007.5 mb 0.01 in0.3 mm 0.00 in0.0 mm 0.02 in0.5 mm
12:11 PM 49.8°F9.9°C 34.7°F1.5°C 56% 3.1 mph NW5.0 kmh NW 4.3 mph6.9 kmh 29.75 in1007.5 mb 0.01 in0.3 mm 0.00 in0.0 mm 0.02 in0.5 mm
12:12 PM 49.8°F9.9°C 34.7°F1.5°C 56% 2.5 mph WNW4.0 kmh WNW 4.3 mph6.9 kmh 29.74 in1007.1 mb 0.01 in0.3 mm 0.00 in0.0 mm 0.02 in0.5 mm
12:13 PM 49.8°F9.9°C 34.7°F1.5°C 56% 2.2 mph NNW3.5 kmh NNW 3.1 mph5.0 kmh 29.74 in1007.1 mb 0.01 in0.3 mm 0.00 in0.0 mm 0.02 in0.5 mm
12:14 PM 49.8°F9.9°C 34.7°F1.5°C 56% 2.0 mph NE3.2 kmh NE 4.3 mph6.9 kmh 29.74 in1007.1 mb 0.01 in0.3 mm 0.00 in0.0 mm 0.02 in0.5 mm
12:15 PM 49.8°F9.9°C 34.7°F1.5°C 56% 2.9 mph N4.7 kmh N 4.3 mph6.9 kmh 29.74 in1007.1 mb 0.01 in0.3 mm 0.00 in0.0 mm 0.02 in0.5 mm
12:16 PM 50.0°F10.0°C 34.5°F1.4°C 55% 3.4 mph E5.5 kmh E 4.3 mph6.9 kmh 29.74 in1007.1 mb 0.01 in0.3 mm 0.00 in0.0 mm 0.02 in0.5 mm
12:17 PM 50.0°F10.0°C 34.5°F1.4°C 55% 2.5 mph NE4.0 kmh NE 4.3 mph6.9 kmh 29.74 in1007.1 mb 0.01 in0.3 mm 0.00 in0.0 mm 0.02 in0.5 mm
12:18 PM 50.2°F10.1°C 34.2°F1.2°C 54% 3.1 mph NNW5.0 kmh NNW 8.5 mph13.7 kmh 29.74 in1007.1 mb 0.01 in0.3 mm 0.00 in0.0 mm 0.02 in0.5 mm
12:19 PM 50.4°F10.2°C 35.2°F1.8°C 56% 4.3 mph NNW6.9 kmh NNW 5.4 mph8.7 kmh 29.74 in1007.1 mb 0.01 in0.3 mm 0.00 in0.0 mm 0.02 in0.5 mm
12:20 PM 50.4°F10.2°C 35.2°F1.8°C 56% 3.1 mph NNW5.0 kmh NNW 4.3 mph6.9 kmh 29.74 in1007.1 mb 0.01 in0.3 mm 0.00 in0.0 mm 0.02 in0.5 mm
12:21 PM 50.4°F10.2°C 34.9°F1.6°C 55% 2.5 mph NW4.0 kmh NW 5.4 mph8.7 kmh 29.74 in1007.1 mb 0.01 in0.3 mm 0.00 in0.0 mm 0.02 in0.5 mm
12:22 PM 50.4°F10.2°C 34.9°F1.6°C 55% 3.1 mph NW5.0 kmh NW 5.4 mph8.7 kmh 29.74 in1007.1 mb 0.01 in0.3 mm 0.00 in0.0 mm 0.02 in0.5 mm
12:23 PM 50.4°F10.2°C 34.9°F1.6°C 55% 3.1 mph NW5.0 kmh NW 4.3 mph6.9 kmh 29.74 in1007.1 mb 0.01 in0.3 mm 0.00 in0.0 mm 0.02 in0.5 mm
12:24 PM 50.5°F10.3°C 35.4°F1.9°C 56% 2.7 mph NW4.3 kmh NW 4.3 mph6.9 kmh 29.74 in1007.1 mb 0.01 in0.3 mm 0.00 in0.0 mm 0.02 in0.5 mm
12:25 PM 50.7°F10.4°C 35.6°F2.0°C 56% 2.0 mph NW3.2 kmh NW 2.0 mph3.2 kmh 29.74 in1007.1 mb 0.01 in0.3 mm 0.00 in0.0 mm 0.02 in0.5 mm
12:26 PM 50.9°F10.5°C 35.8°F2.1°C 56% 2.7 mph NW4.3 kmh NW 6.3 mph10.1 kmh 29.74 in1007.1 mb 0.01 in0.3 mm 0.00 in0.0 mm 0.02 in0.5 mm
12:27 PM 51.1°F10.6°C 36.0°F2.2°C 56% 3.6 mph NW5.8 kmh NW 5.4 mph8.7 kmh 29.74 in1007.1 mb 0.01 in0.3 mm 0.00 in0.0 mm 0.02 in0.5 mm
12:28 PM 51.4°F10.8°C 36.7°F2.6°C 57% 3.4 mph NW5.5 kmh NW 6.3 mph10.1 kmh 29.74 in1007.1 mb 0.01 in0.3 mm 0.00 in0.0 mm 0.02 in0.5 mm
12:29 PM 51.4°F10.8°C 36.3°F2.4°C 56% 3.6 mph NNW5.8 kmh NNW 4.3 mph6.9 kmh 29.74 in1007.1 mb 0.01 in0.3 mm 0.00 in0.0 mm 0.02 in0.5 mm
12:30 PM 51.3°F10.7°C 35.6°F2.0°C 55% 2.7 mph NW4.3 kmh NW 4.3 mph6.9 kmh 29.74 in1007.1 mb 0.01 in0.3 mm 0.00 in0.0 mm 0.02 in0.5 mm
12:31 PM 51.1°F10.6°C 35.1°F1.7°C 54% 3.6 mph NNW5.8 kmh NNW 9.6 mph15.4 kmh 29.74 in1007.1 mb 0.01 in0.3 mm 0.00 in0.0 mm 0.02 in0.5 mm
12:32 PM 51.1°F10.6°C 36.0°F2.2°C 56% 4.0 mph NW6.4 kmh NW 4.3 mph6.9 kmh 29.74 in1007.1 mb 0.00 in0.0 mm 0.00 in0.0 mm 0.02 in0.5 mm
12:33 PM 51.1°F10.6°C 35.4°F1.9°C 55% 3.1 mph NW5.0 kmh NW 5.4 mph8.7 kmh 29.74 in1007.1 mb 0.00 in0.0 mm 0.00 in0.0 mm 0.02 in0.5 mm
12:34 PM 51.1°F10.6°C 35.4°F1.9°C 55% 3.1 mph N5.0 kmh N 4.3 mph6.9 kmh 29.74 in1007.1 mb 0.00 in0.0 mm 0.00 in0.0 mm 0.02 in0.5 mm
12:35 PM 51.3°F10.7°C 35.6°F2.0°C 55% 3.6 mph NNW5.8 kmh NNW 6.3 mph10.1 kmh 29.74 in1007.1 mb 0.00 in0.0 mm 0.00 in0.0 mm 0.02 in0.5 mm
12:36 PM 51.3°F10.7°C 35.2°F1.8°C 54% 3.8 mph NNW6.1 kmh NNW 6.3 mph10.1 kmh 29.74 in1007.1 mb 0.00 in0.0 mm 0.00 in0.0 mm 0.02 in0.5 mm
12:37 PM 51.3°F10.7°C 35.2°F1.8°C 54% 3.6 mph N5.8 kmh N 4.3 mph6.9 kmh 29.74 in1007.1 mb 0.00 in0.0 mm 0.00 in0.0 mm 0.02 in0.5 mm
12:38 PM 51.1°F10.6°C 35.1°F1.7°C 54% 4.7 mph WNW7.6 kmh WNW 8.5 mph13.7 kmh 29.74 in1007.1 mb 0.00 in0.0 mm 0.00 in0.0 mm 0.02 in0.5 mm
12:39 PM 51.1°F10.6°C 35.1°F1.7°C 54% 4.9 mph NNW7.9 kmh NNW 8.5 mph13.7 kmh 29.74 in1007.1 mb 0.00 in0.0 mm 0.00 in0.0 mm 0.02 in0.5 mm
12:40 PM 51.1°F10.6°C 35.1°F1.7°C 54% 3.6 mph WNW5.8 kmh WNW 4.3 mph6.9 kmh 29.74 in1007.1 mb 0.00 in0.0 mm 0.00 in0.0 mm 0.02 in0.5 mm
12:41 PM 51.3°F10.7°C 35.2°F1.8°C 54% 3.6 mph NW5.8 kmh NW 7.4 mph11.9 kmh 29.74 in1007.1 mb 0.00 in0.0 mm 0.00 in0.0 mm 0.02 in0.5 mm
12:42 PM 51.4°F10.8°C 35.4°F1.9°C 54% 3.4 mph N5.5 kmh N 7.4 mph11.9 kmh 29.74 in1007.1 mb 0.00 in0.0 mm 0.00 in0.0 mm 0.02 in0.5 mm
12:43 PM 51.4°F10.8°C 35.4°F1.9°C 54% 2.7 mph NNW4.3 kmh NNW 5.4 mph8.7 kmh 29.74 in1007.1 mb 0.00 in0.0 mm 0.00 in0.0 mm 0.02 in0.5 mm
12:44 PM 51.4°F10.8°C 35.8°F2.1°C 55% 2.7 mph NNW4.3 kmh NNW 4.3 mph6.9 kmh 29.74 in1007.1 mb 0.00 in0.0 mm 0.00 in0.0 mm 0.02 in0.5 mm
12:45 PM 51.4°F10.8°C 34.9°F1.6°C 53% 2.5 mph N4.0 kmh N 3.1 mph5.0 kmh 29.74 in1007.1 mb 0.00 in0.0 mm 0.00 in0.0 mm 0.02 in0.5 mm
12:46 PM 51.4°F10.8°C 34.9°F1.6°C 53% 2.2 mph NNW3.5 kmh NNW 4.3 mph6.9 kmh 29.74 in1007.1 mb 0.00 in0.0 mm 0.00 in0.0 mm 0.02 in0.5 mm
12:47 PM 51.4°F10.8°C 34.9°F1.6°C 53% 2.2 mph NNW3.5 kmh NNW 4.3 mph6.9 kmh 29.73 in1006.8 mb 0.00 in0.0 mm 0.00 in0.0 mm 0.02 in0.5 mm
12:48 PM 51.4°F10.8°C 34.9°F1.6°C 53% 2.5 mph NW4.0 kmh NW 3.1 mph5.0 kmh 29.74 in1007.1 mb 0.00 in0.0 mm 0.00 in0.0 mm 0.02 in0.5 mm
12:49 PM 51.4°F10.8°C 34.9°F1.6°C 53% 2.7 mph NNW4.3 kmh NNW 3.1 mph5.0 kmh 29.73 in1006.8 mb 0.00 in0.0 mm 0.00 in0.0 mm 0.02 in0.5 mm
12:50 PM 51.4°F10.8°C 35.4°F1.9°C 54% 3.1 mph NW5.0 kmh NW 5.4 mph8.7 kmh 29.73 in1006.8 mb 0.00 in0.0 mm 0.00 in0.0 mm 0.02 in0.5 mm
12:51 PM 52.0°F11.1°C 36.3°F2.4°C 55% 2.5 mph NW4.0 kmh NW 3.1 mph5.0 kmh 29.73 in1006.8 mb 0.00 in0.0 mm 0.00 in0.0 mm 0.02 in0.5 mm
12:52 PM 52.2°F11.2°C 36.5°F2.5°C 55% 2.2 mph NW3.5 kmh NW 4.3 mph6.9 kmh 29.73 in1006.8 mb 0.00 in0.0 mm 0.00 in0.0 mm 0.02 in0.5 mm
12:53 PM 52.2°F11.2°C 35.1°F1.7°C 52% 2.7 mph NW4.3 kmh NW 4.3 mph6.9 kmh 29.73 in1006.8 mb 0.00 in0.0 mm 0.00 in0.0 mm 0.02 in0.5 mm
12:54 PM 52.2°F11.2°C 35.1°F1.7°C 52% 2.9 mph N4.7 kmh N 4.3 mph6.9 kmh 29.73 in1006.8 mb 0.00 in0.0 mm 0.00 in0.0 mm 0.02 in0.5 mm
12:55 PM 52.2°F11.2°C 35.1°F1.7°C 52% 2.2 mph NNW3.5 kmh NNW 3.1 mph5.0 kmh 29.73 in1006.8 mb 0.00 in0.0 mm 0.00 in0.0 mm 0.02 in0.5 mm
12:56 PM 52.2°F11.2°C 35.1°F1.7°C 52% 2.5 mph 4.0 kmh 4.3 mph6.9 kmh 29.74 in1007.1 mb 0.00 in0.0 mm 0.00 in0.0 mm 0.02 in0.5 mm
12:57 PM 52.2°F11.2°C 35.1°F1.7°C 52% 2.5 mph NNW4.0 kmh NNW 4.3 mph6.9 kmh 29.73 in1006.8 mb 0.00 in0.0 mm 0.00 in0.0 mm 0.02 in0.5 mm
12:58 PM 52.2°F11.2°C 35.1°F1.7°C 52% 2.7 mph NNW4.3 kmh NNW 5.4 mph8.7 kmh 29.73 in1006.8 mb 0.00 in0.0 mm 0.00 in0.0 mm 0.02 in0.5 mm
12:59 PM 52.2°F11.2°C 34.2°F1.2°C 50% 2.7 mph N4.3 kmh N 3.1 mph5.0 kmh 29.73 in1006.8 mb 0.00 in0.0 mm 0.00 in0.0 mm 0.02 in0.5 mm
01:00 PM 52.2°F11.2°C 34.2°F1.2°C 50% 2.9 mph NNW4.7 kmh NNW 5.4 mph8.7 kmh 29.73 in1006.8 mb 0.00 in0.0 mm 0.00 in0.0 mm 0.02 in0.5 mm
01:01 PM 52.3°F11.3°C 35.2°F1.8°C 52% 3.8 mph N6.1 kmh N 5.4 mph8.7 kmh 29.73 in1006.8 mb 0.00 in0.0 mm 0.00 in0.0 mm 0.02 in0.5 mm
01:02 PM 52.3°F11.3°C 35.2°F1.8°C 52% 3.8 mph NNW6.1 kmh NNW 5.4 mph8.7 kmh 29.73 in1006.8 mb 0.00 in0.0 mm 0.00 in0.0 mm 0.02 in0.5 mm
01:03 PM 52.3°F11.3°C 34.7°F1.5°C 51% 3.6 mph NW5.8 kmh NW 5.4 mph8.7 kmh 29.73 in1006.8 mb 0.00 in0.0 mm 0.00 in0.0 mm 0.02 in0.5 mm
01:04 PM 52.3°F11.3°C 34.7°F1.5°C 51% 3.4 mph NW5.5 kmh NW 4.3 mph6.9 kmh 29.73 in1006.8 mb 0.00 in0.0 mm 0.00 in0.0 mm 0.02 in0.5 mm
01:05 PM 52.5°F11.4°C 34.3°F1.3°C 50% 2.9 mph N4.7 kmh N 5.4 mph8.7 kmh 29.73 in1006.8 mb 0.00 in0.0 mm 0.00 in0.0 mm 0.02 in0.5 mm
01:06 PM 52.5°F11.4°C 34.9°F1.6°C 51% 2.7 mph NNE4.3 kmh NNE 7.4 mph11.9 kmh 29.73 in1006.8 mb 0.00 in0.0 mm 0.00 in0.0 mm 0.02 in0.5 mm
01:07 PM 52.5°F11.4°C 34.3°F1.3°C 50% 3.4 mph NW5.5 kmh NW 7.4 mph11.9 kmh 29.73 in1006.8 mb 0.00 in0.0 mm 0.00 in0.0 mm 0.02 in0.5 mm
01:08 PM 52.5°F11.4°C 34.3°F1.3°C 50% 4.9 mph NW7.9 kmh NW 11.6 mph18.7 kmh 29.73 in1006.8 mb 0.00 in0.0 mm 0.00 in0.0 mm 0.02 in0.5 mm
01:09 PM 52.3°F11.3°C 34.2°F1.2°C 50% 6.5 mph NW10.5 kmh NW 11.6 mph18.7 kmh 29.73 in1006.8 mb 0.00 in0.0 mm 0.00 in0.0 mm 0.02 in0.5 mm
01:10 PM 52.3°F11.3°C 33.8°F1.0°C 49% 5.8 mph NNW9.3 kmh NNW 8.5 mph13.7 kmh 29.73 in1006.8 mb 0.00 in0.0 mm 0.00 in0.0 mm 0.02 in0.5 mm
01:11 PM 52.3°F11.3°C 34.7°F1.5°C 51% 4.5 mph NW7.2 kmh NW 5.4 mph8.7 kmh 29.73 in1006.8 mb 0.00 in0.0 mm 0.00 in0.0 mm 0.02 in0.5 mm
01:12 PM 52.3°F11.3°C 34.2°F1.2°C 50% 4.9 mph SW7.9 kmh SW 12.8 mph20.6 kmh 29.73 in1006.8 mb 0.00 in0.0 mm 0.00 in0.0 mm 0.02 in0.5 mm
01:13 PM 52.3°F11.3°C 34.2°F1.2°C 50% 5.4 mph W8.7 kmh W 7.4 mph11.9 kmh 29.73 in1006.8 mb 0.00 in0.0 mm 0.00 in0.0 mm 0.02 in0.5 mm
01:14 PM 52.5°F11.4°C 34.9°F1.6°C 51% 4.0 mph NW6.4 kmh NW 7.4 mph11.9 kmh 29.73 in1006.8 mb 0.00 in0.0 mm 0.00 in0.0 mm 0.02 in0.5 mm
01:15 PM 52.5°F11.4°C 34.0°F1.1°C 49% 2.9 mph NW4.7 kmh NW 5.4 mph8.7 kmh 29.73 in1006.8 mb 0.00 in0.0 mm 0.00 in0.0 mm 0.02 in0.5 mm
01:16 PM 52.7°F11.5°C 34.5°F1.4°C 50% 3.6 mph NW5.8 kmh NW 9.6 mph15.4 kmh 29.73 in1006.8 mb 0.00 in0.0 mm 0.00 in0.0 mm 0.02 in0.5 mm
01:17 PM 52.9°F11.6°C 35.2°F1.8°C 51% 5.8 mph NNW9.3 kmh NNW 12.8 mph20.6 kmh 29.73 in1006.8 mb 0.00 in0.0 mm 0.00 in0.0 mm 0.02 in0.5 mm
01:18 PM 52.9°F11.6°C 34.2°F1.2°C 49% 5.6 mph NNW9.0 kmh NNW 7.4 mph11.9 kmh 29.73 in1006.8 mb 0.00 in0.0 mm 0.00 in0.0 mm 0.02 in0.5 mm
01:19 PM 52.7°F11.5°C 33.6°F0.9°C 48% 3.6 mph NNW5.8 kmh NNW 6.3 mph10.1 kmh 29.73 in1006.8 mb 0.00 in0.0 mm 0.00 in0.0 mm 0.02 in0.5 mm
01:20 PM 52.9°F11.6°C 34.7°F1.5°C 50% 2.9 mph NNW4.7 kmh NNW 4.3 mph6.9 kmh 29.73 in1006.8 mb 0.00 in0.0 mm 0.00 in0.0 mm 0.02 in0.5 mm
01:21 PM 52.9°F11.6°C 34.2°F1.2°C 49% 3.4 mph NNW5.5 kmh NNW 6.3 mph10.1 kmh 29.73 in1006.8 mb 0.00 in0.0 mm 0.00 in0.0 mm 0.02 in0.5 mm
01:22 PM 53.1°F11.7°C 34.3°F1.3°C 49% 4.0 mph N6.4 kmh N 6.3 mph10.1 kmh 29.73 in1006.8 mb 0.00 in0.0 mm 0.00 in0.0 mm 0.02 in0.5 mm
01:23 PM 53.1°F11.7°C 34.3°F1.3°C 49% 4.9 mph NW7.9 kmh NW 7.4 mph11.9 kmh 29.73 in1006.8 mb 0.00 in0.0 mm 0.00 in0.0 mm 0.02 in0.5 mm
01:24 PM 53.1°F11.7°C 34.3°F1.3°C 49% 4.9 mph NW7.9 kmh NW 6.3 mph10.1 kmh 29.73 in1006.8 mb 0.00 in0.0 mm 0.00 in0.0 mm 0.02 in0.5 mm
01:25 PM 53.1°F11.7°C 34.3°F1.3°C 49% 4.3 mph NNW6.9 kmh NNW 7.4 mph11.9 kmh 29.73 in1006.8 mb 0.00 in0.0 mm 0.00 in0.0 mm 0.02 in0.5 mm
01:26 PM 53.2°F11.8°C 34.5°F1.4°C 49% 3.1 mph NNW5.0 kmh NNW 3.1 mph5.0 kmh 29.73 in1006.8 mb 0.00 in0.0 mm 0.00 in0.0 mm 0.02 in0.5 mm
01:27 PM 53.2°F11.8°C 35.1°F1.7°C 50% 3.4 mph NNW5.5 kmh NNW 5.4 mph8.7 kmh 29.73 in1006.8 mb 0.00 in0.0 mm 0.00 in0.0 mm 0.02 in0.5 mm
01:28 PM 53.4°F11.9°C 34.7°F1.5°C 49% 3.4 mph NNW5.5 kmh NNW 4.3 mph6.9 kmh 29.73 in1006.8 mb 0.00 in0.0 mm 0.00 in0.0 mm 0.02 in0.5 mm
01:29 PM 53.4°F11.9°C 34.2°F1.2°C 48% 4.5 mph NW7.2 kmh NW 9.6 mph15.4 kmh 29.73 in1006.8 mb 0.00 in0.0 mm 0.00 in0.0 mm 0.02 in0.5 mm
01:30 PM 53.4°F11.9°C 34.2°F1.2°C 48% 5.4 mph NW8.7 kmh NW 9.6 mph15.4 kmh 29.72 in1006.4 mb 0.00 in0.0 mm 0.00 in0.0 mm 0.02 in0.5 mm
01:31 PM 53.1°F11.7°C 33.8°F1.0°C 48% 4.3 mph NNW6.9 kmh NNW 6.3 mph10.1 kmh 29.72 in1006.4 mb 0.00 in0.0 mm 0.00 in0.0 mm 0.02 in0.5 mm
01:32 PM 53.1°F11.7°C 33.8°F1.0°C 48% 2.9 mph 4.7 kmh 4.3 mph6.9 kmh 29.72 in1006.4 mb 0.00 in0.0 mm 0.00 in0.0 mm 0.02 in0.5 mm
01:33 PM 53.2°F11.8°C 35.1°F1.7°C 50% 2.7 mph NW4.3 kmh NW 4.3 mph6.9 kmh 29.73 in1006.8 mb 0.00 in0.0 mm 0.00 in0.0 mm 0.02 in0.5 mm
01:34 PM 53.6°F12.0°C 34.9°F1.6°C 49% 2.9 mph E4.7 kmh E 4.3 mph6.9 kmh 29.72 in1006.4 mb 0.00 in0.0 mm 0.00 in0.0 mm 0.02 in0.5 mm
01:35 PM 53.8°F12.1°C 35.1°F1.7°C 49% 4.0 mph NW6.4 kmh NW 6.3 mph10.1 kmh 29.72 in1006.4 mb 0.00 in0.0 mm 0.00 in0.0 mm 0.02 in0.5 mm
01:36 PM 53.8°F12.1°C 35.1°F1.7°C 49% 5.6 mph W9.0 kmh W 8.5 mph13.7 kmh 29.72 in1006.4 mb 0.00 in0.0 mm 0.00 in0.0 mm 0.02 in0.5 mm
01:37 PM 53.8°F12.1°C 34.5°F1.4°C 48% 6.5 mph NNW10.5 kmh NNW 12.8 mph20.6 kmh 29.72 in1006.4 mb 0.00 in0.0 mm 0.00 in0.0 mm 0.02 in0.5 mm
01:38 PM 53.8°F12.1°C 34.5°F1.4°C 48% 5.1 mph NW8.2 kmh NW 6.3 mph10.1 kmh 29.72 in1006.4 mb 0.00 in0.0 mm 0.00 in0.0 mm 0.02 in0.5 mm
01:39 PM 53.8°F12.1°C 34.0°F1.1°C 47% 3.1 mph NNW5.0 kmh NNW 4.3 mph6.9 kmh 29.73 in1006.8 mb 0.00 in0.0 mm 0.00 in0.0 mm 0.02 in0.5 mm
01:40 PM 53.6°F12.0°C 33.8°F1.0°C 47% 3.4 mph N5.5 kmh N 6.3 mph10.1 kmh 29.72 in1006.4 mb 0.00 in0.0 mm 0.00 in0.0 mm 0.02 in0.5 mm
01:42 PM 53.4°F11.9°C 33.6°F0.9°C 47% 3.6 mph N5.8 kmh N 5.4 mph8.7 kmh 29.72 in1006.4 mb 0.00 in0.0 mm 0.00 in0.0 mm 0.02 in0.5 mm
01:43 PM 53.4°F11.9°C 33.6°F0.9°C 47% 3.4 mph NW5.5 kmh NW 5.4 mph8.7 kmh 29.72 in1006.4 mb 0.00 in0.0 mm 0.00 in0.0 mm 0.02 in0.5 mm
01:44 PM 53.8°F12.1°C 34.0°F1.1°C 47% 4.3 mph NNW6.9 kmh NNW 6.3 mph10.1 kmh 29.72 in1006.4 mb 0.00 in0.0 mm 0.00 in0.0 mm 0.02 in0.5 mm
01:45 PM 53.8°F12.1°C 34.0°F1.1°C 47% 5.8 mph WNW9.3 kmh WNW 9.6 mph15.4 kmh 29.72 in1006.4 mb 0.00 in0.0 mm 0.00 in0.0 mm 0.02 in0.5 mm
01:46 PM 53.4°F11.9°C 33.6°F0.9°C 47% 5.1 mph NW8.2 kmh NW 7.4 mph11.9 kmh 29.73 in1006.8 mb 0.00 in0.0 mm 0.00 in0.0 mm 0.02 in0.5 mm
01:47 PM 53.4°F11.9°C 34.7°F1.5°C 49% 4.0 mph NW6.4 kmh NW 6.3 mph10.1 kmh 29.73 in1006.8 mb 0.00 in0.0 mm 0.00 in0.0 mm 0.02 in0.5 mm
01:48 PM 53.4°F11.9°C 34.2°F1.2°C 48% 4.7 mph NW7.6 kmh NW 7.4 mph11.9 kmh 29.72 in1006.4 mb 0.00 in0.0 mm 0.00 in0.0 mm 0.02 in0.5 mm
01:49 PM 53.6°F12.0°C 33.8°F1.0°C 47% 4.5 mph NNW7.2 kmh NNW 7.4 mph11.9 kmh 29.72 in1006.4 mb 0.00 in0.0 mm 0.00 in0.0 mm 0.02 in0.5 mm
01:50 PM 53.6°F12.0°C 33.8°F1.0°C 47% 3.6 mph NNE5.8 kmh NNE 4.3 mph6.9 kmh 29.73 in1006.8 mb 0.00 in0.0 mm 0.00 in0.0 mm 0.02 in0.5 mm
01:51 PM 54.0°F12.2°C 34.7°F1.5°C 48% 3.4 mph NW5.5 kmh NW 6.3 mph10.1 kmh 29.73 in1006.8 mb 0.00 in0.0 mm 0.00 in0.0 mm 0.02 in0.5 mm
01:52 PM 54.0°F12.2°C 34.2°F1.2°C 47% 4.3 mph NW6.9 kmh NW 8.5 mph13.7 kmh 29.72 in1006.4 mb 0.00 in0.0 mm 0.00 in0.0 mm 0.02 in0.5 mm
01:53 PM 54.0°F12.2°C 34.2°F1.2°C 47% 4.9 mph NNW7.9 kmh NNW 9.6 mph15.4 kmh 29.72 in1006.4 mb 0.00 in0.0 mm 0.00 in0.0 mm 0.02 in0.5 mm
01:54 PM 54.0°F12.2°C 34.2°F1.2°C 47% 3.8 mph NNW6.1 kmh NNW 3.1 mph5.0 kmh 29.72 in1006.4 mb 0.00 in0.0 mm 0.00 in0.0 mm 0.02 in0.5 mm
01:55 PM 54.1°F12.3°C 34.3°F1.3°C 47% 2.9 mph NNW4.7 kmh NNW 4.3 mph6.9 kmh 29.72 in1006.4 mb 0.00 in0.0 mm 0.00 in0.0 mm 0.02 in0.5 mm
01:56 PM 54.1°F12.3°C 34.3°F1.3°C 47% 3.8 mph NNW6.1 kmh NNW 6.3 mph10.1 kmh 29.72 in1006.4 mb 0.00 in0.0 mm 0.00 in0.0 mm 0.02 in0.5 mm
01:57 PM 54.1°F12.3°C 34.3°F1.3°C 47% 4.5 mph NNW7.2 kmh NNW 6.3 mph10.1 kmh 29.72 in1006.4 mb 0.00 in0.0 mm 0.00 in0.0 mm 0.02 in0.5 mm
01:58 PM 54.1°F12.3°C 34.3°F1.3°C 47% 4.7 mph WSW7.6 kmh WSW 9.6 mph15.4 kmh 29.72 in1006.4 mb 0.00 in0.0 mm 0.00 in0.0 mm 0.02 in0.5 mm
01:59 PM 54.0°F12.2°C 33.6°F0.9°C 46% 5.4 mph N8.7 kmh N 8.5 mph13.7 kmh 29.72 in1006.4 mb 0.00 in0.0 mm 0.00 in0.0 mm 0.02 in0.5 mm
02:00 PM 54.0°F12.2°C 33.6°F0.9°C 46% 5.4 mph NW8.7 kmh NW 7.4 mph11.9 kmh 29.72 in1006.4 mb 0.00 in0.0 mm 0.00 in0.0 mm 0.02 in0.5 mm
02:01 PM 53.6°F12.0°C 33.8°F1.0°C 47% 4.7 mph NW7.6 kmh NW 5.4 mph8.7 kmh 29.72 in1006.4 mb 0.00 in0.0 mm 0.00 in0.0 mm 0.02 in0.5 mm
02:02 PM 53.4°F11.9°C 33.6°F0.9°C 47% 3.6 mph NNW5.8 kmh NNW 4.3 mph6.9 kmh 29.72 in1006.4 mb 0.00 in0.0 mm 0.00 in0.0 mm 0.02 in0.5 mm
02:03 PM 53.8°F12.1°C 34.0°F1.1°C 47% 3.6 mph WNW5.8 kmh WNW 5.4 mph8.7 kmh 29.72 in1006.4 mb 0.00 in0.0 mm 0.00 in0.0 mm 0.02 in0.5 mm
02:04 PM 53.8°F12.1°C 34.0°F1.1°C 47% 4.0 mph NW6.4 kmh NW 5.4 mph8.7 kmh 29.72 in1006.4 mb 0.00 in0.0 mm 0.00 in0.0 mm 0.02 in0.5 mm
02:05 PM 53.8°F12.1°C 34.0°F1.1°C 47% 4.5 mph WNW7.2 kmh WNW 10.5 mph16.9 kmh 29.72 in1006.4 mb 0.00 in0.0 mm 0.00 in0.0 mm 0.02 in0.5 mm
02:06 PM 53.8°F12.1°C 34.0°F1.1°C 47% 6.0 mph W9.7 kmh W 10.5 mph16.9 kmh 29.72 in1006.4 mb 0.00 in0.0 mm 0.00 in0.0 mm 0.02 in0.5 mm
02:07 PM 53.8°F12.1°C 34.0°F1.1°C 47% 6.5 mph NNW10.5 kmh NNW 10.5 mph16.9 kmh 29.72 in1006.4 mb 0.00 in0.0 mm 0.00 in0.0 mm 0.02 in0.5 mm
02:08 PM 53.6°F12.0°C 33.8°F1.0°C 47% 5.4 mph NW8.7 kmh NW 7.4 mph11.9 kmh 29.72 in1006.4 mb 0.00 in0.0 mm 0.00 in0.0 mm 0.02 in0.5 mm
02:09 PM 53.2°F11.8°C 33.1°F0.6°C 46% 4.0 mph NW6.4 kmh NW 5.4 mph8.7 kmh 29.72 in1006.4 mb 0.00 in0.0 mm 0.00 in0.0 mm 0.02 in0.5 mm
02:10 PM 53.4°F11.9°C 34.2°F1.2°C 48% 3.6 mph W5.8 kmh W 8.5 mph13.7 kmh 29.72 in1006.4 mb 0.00 in0.0 mm 0.00 in0.0 mm 0.02 in0.5 mm
02:11 PM 53.4°F11.9°C 34.2°F1.2°C 48% 4.9 mph NNW7.9 kmh NNW 8.5 mph13.7 kmh 29.72 in1006.4 mb 0.00 in0.0 mm 0.00 in0.0 mm 0.02 in0.5 mm
02:12 PM 53.6°F12.0°C 33.3°F0.7°C 46% 6.9 mph NW11.1 kmh NW 12.8 mph20.6 kmh 29.72 in1006.4 mb 0.00 in0.0 mm 0.00 in0.0 mm 0.02 in0.5 mm
02:13 PM 53.6°F12.0°C 32.7°F0.4°C 45% 5.6 mph NNE9.0 kmh NNE 7.4 mph11.9 kmh 29.72 in1006.4 mb 0.00 in0.0 mm 0.00 in0.0 mm 0.02 in0.5 mm
02:14 PM 54.0°F12.2°C 34.2°F1.2°C 47% 2.5 mph NW4.0 kmh NW 5.4 mph8.7 kmh 29.72 in1006.4 mb 0.00 in0.0 mm 0.00 in0.0 mm 0.02 in0.5 mm
02:15 PM 54.5°F12.5°C 34.7°F1.5°C 47% 2.9 mph NNW4.7 kmh NNW 5.4 mph8.7 kmh 29.72 in1006.4 mb 0.00 in0.0 mm 0.00 in0.0 mm 0.02 in0.5 mm
02:16 PM 54.7°F12.6°C 35.4°F1.9°C 48% 2.9 mph 4.7 kmh 6.3 mph10.1 kmh 29.72 in1006.4 mb 0.00 in0.0 mm 0.00 in0.0 mm 0.02 in0.5 mm
02:17 PM 54.7°F12.6°C 33.8°F1.0°C 45% 2.7 mph NW4.3 kmh NW 6.3 mph10.1 kmh 29.72 in1006.4 mb 0.00 in0.0 mm 0.00 in0.0 mm 0.02 in0.5 mm
02:18 PM 54.7°F12.6°C 34.3°F1.3°C 46% 3.6 mph WNW5.8 kmh WNW 8.5 mph13.7 kmh 29.72 in1006.4 mb 0.00 in0.0 mm 0.00 in0.0 mm 0.02 in0.5 mm
02:19 PM 54.5°F12.5°C 34.2°F1.2°C 46% 4.5 mph NNW7.2 kmh NNW 8.5 mph13.7 kmh 29.72 in1006.4 mb 0.00 in0.0 mm 0.00 in0.0 mm 0.02 in0.5 mm
02:20 PM 54.5°F12.5°C 35.8°F2.1°C 49% 4.5 mph NNW7.2 kmh NNW 7.4 mph11.9 kmh 29.72 in1006.4 mb 0.00 in0.0 mm 0.00 in0.0 mm 0.02 in0.5 mm
02:21 PM 54.5°F12.5°C 34.2°F1.2°C 46% 6.0 mph NW9.7 kmh NW 11.6 mph18.7 kmh 29.72 in1006.4 mb 0.00 in0.0 mm 0.00 in0.0 mm 0.02 in0.5 mm
02:22 PM 54.3°F12.4°C 34.0°F1.1°C 46% 4.9 mph NW7.9 kmh NW 11.6 mph18.7 kmh 29.72 in1006.4 mb 0.00 in0.0 mm 0.00 in0.0 mm 0.02 in0.5 mm
02:23 PM 54.3°F12.4°C 34.0°F1.1°C 46% 2.7 mph NW4.3 kmh NW 3.1 mph5.0 kmh 29.72 in1006.4 mb 0.00 in0.0 mm 0.00 in0.0 mm 0.02 in0.5 mm
02:24 PM 54.9°F12.7°C 34.5°F1.4°C 46% 2.7 mph NW4.3 kmh NW 7.4 mph11.9 kmh 29.72 in1006.4 mb 0.00 in0.0 mm 0.00 in0.0 mm 0.02 in0.5 mm
02:25 PM 54.9°F12.7°C 34.5°F1.4°C 46% 3.4 mph NW5.5 kmh NW 7.4 mph11.9 kmh 29.72 in1006.4 mb 0.00 in0.0 mm 0.00 in0.0 mm 0.02 in0.5 mm
02:26 PM 54.7°F12.6°C 33.8°F1.0°C 45% 3.8 mph NNW6.1 kmh NNW 7.4 mph11.9 kmh 29.72 in1006.4 mb 0.00 in0.0 mm 0.00 in0.0 mm 0.02 in0.5 mm
02:27 PM 54.5°F12.5°C 33.6°F0.9°C 45% 4.5 mph NNW7.2 kmh NNW 6.3 mph10.1 kmh 29.72 in1006.4 mb 0.00 in0.0 mm 0.00 in0.0 mm 0.02 in0.5 mm
02:28 PM 54.3°F12.4°C 34.5°F1.4°C 47% 5.6 mph WNW9.0 kmh WNW 11.6 mph18.7 kmh 29.72 in1006.4 mb 0.00 in0.0 mm 0.00 in0.0 mm 0.02 in0.5 mm
02:29 PM 54.1°F12.3°C 33.3°F0.7°C 45% 6.3 mph WNW10.1 kmh WNW 11.6 mph18.7 kmh 29.72 in1006.4 mb 0.00 in0.0 mm 0.00 in0.0 mm 0.02 in0.5 mm
02:30 PM 54.1°F12.3°C 33.8°F1.0°C 46% 4.5 mph NW7.2 kmh NW 7.4 mph11.9 kmh 29.72 in1006.4 mb 0.00 in0.0 mm 0.00 in0.0 mm 0.02 in0.5 mm
02:31 PM 54.1°F12.3°C 33.8°F1.0°C 46% 3.8 mph NW6.1 kmh NW 9.6 mph15.4 kmh 29.72 in1006.4 mb 0.00 in0.0 mm 0.00 in0.0 mm 0.02 in0.5 mm
02:32 PM 54.1°F12.3°C 34.3°F1.3°C 47% 4.5 mph NW7.2 kmh NW 6.3 mph10.1 kmh 29.72 in1006.4 mb 0.00 in0.0 mm 0.00 in0.0 mm 0.02 in0.5 mm
02:33 PM 54.0°F12.2°C 33.6°F0.9°C 46% 4.5 mph NNW7.2 kmh NNW 5.4 mph8.7 kmh 29.72 in1006.4 mb 0.00 in0.0 mm 0.00 in0.0 mm 0.02 in0.5 mm
02:34 PM 54.1°F12.3°C 33.8°F1.0°C 46% 3.1 mph N5.0 kmh N 4.3 mph6.9 kmh 29.72 in1006.4 mb 0.00 in0.0 mm 0.00 in0.0 mm 0.02 in0.5 mm
02:35 PM 54.3°F12.4°C 34.0°F1.1°C 46% 2.7 mph NNW4.3 kmh NNW 3.1 mph5.0 kmh 29.72 in1006.4 mb 0.00 in0.0 mm 0.00 in0.0 mm 0.02 in0.5 mm
02:36 PM 54.7°F12.6°C 34.3°F1.3°C 46% 3.1 mph N5.0 kmh N 7.4 mph11.9 kmh 29.71 in1006.1 mb 0.00 in0.0 mm 0.00 in0.0 mm 0.02 in0.5 mm
02:37 PM 54.7°F12.6°C 34.3°F1.3°C 46% 5.4 mph NNW8.7 kmh NNW 9.6 mph15.4 kmh 29.72 in1006.4 mb 0.00 in0.0 mm 0.00 in0.0 mm 0.02 in0.5 mm
02:38 PM 54.7°F12.6°C 34.3°F1.3°C 46% 6.5 mph NW10.5 kmh NW 8.5 mph13.7 kmh 29.72 in1006.4 mb 0.00 in0.0 mm 0.00 in0.0 mm 0.02 in0.5 mm
02:39 PM 54.5°F12.5°C 33.1°F0.6°C 44% 5.8 mph NW9.3 kmh NW 7.4 mph11.9 kmh 29.72 in1006.4 mb 0.00 in0.0 mm 0.00 in0.0 mm 0.02 in0.5 mm
02:40 PM 54.3°F12.4°C 33.4°F0.8°C 45% 5.4 mph NNW8.7 kmh NNW 7.4 mph11.9 kmh 29.72 in1006.4 mb 0.00 in0.0 mm 0.00 in0.0 mm 0.02 in0.5 mm
02:41 PM 54.3°F12.4°C 33.4°F0.8°C 45% 4.9 mph N7.9 kmh N 7.4 mph11.9 kmh 29.72 in1006.4 mb 0.00 in0.0 mm 0.00 in0.0 mm 0.02 in0.5 mm
02:42 PM 54.1°F12.3°C 33.3°F0.7°C 45% 4.3 mph NNW6.9 kmh NNW 7.4 mph11.9 kmh 29.72 in1006.4 mb 0.00 in0.0 mm 0.00 in0.0 mm 0.02 in0.5 mm
02:43 PM 54.1°F12.3°C 33.3°F0.7°C 45% 3.8 mph NW6.1 kmh NW 5.4 mph8.7 kmh 29.72 in1006.4 mb 0.00 in0.0 mm 0.00 in0.0 mm 0.02 in0.5 mm
02:44 PM 54.3°F12.4°C 33.4°F0.8°C 45% 4.3 mph NNW6.9 kmh NNW 7.4 mph11.9 kmh 29.72 in1006.4 mb 0.00 in0.0 mm 0.00 in0.0 mm 0.02 in0.5 mm
02:45 PM 54.3°F12.4°C 32.9°F0.5°C 44% 5.8 mph NNW9.3 kmh NNW 9.6 mph15.4 kmh 29.72 in1006.4 mb 0.00 in0.0 mm 0.00 in0.0 mm 0.02 in0.5 mm
02:46 PM 54.1°F12.3°C 32.7°F0.4°C 44% 7.2 mph W11.6 kmh W 15.9 mph25.6 kmh 29.71 in1006.1 mb 0.00 in0.0 mm 0.00 in0.0 mm 0.02 in0.5 mm
02:47 PM 54.0°F12.2°C 32.0°F0.0°C 43% 7.6 mph NW12.2 kmh NW 15.9 mph25.6 kmh 29.72 in1006.4 mb 0.00 in0.0 mm 0.00 in0.0 mm 0.02 in0.5 mm
02:48 PM 54.0°F12.2°C 33.1°F0.6°C 45% 5.6 mph NW9.0 kmh NW 7.4 mph11.9 kmh 29.71 in1006.1 mb 0.00 in0.0 mm 0.00 in0.0 mm 0.02 in0.5 mm
02:49 PM 54.0°F12.2°C 32.5°F0.3°C 44% 3.8 mph NW6.1 kmh NW 6.3 mph10.1 kmh 29.72 in1006.4 mb 0.00 in0.0 mm 0.00 in0.0 mm 0.02 in0.5 mm
02:50 PM 54.1°F12.3°C 32.7°F0.4°C 44% 6.0 mph NW9.7 kmh NW 10.5 mph16.9 kmh 29.71 in1006.1 mb 0.00 in0.0 mm 0.00 in0.0 mm 0.02 in0.5 mm
02:51 PM 54.1°F12.3°C 32.7°F0.4°C 44% 6.5 mph NW10.5 kmh NW 9.6 mph15.4 kmh 29.72 in1006.4 mb 0.00 in0.0 mm 0.00 in0.0 mm 0.02 in0.5 mm
02:52 PM 54.0°F12.2°C 32.0°F0.0°C 43% 5.1 mph N8.2 kmh N 6.3 mph10.1 kmh 29.71 in1006.1 mb 0.00 in0.0 mm 0.00 in0.0 mm 0.02 in0.5 mm
02:53 PM 54.1°F12.3°C 32.7°F0.4°C 44% 4.9 mph NW7.9 kmh NW 6.3 mph10.1 kmh 29.72 in1006.4 mb 0.00 in0.0 mm 0.00 in0.0 mm 0.02 in0.5 mm
02:54 PM 54.0°F12.2°C 32.0°F0.0°C 43% 4.5 mph NW7.2 kmh NW 6.3 mph10.1 kmh 29.72 in1006.4 mb 0.00 in0.0 mm 0.00 in0.0 mm 0.02 in0.5 mm
02:55 PM 54.1°F12.3°C 32.2°F0.1°C 43% 4.9 mph NW7.9 kmh NW 9.6 mph15.4 kmh 29.72 in1006.4 mb 0.00 in0.0 mm 0.00 in0.0 mm 0.02 in0.5 mm
02:56 PM 54.0°F12.2°C 32.0°F0.0°C 43% 5.4 mph NNW8.7 kmh NNW 8.5 mph13.7 kmh 29.71 in1006.1 mb 0.00 in0.0 mm 0.00 in0.0 mm 0.02 in0.5 mm
02:57 PM 54.1°F12.3°C 32.2°F0.1°C 43% 4.3 mph NW6.9 kmh NW 6.3 mph10.1 kmh 29.72 in1006.4 mb 0.00 in0.0 mm 0.00 in0.0 mm 0.02 in0.5 mm
02:58 PM 54.1°F12.3°C 33.3°F0.7°C 45% 4.5 mph WSW7.2 kmh WSW 13.9 mph22.4 kmh 29.72 in1006.4 mb 0.00 in0.0 mm 0.00 in0.0 mm 0.02 in0.5 mm
02:59 PM 54.1°F12.3°C 32.7°F0.4°C 44% 6.0 mph WSW9.7 kmh WSW 13.9 mph22.4 kmh 29.71 in1006.1 mb 0.00 in0.0 mm 0.00 in0.0 mm 0.02 in0.5 mm
03:00 PM 54.1°F12.3°C 32.2°F0.1°C 43% 4.9 mph NW7.9 kmh NW 5.4 mph8.7 kmh 29.71 in1006.1 mb 0.00 in0.0 mm 0.00 in0.0 mm 0.02 in0.5 mm
03:01 PM 54.3°F12.4°C 32.4°F0.2°C 43% 3.8 mph NW6.1 kmh NW 6.3 mph10.1 kmh 29.72 in1006.4 mb 0.00 in0.0 mm 0.00 in0.0 mm 0.02 in0.5 mm
03:02 PM 54.9°F12.7°C 32.7°F0.4°C 43% 4.9 mph NNW7.9 kmh NNW 8.5 mph13.7 kmh 29.72 in1006.4 mb 0.00 in0.0 mm 0.00 in0.0 mm 0.02 in0.5 mm
03:03 PM 54.9°F12.7°C 33.4°F0.8°C 44% 5.8 mph NNW9.3 kmh NNW 8.5 mph13.7 kmh 29.72 in1006.4 mb 0.00 in0.0 mm 0.00 in0.0 mm 0.02 in0.5 mm
03:04 PM 54.9°F12.7°C 32.7°F0.4°C 43% 6.5 mph WNW10.5 kmh WNW 12.8 mph20.6 kmh 29.71 in1006.1 mb 0.00 in0.0 mm 0.00 in0.0 mm 0.02 in0.5 mm
03:05 PM 54.7°F12.6°C 32.0°F0.0°C 42% 6.5 mph NNW10.5 kmh NNW 12.8 mph20.6 kmh 29.71 in1006.1 mb 0.00 in0.0 mm 0.00 in0.0 mm 0.02 in0.5 mm
03:06 PM 54.7°F12.6°C 32.5°F0.3°C 43% 4.9 mph N7.9 kmh N 5.4 mph8.7 kmh 29.72 in1006.4 mb 0.00 in0.0 mm 0.00 in0.0 mm 0.02 in0.5 mm
03:07 PM 54.7°F12.6°C 32.5°F0.3°C 43% 5.1 mph W8.2 kmh W 11.6 mph18.7 kmh 29.71 in1006.1 mb 0.00 in0.0 mm 0.00 in0.0 mm 0.02 in0.5 mm
03:08 PM 54.9°F12.7°C 32.7°F0.4°C 43% 5.4 mph NW8.7 kmh NW 7.4 mph11.9 kmh 29.71 in1006.1 mb 0.00 in0.0 mm 0.00 in0.0 mm 0.02 in0.5 mm
03:09 PM 54.9°F12.7°C 32.7°F0.4°C 43% 5.4 mph N8.7 kmh N 7.4 mph11.9 kmh 29.71 in1006.1 mb 0.00 in0.0 mm 0.00 in0.0 mm 0.02 in0.5 mm
03:10 PM 54.9°F12.7°C 32.2°F0.1°C 42% 6.3 mph NNW10.1 kmh NNW 9.6 mph15.4 kmh 29.72 in1006.4 mb 0.00 in0.0 mm 0.00 in0.0 mm 0.02 in0.5 mm
03:11 PM 54.7°F12.6°C 32.0°F0.0°C 42% 6.3 mph NNW10.1 kmh NNW 8.5 mph13.7 kmh 29.71 in1006.1 mb 0.00 in0.0 mm 0.00 in0.0 mm 0.02 in0.5 mm
03:12 PM 54.5°F12.5°C 31.8°F-0.1°C 42% 6.3 mph NW10.1 kmh NW 9.6 mph15.4 kmh 29.72 in1006.4 mb 0.00 in0.0 mm 0.00 in0.0 mm 0.02 in0.5 mm
03:13 PM 54.1°F12.3°C 31.5°F-0.3°C 42% 6.0 mph NNW9.7 kmh NNW 7.4 mph11.9 kmh 29.72 in1006.4 mb 0.00 in0.0 mm 0.00 in0.0 mm 0.02 in0.5 mm
03:14 PM 54.0°F12.2°C 31.5°F-0.3°C 42% 6.5 mph NNW10.5 kmh NNW 9.6 mph15.4 kmh 29.72 in1006.4 mb 0.00 in0.0 mm 0.00 in0.0 mm 0.02 in0.5 mm
03:15 PM 54.0°F12.2°C 31.5°F-0.3°C 42% 5.4 mph NNW8.7 kmh NNW 5.4 mph8.7 kmh 29.72 in1006.4 mb 0.00 in0.0 mm 0.00 in0.0 mm 0.02 in0.5 mm
03:16 PM 54.1°F12.3°C 32.2°F0.1°C 43% 3.1 mph N5.0 kmh N 3.1 mph5.0 kmh 29.72 in1006.4 mb 0.00 in0.0 mm 0.00 in0.0 mm 0.02 in0.5 mm
03:17 PM 54.3°F12.4°C 32.9°F0.5°C 44% 3.1 mph NNW5.0 kmh NNW 5.4 mph8.7 kmh 29.72 in1006.4 mb 0.00 in0.0 mm 0.00 in0.0 mm 0.02 in0.5 mm
03:18 PM 54.9°F12.7°C 33.4°F0.8°C 44% 3.4 mph NNW5.5 kmh NNW 4.3 mph6.9 kmh 29.72 in1006.4 mb 0.00 in0.0 mm 0.00 in0.0 mm 0.02 in0.5 mm
03:19 PM 54.9°F12.7°C 32.7°F0.4°C 43% 4.3 mph NNW6.9 kmh NNW 7.4 mph11.9 kmh 29.72 in1006.4 mb 0.00 in0.0 mm 0.00 in0.0 mm 0.02 in0.5 mm
03:20 PM 54.9°F12.7°C 32.2°F0.1°C 42% 4.7 mph NW7.6 kmh NW 7.4 mph11.9 kmh 29.72 in1006.4 mb 0.00 in0.0 mm 0.00 in0.0 mm 0.02 in0.5 mm
03:21 PM 54.7°F12.6°C 32.0°F0.0°C 42% 5.4 mph NW8.7 kmh NW 8.5 mph13.7 kmh 29.72 in1006.4 mb 0.00 in0.0 mm 0.00 in0.0 mm 0.02 in0.5 mm
03:22 PM 54.7°F12.6°C 32.0°F0.0°C 42% 5.8 mph NW9.3 kmh NW 9.6 mph15.4 kmh 29.72 in1006.4 mb 0.00 in0.0 mm 0.00 in0.0 mm 0.02 in0.5 mm
03:23 PM 54.3°F12.4°C 31.1°F-0.5°C 41% 6.5 mph 10.5 kmh 14.8 mph23.8 kmh 29.72 in1006.4 mb 0.00 in0.0 mm 0.00 in0.0 mm 0.02 in0.5 mm
03:24 PM 54.3°F12.4°C 31.1°F-0.5°C 41% 5.8 mph N9.3 kmh N 9.6 mph15.4 kmh 29.72 in1006.4 mb 0.00 in0.0 mm 0.00 in0.0 mm 0.02 in0.5 mm
03:25 PM 54.3°F12.4°C 31.1°F-0.5°C 41% 5.1 mph N8.2 kmh N 8.5 mph13.7 kmh 29.72 in1006.4 mb 0.00 in0.0 mm 0.00 in0.0 mm 0.02 in0.5 mm
03:26 PM 54.7°F12.6°C 32.0°F0.0°C 42% 4.5 mph NNW7.2 kmh NNW 5.4 mph8.7 kmh 29.72 in1006.4 mb 0.00 in0.0 mm 0.00 in0.0 mm 0.02 in0.5 mm
03:27 PM 54.9°F12.7°C 32.2°F0.1°C 42% 3.8 mph NW6.1 kmh NW 5.4 mph8.7 kmh 29.72 in1006.4 mb 0.00 in0.0 mm 0.00 in0.0 mm 0.02 in0.5 mm
03:28 PM 54.9°F12.7°C 32.2°F0.1°C 42% 3.8 mph NNW6.1 kmh NNW 5.4 mph8.7 kmh 29.72 in1006.4 mb 0.00 in0.0 mm 0.00 in0.0 mm 0.02 in0.5 mm
03:29 PM 54.7°F12.6°C 32.0°F0.0°C 42% 6.3 mph NNW10.1 kmh NNW 13.9 mph22.4 kmh 29.72 in1006.4 mb 0.00 in0.0 mm 0.00 in0.0 mm 0.02 in0.5 mm
03:30 PM 54.3°F12.4°C 31.6°F-0.2°C 42% 7.2 mph NW11.6 kmh NW 10.5 mph16.9 kmh 29.72 in1006.4 mb 0.00 in0.0 mm 0.00 in0.0 mm 0.02 in0.5 mm
03:31 PM 54.1°F12.3°C 31.5°F-0.3°C 42% 5.6 mph NNW9.0 kmh NNW 7.4 mph11.9 kmh 29.72 in1006.4 mb 0.00 in0.0 mm 0.00 in0.0 mm 0.02 in0.5 mm
03:32 PM 54.0°F12.2°C 30.7°F-0.7°C 41% 4.0 mph WSW6.4 kmh WSW 6.3 mph10.1 kmh 29.72 in1006.4 mb 0.00 in0.0 mm 0.00 in0.0 mm 0.02 in0.5 mm
03:33 PM 54.0°F12.2°C 30.7°F-0.7°C 41% 2.7 mph NW4.3 kmh NW 4.3 mph6.9 kmh 29.72 in1006.4 mb 0.00 in0.0 mm 0.00 in0.0 mm 0.02 in0.5 mm
03:34 PM 54.0°F12.2°C 32.0°F0.0°C 43% 3.6 mph NNW5.8 kmh NNW 6.3 mph10.1 kmh 29.72 in1006.4 mb 0.00 in0.0 mm 0.00 in0.0 mm 0.02 in0.5 mm
03:35 PM 53.8°F12.1°C 31.8°F-0.1°C 43% 4.5 mph NNW7.2 kmh NNW 6.3 mph10.1 kmh 29.72 in1006.4 mb 0.00 in0.0 mm 0.00 in0.0 mm 0.02 in0.5 mm
03:36 PM 53.8°F12.1°C 31.8°F-0.1°C 43% 4.5 mph NNW7.2 kmh NNW 6.3 mph10.1 kmh 29.72 in1006.4 mb 0.00 in0.0 mm 0.00 in0.0 mm 0.02 in0.5 mm
03:37 PM 53.6°F12.0°C 31.1°F-0.5°C 42% 4.9 mph NW7.9 kmh NW 6.3 mph10.1 kmh 29.72 in1006.4 mb 0.00 in0.0 mm 0.00 in0.0 mm 0.02 in0.5 mm
03:38 PM 53.4°F11.9°C 30.9°F-0.6°C 42% 5.1 mph NW8.2 kmh NW 6.3 mph10.1 kmh 29.72 in1006.4 mb 0.00 in0.0 mm 0.00 in0.0 mm 0.02 in0.5 mm
03:39 PM 53.2°F11.8°C 30.7°F-0.7°C 42% 4.7 mph NW7.6 kmh NW 5.4 mph8.7 kmh 29.72 in1006.4 mb 0.00 in0.0 mm 0.00 in0.0 mm 0.02 in0.5 mm
03:40 PM 53.1°F11.7°C 31.6°F-0.2°C 44% 5.1 mph WNW8.2 kmh WNW 11.6 mph18.7 kmh 29.72 in1006.4 mb 0.00 in0.0 mm 0.00 in0.0 mm 0.02 in0.5 mm
03:41 PM 52.9°F11.6°C 30.9°F-0.6°C 43% 4.9 mph WNW7.9 kmh WNW 7.4 mph11.9 kmh 29.72 in1006.4 mb 0.00 in0.0 mm 0.00 in0.0 mm 0.02 in0.5 mm
03:42 PM 52.9°F11.6°C 30.9°F-0.6°C 43% 4.0 mph NW6.4 kmh NW 5.4 mph8.7 kmh 29.72 in1006.4 mb 0.00 in0.0 mm 0.00 in0.0 mm 0.02 in0.5 mm
03:43 PM 52.9°F11.6°C 30.9°F-0.6°C 43% 2.9 mph NW4.7 kmh NW 3.1 mph5.0 kmh 29.72 in1006.4 mb 0.00 in0.0 mm 0.00 in0.0 mm 0.02 in0.5 mm
03:44 PM 53.1°F11.7°C 32.4°F0.2°C 45% 2.2 mph N3.5 kmh N 4.3 mph6.9 kmh 29.72 in1006.4 mb 0.00 in0.0 mm 0.00 in0.0 mm 0.02 in0.5 mm
03:45 PM 53.6°F12.0°C 32.7°F0.4°C 45% 2.7 mph NW4.3 kmh NW 3.1 mph5.0 kmh 29.72 in1006.4 mb 0.00 in0.0 mm 0.00 in0.0 mm 0.02 in0.5 mm
03:46 PM 54.1°F12.3°C 33.3°F0.7°C 45% 3.1 mph NW5.0 kmh NW 4.3 mph6.9 kmh 29.72 in1006.4 mb 0.00 in0.0 mm 0.00 in0.0 mm 0.02 in0.5 mm
03:47 PM 54.3°F12.4°C 34.0°F1.1°C 46% 3.6 mph WNW5.8 kmh WNW 5.4 mph8.7 kmh 29.72 in1006.4 mb 0.00 in0.0 mm 0.00 in0.0 mm 0.02 in0.5 mm
03:48 PM 54.7°F12.6°C 33.3°F0.7°C 44% 3.4 mph W5.5 kmh W 5.4 mph8.7 kmh 29.72 in1006.4 mb 0.00 in0.0 mm 0.00 in0.0 mm 0.02 in0.5 mm
03:49 PM 54.9°F12.7°C 33.4°F0.8°C 44% 2.5 mph NNW4.0 kmh NNW 3.1 mph5.0 kmh 29.72 in1006.4 mb 0.00 in0.0 mm 0.00 in0.0 mm 0.02 in0.5 mm
03:50 PM 55.0°F12.8°C 33.4°F0.8°C 44% 2.9 mph N4.7 kmh N 5.4 mph8.7 kmh 29.72 in1006.4 mb 0.00 in0.0 mm 0.00 in0.0 mm 0.02 in0.5 mm
03:51 PM 55.0°F12.8°C 33.4°F0.8°C 44% 2.7 mph WSW4.3 kmh WSW 5.4 mph8.7 kmh 29.72 in1006.4 mb 0.00 in0.0 mm 0.00 in0.0 mm 0.02 in0.5 mm
03:52 PM 55.0°F12.8°C 33.4°F0.8°C 44% 2.9 mph WNW4.7 kmh WNW 6.3 mph10.1 kmh 29.72 in1006.4 mb 0.00 in0.0 mm 0.00 in0.0 mm 0.02 in0.5 mm
03:53 PM 55.0°F12.8°C 33.4°F0.8°C 44% 4.7 mph NW7.6 kmh NW 8.5 mph13.7 kmh 29.72 in1006.4 mb 0.00 in0.0 mm 0.00 in0.0 mm 0.02 in0.5 mm
03:54 PM 55.0°F12.8°C 32.9°F0.5°C 43% 5.6 mph NNW9.0 kmh NNW 9.6 mph15.4 kmh 29.72 in1006.4 mb 0.00 in0.0 mm 0.00 in0.0 mm 0.02 in0.5 mm
03:55 PM 55.0°F12.8°C 32.9°F0.5°C 43% 5.4 mph NW8.7 kmh NW 7.4 mph11.9 kmh 29.72 in1006.4 mb 0.00 in0.0 mm 0.00 in0.0 mm 0.02 in0.5 mm
03:56 PM 55.0°F12.8°C 32.9°F0.5°C 43% 4.5 mph NNW7.2 kmh NNW 10.5 mph16.9 kmh 29.72 in1006.4 mb 0.00 in0.0 mm 0.00 in0.0 mm 0.02 in0.5 mm
03:57 PM 55.0°F12.8°C 32.9°F0.5°C 43% 3.8 mph NW6.1 kmh NW 10.5 mph16.9 kmh 29.72 in1006.4 mb 0.00 in0.0 mm 0.00 in0.0 mm 0.02 in0.5 mm
03:58 PM 55.0°F12.8°C 32.9°F0.5°C 43% 4.3 mph NW6.9 kmh NW 8.5 mph13.7 kmh 29.72 in1006.4 mb 0.00 in0.0 mm 0.00 in0.0 mm 0.02 in0.5 mm
03:59 PM 54.9°F12.7°C 31.6°F-0.2°C 41% 4.9 mph NW7.9 kmh NW 8.5 mph13.7 kmh 29.72 in1006.4 mb 0.00 in0.0 mm 0.00 in0.0 mm 0.02 in0.5 mm
04:00 PM 54.7°F12.6°C 31.5°F-0.3°C 41% 5.6 mph NNW9.0 kmh NNW 13.9 mph22.4 kmh 29.72 in1006.4 mb 0.00 in0.0 mm 0.00 in0.0 mm 0.02 in0.5 mm
04:01 PM 54.7°F12.6°C 32.5°F0.3°C 43% 4.9 mph NW7.9 kmh NW 5.4 mph8.7 kmh 29.72 in1006.4 mb 0.00 in0.0 mm 0.00 in0.0 mm 0.02 in0.5 mm
04:02 PM 54.7°F12.6°C 32.5°F0.3°C 43% 3.6 mph NNW5.8 kmh NNW 6.3 mph10.1 kmh 29.72 in1006.4 mb 0.00 in0.0 mm 0.00 in0.0 mm 0.02 in0.5 mm
04:03 PM 54.9°F12.7°C 32.2°F0.1°C 42% 3.8 mph W6.1 kmh W 6.3 mph10.1 kmh 29.72 in1006.4 mb 0.00 in0.0 mm 0.00 in0.0 mm 0.02 in0.5 mm
04:04 PM 54.9°F12.7°C 32.2°F0.1°C 42% 3.6 mph NNW5.8 kmh NNW 6.3 mph10.1 kmh 29.72 in1006.4 mb 0.00 in0.0 mm 0.00 in0.0 mm 0.02 in0.5 mm
04:05 PM 54.9°F12.7°C 32.2°F0.1°C 42% 3.8 mph NNW6.1 kmh NNW 6.3 mph10.1 kmh 29.72 in1006.4 mb 0.00 in0.0 mm 0.00 in0.0 mm 0.02 in0.5 mm
04:06 PM 54.9°F12.7°C 32.2°F0.1°C 42% 4.7 mph NW7.6 kmh NW 7.4 mph11.9 kmh 29.72 in1006.4 mb 0.00 in0.0 mm 0.00 in0.0 mm 0.02 in0.5 mm
04:07 PM 54.9°F12.7°C 31.6°F-0.2°C 41% 4.5 mph NNW7.2 kmh NNW 9.6 mph15.4 kmh 29.72 in1006.4 mb 0.00 in0.0 mm 0.00 in0.0 mm 0.02 in0.5 mm
04:08 PM 54.7°F12.6°C 31.5°F-0.3°C 41% 4.0 mph NW6.4 kmh NW 5.4 mph8.7 kmh 29.72 in1006.4 mb 0.00 in0.0 mm 0.00 in0.0 mm 0.02 in0.5 mm
04:09 PM 54.7°F12.6°C 32.0°F0.0°C 42% 6.0 mph NW9.7 kmh NW 13.9 mph22.4 kmh 29.72 in1006.4 mb 0.00 in0.0 mm 0.00 in0.0 mm 0.02 in0.5 mm
04:10 PM 54.3°F12.4°C 31.6°F-0.2°C 42% 6.3 mph N10.1 kmh N 11.6 mph18.7 kmh 29.72 in1006.4 mb 0.00 in0.0 mm 0.00 in0.0 mm 0.02 in0.5 mm
04:11 PM 54.3°F12.4°C 31.6°F-0.2°C 42% 4.5 mph N7.2 kmh N 8.5 mph13.7 kmh 29.72 in1006.4 mb 0.00 in0.0 mm 0.00 in0.0 mm 0.02 in0.5 mm
04:12 PM 54.5°F12.5°C 31.8°F-0.1°C 42% 3.8 mph 6.1 kmh 7.4 mph11.9 kmh 29.72 in1006.4 mb 0.00 in0.0 mm 0.00 in0.0 mm 0.02 in0.5 mm
04:13 PM 54.7°F12.6°C 31.5°F-0.3°C 41% 3.8 mph NW6.1 kmh NW 6.3 mph10.1 kmh 29.72 in1006.4 mb 0.00 in0.0 mm 0.00 in0.0 mm 0.02 in0.5 mm
04:14 PM 54.9°F12.7°C 32.2°F0.1°C 42% 5.6 mph NW9.0 kmh NW 11.6 mph18.7 kmh 29.72 in1006.4 mb 0.00 in0.0 mm 0.00 in0.0 mm 0.02 in0.5 mm
04:15 PM 54.7°F12.6°C 32.0°F0.0°C 42% 6.3 mph NW10.1 kmh NW 11.6 mph18.7 kmh 29.72 in1006.4 mb 0.00 in0.0 mm 0.00 in0.0 mm 0.02 in0.5 mm
04:16 PM 54.3°F12.4°C 29.8°F-1.2°C 39% 5.4 mph NW8.7 kmh NW 8.5 mph13.7 kmh 29.72 in1006.4 mb 0.00 in0.0 mm 0.00 in0.0 mm 0.02 in0.5 mm
04:17 PM 54.3°F12.4°C 31.6°F-0.2°C 42% 3.6 mph NNW5.8 kmh NNW 4.3 mph6.9 kmh 29.73 in1006.8 mb 0.00 in0.0 mm 0.00 in0.0 mm 0.02 in0.5 mm
04:18 PM 54.3°F12.4°C 31.6°F-0.2°C 42% 2.9 mph NW4.7 kmh NW 4.3 mph6.9 kmh 29.72 in1006.4 mb 0.00 in0.0 mm 0.00 in0.0 mm 0.02 in0.5 mm
04:19 PM 54.7°F12.6°C 32.0°F0.0°C 42% 3.4 mph NW5.5 kmh NW 7.4 mph11.9 kmh 29.72 in1006.4 mb 0.00 in0.0 mm 0.00 in0.0 mm 0.02 in0.5 mm
04:20 PM 54.9°F12.7°C 32.2°F0.1°C 42% 4.7 mph NE7.6 kmh NE 7.4 mph11.9 kmh 29.73 in1006.8 mb 0.00 in0.0 mm 0.00 in0.0 mm 0.02 in0.5 mm
04:21 PM 54.9°F12.7°C 30.9°F-0.6°C 40% 5.4 mph NNW8.7 kmh NNW 7.4 mph11.9 kmh 29.73 in1006.8 mb 0.00 in0.0 mm 0.00 in0.0 mm 0.02 in0.5 mm
04:22 PM 54.9°F12.7°C 30.9°F-0.6°C 40% 4.9 mph NW7.9 kmh NW 5.4 mph8.7 kmh 29.73 in1006.8 mb 0.00 in0.0 mm 0.00 in0.0 mm 0.02 in0.5 mm
04:23 PM 54.9°F12.7°C 30.9°F-0.6°C 40% 3.1 mph WNW5.0 kmh WNW 4.3 mph6.9 kmh 29.73 in1006.8 mb 0.00 in0.0 mm 0.00 in0.0 mm 0.02 in0.5 mm
04:24 PM 54.9°F12.7°C 30.4°F-0.9°C 39% 3.1 mph NE5.0 kmh NE 4.3 mph6.9 kmh 29.73 in1006.8 mb 0.00 in0.0 mm 0.00 in0.0 mm 0.02 in0.5 mm
04:25 PM 55.0°F12.8°C 30.6°F-0.8°C 39% 3.6 mph NE5.8 kmh NE 6.3 mph10.1 kmh 29.73 in1006.8 mb 0.00 in0.0 mm 0.00 in0.0 mm 0.02 in0.5 mm
04:26 PM 54.9°F12.7°C 29.7°F-1.3°C 38% 4.5 mph NNW7.2 kmh NNW 5.4 mph8.7 kmh 29.73 in1006.8 mb 0.00 in0.0 mm 0.00 in0.0 mm 0.02 in0.5 mm
04:27 PM 54.9°F12.7°C 29.7°F-1.3°C 38% 4.7 mph NW7.6 kmh NW 6.3 mph10.1 kmh 29.73 in1006.8 mb 0.00 in0.0 mm 0.00 in0.0 mm 0.02 in0.5 mm
04:28 PM 54.7°F12.6°C 29.5°F-1.4°C 38% 4.7 mph NW7.6 kmh NW 6.3 mph10.1 kmh 29.73 in1006.8 mb 0.00 in0.0 mm 0.00 in0.0 mm 0.02 in0.5 mm
04:29 PM 54.5°F12.5°C 30.0°F-1.1°C 39% 4.3 mph WNW6.9 kmh WNW 5.4 mph8.7 kmh 29.73 in1006.8 mb 0.00 in0.0 mm 0.00 in0.0 mm 0.02 in0.5 mm
04:30 PM 54.5°F12.5°C 30.0°F-1.1°C 39% 3.6 mph NNW5.8 kmh NNW 6.3 mph10.1 kmh 29.73 in1006.8 mb 0.00 in0.0 mm 0.00 in0.0 mm 0.02 in0.5 mm
04:31 PM 54.5°F12.5°C 31.3°F-0.4°C 41% 2.2 mph WNW3.5 kmh WNW 3.1 mph5.0 kmh 29.73 in1006.8 mb 0.00 in0.0 mm 0.00 in0.0 mm 0.02 in0.5 mm
04:32 PM 54.5°F12.5°C 31.3°F-0.4°C 41% 3.4 mph NNW5.5 kmh NNW 8.5 mph13.7 kmh 29.73 in1006.8 mb 0.00 in0.0 mm 0.00 in0.0 mm 0.02 in0.5 mm
04:33 PM 54.3°F12.4°C 29.8°F-1.2°C 39% 5.6 mph NNW9.0 kmh NNW 7.4 mph11.9 kmh 29.73 in1006.8 mb 0.00 in0.0 mm 0.00 in0.0 mm 0.02 in0.5 mm
04:34 PM 54.1°F12.3°C 29.7°F-1.3°C 39% 5.6 mph NW9.0 kmh NW 9.6 mph15.4 kmh 29.73 in1006.8 mb 0.00 in0.0 mm 0.00 in0.0 mm 0.02 in0.5 mm
04:35 PM 53.8°F12.1°C 29.5°F-1.4°C 39% 4.5 mph NW7.2 kmh NW 4.3 mph6.9 kmh 29.73 in1006.8 mb 0.00 in0.0 mm 0.00 in0.0 mm 0.02 in0.5 mm
04:36 PM 53.6°F12.0°C 29.8°F-1.2°C 40% 4.5 mph NNW7.2 kmh NNW 7.4 mph11.9 kmh 29.73 in1006.8 mb 0.00 in0.0 mm 0.00 in0.0 mm 0.02 in0.5 mm
04:37 PM 53.4°F11.9°C 29.1°F-1.6°C 39% 5.6 mph NNW9.0 kmh NNW 7.4 mph11.9 kmh 29.73 in1006.8 mb 0.00 in0.0 mm 0.00 in0.0 mm 0.02 in0.5 mm
04:38 PM 53.2°F11.8°C 28.9°F-1.7°C 39% 4.3 mph WNW6.9 kmh WNW 5.4 mph8.7 kmh 29.73 in1006.8 mb 0.00 in0.0 mm 0.00 in0.0 mm 0.02 in0.5 mm
04:39 PM 53.1°F11.7°C 29.3°F-1.5°C 40% 4.0 mph NW6.4 kmh NW 6.3 mph10.1 kmh 29.73 in1006.8 mb 0.00 in0.0 mm 0.00 in0.0 mm 0.02 in0.5 mm
04:40 PM 53.1°F11.7°C 29.3°F-1.5°C 40% 3.4 mph NW5.5 kmh NW 4.3 mph6.9 kmh 29.73 in1006.8 mb 0.01 in0.3 mm 0.60 in15.2 mm 0.03 in0.8 mm
04:41 PM 53.2°F11.8°C 30.7°F-0.7°C 42% 3.1 mph NW5.0 kmh NW 5.4 mph8.7 kmh 29.73 in1006.8 mb 0.01 in0.3 mm 0.00 in0.0 mm 0.03 in0.8 mm
04:42 PM 53.4°F11.9°C 30.9°F-0.6°C 42% 4.3 mph NW6.9 kmh NW 6.3 mph10.1 kmh 29.73 in1006.8 mb 0.01 in0.3 mm 0.00 in0.0 mm 0.03 in0.8 mm
04:43 PM 53.6°F12.0°C 31.1°F-0.5°C 42% 4.7 mph NW7.6 kmh NW 7.4 mph11.9 kmh 29.73 in1006.8 mb 0.01 in0.3 mm 0.00 in0.0 mm 0.03 in0.8 mm
04:44 PM 53.6°F12.0°C 30.4°F-0.9°C 41% 4.3 mph NNW6.9 kmh NNW 6.3 mph10.1 kmh 29.73 in1006.8 mb 0.01 in0.3 mm 0.00 in0.0 mm 0.03 in0.8 mm
04:45 PM 53.4°F11.9°C 30.4°F-0.9°C 41% 3.4 mph WNW5.5 kmh WNW 5.4 mph8.7 kmh 29.73 in1006.8 mb 0.01 in0.3 mm 0.00 in0.0 mm 0.03 in0.8 mm
04:46 PM 53.4°F11.9°C 30.4°F-0.9°C 41% 2.7 mph NW4.3 kmh NW 4.3 mph6.9 kmh 29.73 in1006.8 mb 0.01 in0.3 mm 0.00 in0.0 mm 0.03 in0.8 mm
04:47 PM 53.4°F11.9°C 30.4°F-0.9°C 41% 2.7 mph NW4.3 kmh NW 4.3 mph6.9 kmh 29.73 in1006.8 mb 0.01 in0.3 mm 0.00 in0.0 mm 0.03 in0.8 mm
04:48 PM 53.8°F12.1°C 31.3°F-0.4°C 42% 3.4 mph N5.5 kmh N 4.3 mph6.9 kmh 29.73 in1006.8 mb 0.01 in0.3 mm 0.00 in0.0 mm 0.03 in0.8 mm
04:49 PM 54.1°F12.3°C 31.5°F-0.3°C 42% 4.0 mph NNW6.4 kmh NNW 9.6 mph15.4 kmh 29.73 in1006.8 mb 0.01 in0.3 mm 0.00 in0.0 mm 0.03 in0.8 mm
04:50 PM 54.3°F12.4°C 31.1°F-0.5°C 41% 3.8 mph W6.1 kmh W 7.4 mph11.9 kmh 29.73 in1006.8 mb 0.01 in0.3 mm 0.00 in0.0 mm 0.03 in0.8 mm
04:51 PM 54.5°F12.5°C 31.3°F-0.4°C 41% 2.7 mph NW4.3 kmh NW 4.3 mph6.9 kmh 29.73 in1006.8 mb 0.01 in0.3 mm 0.00 in0.0 mm 0.03 in0.8 mm
04:52 PM 54.9°F12.7°C 31.6°F-0.2°C 41% 2.9 mph NNW4.7 kmh NNW 6.3 mph10.1 kmh 29.73 in1006.8 mb 0.01 in0.3 mm 0.00 in0.0 mm 0.03 in0.8 mm
04:53 PM 55.0°F12.8°C 31.8°F-0.1°C 41% 4.5 mph NNW7.2 kmh NNW 7.4 mph11.9 kmh 29.73 in1006.8 mb 0.01 in0.3 mm 0.00 in0.0 mm 0.03 in0.8 mm
04:54 PM 55.2°F12.9°C 31.3°F-0.4°C 40% 4.7 mph NW7.6 kmh NW 5.4 mph8.7 kmh 29.73 in1006.8 mb 0.01 in0.3 mm 0.00 in0.0 mm 0.03 in0.8 mm
04:55 PM 55.2°F12.9°C 30.7°F-0.7°C 39% 5.1 mph NW8.2 kmh NW 8.5 mph13.7 kmh 29.74 in1007.1 mb 0.01 in0.3 mm 0.00 in0.0 mm 0.03 in0.8 mm
04:56 PM 55.2°F12.9°C 30.7°F-0.7°C 39% 4.7 mph NNW7.6 kmh NNW 5.4 mph8.7 kmh 29.73 in1006.8 mb 0.01 in0.3 mm 0.00 in0.0 mm 0.03 in0.8 mm
04:57 PM 55.2°F12.9°C 30.7°F-0.7°C 39% 4.0 mph NW6.4 kmh NW 6.3 mph10.1 kmh 29.73 in1006.8 mb 0.01 in0.3 mm 0.00 in0.0 mm 0.03 in0.8 mm
04:58 PM 55.0°F12.8°C 31.1°F-0.5°C 40% 4.0 mph WNW6.4 kmh WNW 6.3 mph10.1 kmh 29.73 in1006.8 mb 0.01 in0.3 mm 0.00 in0.0 mm 0.03 in0.8 mm
04:59 PM 55.0°F12.8°C 29.8°F-1.2°C 38% 3.6 mph NW5.8 kmh NW 4.3 mph6.9 kmh 29.73 in1006.8 mb 0.01 in0.3 mm 0.00 in0.0 mm 0.03 in0.8 mm
05:00 PM 55.0°F12.8°C 32.9°F0.5°C 43% 3.4 mph NW5.5 kmh NW 5.4 mph8.7 kmh 29.73 in1006.8 mb 0.01 in0.3 mm 0.00 in0.0 mm 0.03 in0.8 mm
05:01 PM 55.2°F12.9°C 32.0°F0.0°C 41% 3.6 mph N5.8 kmh N 4.3 mph6.9 kmh 29.73 in1006.8 mb 0.01 in0.3 mm 0.00 in0.0 mm 0.03 in0.8 mm
05:02 PM 55.4°F13.0°C 31.5°F-0.3°C 40% 3.8 mph NW6.1 kmh NW 4.3 mph6.9 kmh 29.74 in1007.1 mb 0.01 in0.3 mm 0.00 in0.0 mm 0.03 in0.8 mm
05:03 PM 55.2°F12.9°C 30.7°F-0.7°C 39% 3.6 mph NW5.8 kmh NW 4.3 mph6.9 kmh 29.74 in1007.1 mb 0.01 in0.3 mm 0.00 in0.0 mm 0.03 in0.8 mm
05:04 PM 55.0°F12.8°C 30.6°F-0.8°C 39% 3.8 mph NW6.1 kmh NW 8.5 mph13.7 kmh 29.74 in1007.1 mb 0.01 in0.3 mm 0.00 in0.0 mm 0.03 in0.8 mm
05:05 PM 54.7°F12.6°C 29.5°F-1.4°C 38% 4.5 mph N7.2 kmh N 8.5 mph13.7 kmh 29.74 in1007.1 mb 0.01 in0.3 mm 0.00 in0.0 mm 0.03 in0.8 mm
05:06 PM 54.3°F12.4°C 29.3°F-1.5°C 38% 4.0 mph NW6.4 kmh NW 6.3 mph10.1 kmh 29.74 in1007.1 mb 0.01 in0.3 mm 0.00 in0.0 mm 0.03 in0.8 mm
05:07 PM 54.0°F12.2°C 28.9°F-1.7°C 38% 3.8 mph NW6.1 kmh NW 8.5 mph13.7 kmh 29.74 in1007.1 mb 0.01 in0.3 mm 0.00 in0.0 mm 0.03 in0.8 mm
05:08 PM 53.8°F12.1°C 28.8°F-1.8°C 38% 4.7 mph WSW7.6 kmh WSW 8.5 mph13.7 kmh 29.74 in1007.1 mb 0.01 in0.3 mm 0.00 in0.0 mm 0.03 in0.8 mm
05:09 PM 53.4°F11.9°C 28.4°F-2.0°C 38% 5.6 mph NNE9.0 kmh NNE 11.6 mph18.7 kmh 29.74 in1007.1 mb 0.01 in0.3 mm 0.00 in0.0 mm 0.03 in0.8 mm
05:11 PM 53.2°F11.8°C 27.7°F-2.4°C 37% 4.3 mph NW6.9 kmh NW 4.3 mph6.9 kmh 29.74 in1007.1 mb 0.01 in0.3 mm 0.00 in0.0 mm 0.03 in0.8 mm
05:12 PM 53.1°F11.7°C 28.8°F-1.8°C 39% 2.9 mph NNW4.7 kmh NNW 5.4 mph8.7 kmh 29.74 in1007.1 mb 0.01 in0.3 mm 0.00 in0.0 mm 0.03 in0.8 mm
05:13 PM 52.9°F11.6°C 28.0°F-2.2°C 38% 3.4 mph NNW5.5 kmh NNW 4.3 mph6.9 kmh 29.74 in1007.1 mb 0.01 in0.3 mm 0.00 in0.0 mm 0.03 in0.8 mm
05:14 PM 52.9°F11.6°C 28.0°F-2.2°C 38% 3.4 mph NW5.5 kmh NW 4.3 mph6.9 kmh 29.74 in1007.1 mb 0.01 in0.3 mm 0.00 in0.0 mm 0.03 in0.8 mm
05:15 PM 52.5°F11.4°C 27.7°F-2.4°C 38% 3.1 mph NW5.0 kmh NW 5.4 mph8.7 kmh 29.74 in1007.1 mb 0.01 in0.3 mm 0.00 in0.0 mm 0.03 in0.8 mm
05:16 PM 52.5°F11.4°C 27.7°F-2.4°C 38% 2.9 mph NNW4.7 kmh NNW 5.4 mph8.7 kmh 29.74 in1007.1 mb 0.01 in0.3 mm 0.00 in0.0 mm 0.03 in0.8 mm
05:17 PM 52.3°F11.3°C 27.5°F-2.5°C 38% 2.7 mph NW4.3 kmh NW 5.4 mph8.7 kmh 29.74 in1007.1 mb 0.01 in0.3 mm 0.00 in0.0 mm 0.03 in0.8 mm
05:18 PM 52.3°F11.3°C 27.5°F-2.5°C 38% 2.7 mph NW4.3 kmh NW 5.4 mph8.7 kmh 29.74 in1007.1 mb 0.01 in0.3 mm 0.00 in0.0 mm 0.03 in0.8 mm
05:19 PM 52.2°F11.2°C 27.3°F-2.6°C 38% 2.5 mph NW4.0 kmh NW 3.1 mph5.0 kmh 29.74 in1007.1 mb 0.01 in0.3 mm 0.00 in0.0 mm 0.03 in0.8 mm
05:20 PM 52.2°F11.2°C 26.6°F-3.0°C 37% 2.2 mph NW3.5 kmh NW 4.3 mph6.9 kmh 29.74 in1007.1 mb 0.01 in0.3 mm 0.00 in0.0 mm 0.03 in0.8 mm
05:21 PM 52.2°F11.2°C 27.3°F-2.6°C 38% 3.1 mph NW5.0 kmh NW 5.4 mph8.7 kmh 29.75 in1007.5 mb 0.01 in0.3 mm 0.00 in0.0 mm 0.03 in0.8 mm
05:22 PM 52.0°F11.1°C 27.1°F-2.7°C 38% 3.4 mph NNE5.5 kmh NNE 4.3 mph6.9 kmh 29.75 in1007.5 mb 0.01 in0.3 mm 0.00 in0.0 mm 0.03 in0.8 mm
05:23 PM 52.0°F11.1°C 27.1°F-2.7°C 38% 2.2 mph NNW3.5 kmh NNW 4.3 mph6.9 kmh 29.74 in1007.1 mb 0.01 in0.3 mm 0.00 in0.0 mm 0.03 in0.8 mm
05:24 PM 52.0°F11.1°C 27.1°F-2.7°C 38% 2.0 mph NNW3.2 kmh NNW 3.1 mph5.0 kmh 29.74 in1007.1 mb 0.01 in0.3 mm 0.00 in0.0 mm 0.03 in0.8 mm
05:25 PM 52.0°F11.1°C 27.9°F-2.3°C 39% 1.8 mph NW2.9 kmh NW 3.1 mph5.0 kmh 29.75 in1007.5 mb 0.01 in0.3 mm 0.00 in0.0 mm 0.03 in0.8 mm
05:26 PM 52.0°F11.1°C 27.9°F-2.3°C 39% 2.2 mph NW3.5 kmh NW 4.3 mph6.9 kmh 29.75 in1007.5 mb 0.01 in0.3 mm 0.00 in0.0 mm 0.03 in0.8 mm
05:27 PM 52.0°F11.1°C 27.9°F-2.3°C 39% 2.5 mph NE4.0 kmh NE 5.4 mph8.7 kmh 29.75 in1007.5 mb 0.01 in0.3 mm 0.00 in0.0 mm 0.03 in0.8 mm
05:28 PM 52.0°F11.1°C 27.9°F-2.3°C 39% 3.1 mph NW5.0 kmh NW 5.4 mph8.7 kmh 29.74 in1007.1 mb 0.01 in0.3 mm 0.00 in0.0 mm 0.03 in0.8 mm
05:29 PM 52.0°F11.1°C 27.9°F-2.3°C 39% 2.9 mph NNW4.7 kmh NNW 3.1 mph5.0 kmh 29.75 in1007.5 mb 0.01 in0.3 mm 0.00 in0.0 mm 0.03 in0.8 mm
05:30 PM 52.2°F11.2°C 27.9°F-2.3°C 39% 2.0 mph NNE3.2 kmh NNE 4.3 mph6.9 kmh 29.75 in1007.5 mb 0.01 in0.3 mm 0.00 in0.0 mm 0.03 in0.8 mm
05:31 PM 52.2°F11.2°C 27.9°F-2.3°C 39% 2.0 mph NNW3.2 kmh NNW 4.3 mph6.9 kmh 29.74 in1007.1 mb 0.01 in0.3 mm 0.00 in0.0 mm 0.03 in0.8 mm
05:32 PM 52.5°F11.4°C 28.9°F-1.7°C 40% 2.9 mph NW4.7 kmh NW 6.3 mph10.1 kmh 29.75 in1007.5 mb 0.01 in0.3 mm 0.00 in0.0 mm 0.03 in0.8 mm
05:33 PM 52.5°F11.4°C 28.9°F-1.7°C 40% 4.0 mph NW6.4 kmh NW 7.4 mph11.9 kmh 29.75 in1007.5 mb 0.01 in0.3 mm 0.00 in0.0 mm 0.03 in0.8 mm
05:34 PM 53.1°F11.7°C 28.8°F-1.8°C 39% 3.6 mph NW5.8 kmh NW 5.4 mph8.7 kmh 29.75 in1007.5 mb 0.01 in0.3 mm 0.00 in0.0 mm 0.03 in0.8 mm
05:35 PM 53.2°F11.8°C 28.9°F-1.7°C 39% 5.8 mph NW9.3 kmh NW 12.8 mph20.6 kmh 29.75 in1007.5 mb 0.01 in0.3 mm 0.00 in0.0 mm 0.03 in0.8 mm
05:36 PM 53.2°F11.8°C 28.2°F-2.1°C 38% 6.3 mph 10.1 kmh 9.6 mph15.4 kmh 29.75 in1007.5 mb 0.01 in0.3 mm 0.00 in0.0 mm 0.03 in0.8 mm
05:37 PM 53.2°F11.8°C 28.2°F-2.1°C 38% 5.8 mph NNW9.3 kmh NNW 9.6 mph15.4 kmh 29.75 in1007.5 mb 0.01 in0.3 mm 0.00 in0.0 mm 0.03 in0.8 mm
05:38 PM 53.4°F11.9°C 27.9°F-2.3°C 37% 5.4 mph 8.7 kmh 9.6 mph15.4 kmh 29.75 in1007.5 mb 0.01 in0.3 mm 0.00 in0.0 mm 0.03 in0.8 mm
05:39 PM 53.6°F12.0°C 28.0°F-2.2°C 37% 4.3 mph NW6.9 kmh NW 7.4 mph11.9 kmh 29.75 in1007.5 mb 0.00 in0.0 mm 0.00 in0.0 mm 0.03 in0.8 mm
05:40 PM 53.6°F12.0°C 28.0°F-2.2°C 37% 4.0 mph NW6.4 kmh NW 7.4 mph11.9 kmh 29.75 in1007.5 mb 0.00 in0.0 mm 0.00 in0.0 mm 0.03 in0.8 mm
05:41 PM 53.8°F12.1°C 28.0°F-2.2°C 37% 3.8 mph NW6.1 kmh NW 7.4 mph11.9 kmh 29.75 in1007.5 mb 0.00 in0.0 mm 0.00 in0.0 mm 0.03 in0.8 mm
05:42 PM 53.8°F12.1°C 28.0°F-2.2°C 37% 2.7 mph NW4.3 kmh NW 4.3 mph6.9 kmh 29.75 in1007.5 mb 0.00 in0.0 mm 0.00 in0.0 mm 0.03 in0.8 mm
05:43 PM 54.0°F12.2°C 28.2°F-2.1°C 37% 2.5 mph NW4.0 kmh NW 4.3 mph6.9 kmh 29.75 in1007.5 mb 0.00 in0.0 mm 0.00 in0.0 mm 0.03 in0.8 mm
05:44 PM 54.0°F12.2°C 28.2°F-2.1°C 37% 3.6 mph NNW5.8 kmh NNW 6.3 mph10.1 kmh 29.75 in1007.5 mb 0.00 in0.0 mm 0.00 in0.0 mm 0.03 in0.8 mm
05:45 PM 54.0°F12.2°C 28.2°F-2.1°C 37% 4.7 mph NNW7.6 kmh NNW 7.4 mph11.9 kmh 29.75 in1007.5 mb 0.00 in0.0 mm 0.00 in0.0 mm 0.03 in0.8 mm
05:46 PM 54.0°F12.2°C 28.2°F-2.1°C 37% 4.0 mph NNW6.4 kmh NNW 5.4 mph8.7 kmh 29.75 in1007.5 mb 0.00 in0.0 mm 0.00 in0.0 mm 0.03 in0.8 mm
05:47 PM 54.0°F12.2°C 28.2°F-2.1°C 37% 3.4 mph NNW5.5 kmh NNW 4.3 mph6.9 kmh 29.75 in1007.5 mb 0.00 in0.0 mm 0.00 in0.0 mm 0.03 in0.8 mm
05:48 PM 54.0°F12.2°C 28.2°F-2.1°C 37% 2.9 mph NW4.7 kmh NW 5.4 mph8.7 kmh 29.75 in1007.5 mb 0.00 in0.0 mm 0.00 in0.0 mm 0.03 in0.8 mm
05:49 PM 54.0°F12.2°C 28.2°F-2.1°C 37% 2.9 mph NW4.7 kmh NW 4.3 mph6.9 kmh 29.75 in1007.5 mb 0.00 in0.0 mm 0.00 in0.0 mm 0.03 in0.8 mm
05:50 PM 54.0°F12.2°C 28.2°F-2.1°C 37% 2.9 mph NW4.7 kmh NW 6.3 mph10.1 kmh 29.75 in1007.5 mb 0.00 in0.0 mm 0.00 in0.0 mm 0.03 in0.8 mm
05:51 PM 54.1°F12.3°C 29.1°F-1.6°C 38% 3.8 mph WNW6.1 kmh WNW 7.4 mph11.9 kmh 29.75 in1007.5 mb 0.00 in0.0 mm 0.00 in0.0 mm 0.03 in0.8 mm
05:52 PM 54.1°F12.3°C 29.1°F-1.6°C 38% 3.8 mph N6.1 kmh N 6.3 mph10.1 kmh 29.75 in1007.5 mb 0.00 in0.0 mm 0.00 in0.0 mm 0.03 in0.8 mm
05:53 PM 54.1°F12.3°C 29.1°F-1.6°C 38% 2.9 mph NNW4.7 kmh NNW 3.1 mph5.0 kmh 29.75 in1007.5 mb 0.00 in0.0 mm 0.00 in0.0 mm 0.03 in0.8 mm
05:54 PM 54.1°F12.3°C 29.1°F-1.6°C 38% 2.7 mph NW4.3 kmh NW 4.3 mph6.9 kmh 29.75 in1007.5 mb 0.00 in0.0 mm 0.00 in0.0 mm 0.03 in0.8 mm
05:55 PM 54.0°F12.2°C 28.9°F-1.7°C 38% 3.6 mph NNW5.8 kmh NNW 7.4 mph11.9 kmh 29.75 in1007.5 mb 0.00 in0.0 mm 0.00 in0.0 mm 0.03 in0.8 mm
05:56 PM 54.0°F12.2°C 28.9°F-1.7°C 38% 3.4 mph N5.5 kmh N 4.3 mph6.9 kmh 29.75 in1007.5 mb 0.00 in0.0 mm 0.00 in0.0 mm 0.03 in0.8 mm
05:57 PM 54.0°F12.2°C 28.9°F-1.7°C 38% 3.4 mph NW5.5 kmh NW 6.3 mph10.1 kmh 29.75 in1007.5 mb 0.00 in0.0 mm 0.00 in0.0 mm 0.03 in0.8 mm
05:58 PM 54.0°F12.2°C 28.9°F-1.7°C 38% 3.8 mph NNW6.1 kmh NNW 6.3 mph10.1 kmh 29.75 in1007.5 mb 0.00 in0.0 mm 0.00 in0.0 mm 0.03 in0.8 mm
05:59 PM 53.8°F12.1°C 28.0°F-2.2°C 37% 4.0 mph NW6.4 kmh NW 8.5 mph13.7 kmh 29.75 in1007.5 mb 0.00 in0.0 mm 0.00 in0.0 mm 0.03 in0.8 mm
06:00 PM 53.8°F12.1°C 28.0°F-2.2°C 37% 4.0 mph NW6.4 kmh NW 4.3 mph6.9 kmh 29.75 in1007.5 mb 0.00 in0.0 mm 0.00 in0.0 mm 0.03 in0.8 mm
06:01 PM 53.8°F12.1°C 28.8°F-1.8°C 38% 3.8 mph NNW6.1 kmh NNW 7.4 mph11.9 kmh 29.75 in1007.5 mb 0.00 in0.0 mm 0.00 in0.0 mm 0.03 in0.8 mm
06:02 PM 53.8°F12.1°C 28.8°F-1.8°C 38% 3.8 mph NNW6.1 kmh NNW 5.4 mph8.7 kmh 29.75 in1007.5 mb 0.00 in0.0 mm 0.00 in0.0 mm 0.03 in0.8 mm
06:03 PM 53.8°F12.1°C 28.8°F-1.8°C 38% 3.8 mph NW6.1 kmh NW 7.4 mph11.9 kmh 29.75 in1007.5 mb 0.00 in0.0 mm 0.00 in0.0 mm 0.03 in0.8 mm
06:04 PM 53.8°F12.1°C 28.0°F-2.2°C 37% 3.6 mph NW5.8 kmh NW 3.1 mph5.0 kmh 29.75 in1007.5 mb 0.00 in0.0 mm 0.00 in0.0 mm 0.03 in0.8 mm
06:05 PM 53.6°F12.0°C 28.0°F-2.2°C 37% 3.4 mph WNW5.5 kmh WNW 7.4 mph11.9 kmh 29.75 in1007.5 mb 0.00 in0.0 mm 0.00 in0.0 mm 0.03 in0.8 mm
06:06 PM 53.6°F12.0°C 28.0°F-2.2°C 37% 3.1 mph NW5.0 kmh NW 7.4 mph11.9 kmh 29.75 in1007.5 mb 0.00 in0.0 mm 0.00 in0.0 mm 0.03 in0.8 mm
06:07 PM 53.4°F11.9°C 27.9°F-2.3°C 37% 3.1 mph NNW5.0 kmh NNW 5.4 mph8.7 kmh 29.76 in1007.8 mb 0.00 in0.0 mm 0.00 in0.0 mm 0.03 in0.8 mm
06:08 PM 53.4°F11.9°C 27.9°F-2.3°C 37% 3.1 mph N5.0 kmh N 4.3 mph6.9 kmh 29.76 in1007.8 mb 0.00 in0.0 mm 0.00 in0.0 mm 0.03 in0.8 mm
06:09 PM 53.4°F11.9°C 27.1°F-2.7°C 36% 3.1 mph N5.0 kmh N 5.4 mph8.7 kmh 29.75 in1007.5 mb 0.00 in0.0 mm 0.00 in0.0 mm 0.03 in0.8 mm
06:10 PM 53.4°F11.9°C 27.1°F-2.7°C 36% 3.8 mph W6.1 kmh W 5.4 mph8.7 kmh 29.75 in1007.5 mb 0.00 in0.0 mm 0.00 in0.0 mm 0.03 in0.8 mm
06:11 PM 53.2°F11.8°C 27.0°F-2.8°C 36% 4.0 mph NW6.4 kmh NW 7.4 mph11.9 kmh 29.75 in1007.5 mb 0.00 in0.0 mm 0.00 in0.0 mm 0.03 in0.8 mm
06:12 PM 53.2°F11.8°C 27.0°F-2.8°C 36% 3.6 mph NNE5.8 kmh NNE 7.4 mph11.9 kmh 29.76 in1007.8 mb 0.00 in0.0 mm 0.00 in0.0 mm 0.03 in0.8 mm
06:13 PM 53.2°F11.8°C 27.0°F-2.8°C 36% 3.6 mph NNW5.8 kmh NNW 6.3 mph10.1 kmh 29.76 in1007.8 mb 0.00 in0.0 mm 0.00 in0.0 mm 0.03 in0.8 mm
06:14 PM 53.1°F11.7°C 26.8°F-2.9°C 36% 3.6 mph NNW5.8 kmh NNW 4.3 mph6.9 kmh 29.76 in1007.8 mb 0.00 in0.0 mm 0.00 in0.0 mm 0.03 in0.8 mm
06:15 PM 53.1°F11.7°C 27.5°F-2.5°C 37% 3.6 mph NW5.8 kmh NW 6.3 mph10.1 kmh 29.75 in1007.5 mb 0.00 in0.0 mm 0.00 in0.0 mm 0.03 in0.8 mm
06:16 PM 53.1°F11.7°C 26.8°F-2.9°C 36% 4.3 mph NNW6.9 kmh NNW 6.3 mph10.1 kmh 29.76 in1007.8 mb 0.00 in0.0 mm 0.00 in0.0 mm 0.03 in0.8 mm
06:17 PM 53.1°F11.7°C 26.8°F-2.9°C 36% 4.3 mph NW6.9 kmh NW 6.3 mph10.1 kmh 29.75 in1007.5 mb 0.00 in0.0 mm 0.00 in0.0 mm 0.03 in0.8 mm
06:18 PM 52.9°F11.6°C 26.6°F-3.0°C 36% 3.4 mph 5.5 kmh 4.3 mph6.9 kmh 29.76 in1007.8 mb 0.00 in0.0 mm 0.00 in0.0 mm 0.03 in0.8 mm
06:19 PM 52.9°F11.6°C 27.3°F-2.6°C 37% 2.9 mph NNW4.7 kmh NNW 4.3 mph6.9 kmh 29.76 in1007.8 mb 0.00 in0.0 mm 0.00 in0.0 mm 0.03 in0.8 mm
06:20 PM 52.9°F11.6°C 27.3°F-2.6°C 37% 4.5 mph N7.2 kmh N 8.5 mph13.7 kmh 29.76 in1007.8 mb 0.00 in0.0 mm 0.00 in0.0 mm 0.03 in0.8 mm
06:21 PM 52.7°F11.5°C 27.1°F-2.7°C 37% 4.5 mph NW7.2 kmh NW 8.5 mph13.7 kmh 29.76 in1007.8 mb 0.00 in0.0 mm 0.00 in0.0 mm 0.03 in0.8 mm
06:22 PM 52.7°F11.5°C 27.1°F-2.7°C 37% 3.6 mph N5.8 kmh N 4.3 mph6.9 kmh 29.76 in1007.8 mb 0.00 in0.0 mm 0.00 in0.0 mm 0.03 in0.8 mm
06:23 PM 52.5°F11.4°C 27.7°F-2.4°C 38% 3.4 mph NW5.5 kmh NW 4.3 mph6.9 kmh 29.76 in1007.8 mb 0.00 in0.0 mm 0.00 in0.0 mm 0.03 in0.8 mm
06:24 PM 52.5°F11.4°C 27.7°F-2.4°C 38% 2.7 mph NNW4.3 kmh NNW 3.1 mph5.0 kmh 29.76 in1007.8 mb 0.00 in0.0 mm 0.00 in0.0 mm 0.03 in0.8 mm
06:25 PM 52.3°F11.3°C 27.5°F-2.5°C 38% 2.9 mph NW4.7 kmh NW 6.3 mph10.1 kmh 29.76 in1007.8 mb 0.00 in0.0 mm 0.00 in0.0 mm 0.03 in0.8 mm
06:26 PM 52.2°F11.2°C 27.3°F-2.6°C 38% 3.1 mph NW5.0 kmh NW 5.4 mph8.7 kmh 29.76 in1007.8 mb 0.00 in0.0 mm 0.00 in0.0 mm 0.03 in0.8 mm
06:27 PM 52.2°F11.2°C 27.3°F-2.6°C 38% 3.4 mph N5.5 kmh N 7.4 mph11.9 kmh 29.76 in1007.8 mb 0.00 in0.0 mm 0.00 in0.0 mm 0.03 in0.8 mm
06:28 PM 52.0°F11.1°C 27.1°F-2.7°C 38% 3.1 mph NW5.0 kmh NW 4.3 mph6.9 kmh 29.76 in1007.8 mb 0.00 in0.0 mm 0.00 in0.0 mm 0.03 in0.8 mm
06:29 PM 51.6°F10.9°C 26.8°F-2.9°C 38% 3.1 mph NW5.0 kmh NW 6.3 mph10.1 kmh 29.76 in1007.8 mb 0.00 in0.0 mm 0.00 in0.0 mm 0.03 in0.8 mm
06:30 PM 51.6°F10.9°C 26.8°F-2.9°C 38% 4.5 mph NNW7.2 kmh NNW 7.4 mph11.9 kmh 29.76 in1007.8 mb 0.00 in0.0 mm 0.00 in0.0 mm 0.03 in0.8 mm
06:31 PM 51.6°F10.9°C 26.8°F-2.9°C 38% 4.7 mph WNW7.6 kmh WNW 6.3 mph10.1 kmh 29.76 in1007.8 mb 0.00 in0.0 mm 0.00 in0.0 mm 0.03 in0.8 mm
06:32 PM 51.6°F10.9°C 26.2°F-3.2°C 37% 3.8 mph NNW6.1 kmh NNW 6.3 mph10.1 kmh 29.76 in1007.8 mb 0.00 in0.0 mm 0.00 in0.0 mm 0.03 in0.8 mm
06:33 PM 51.4°F10.8°C 26.6°F-3.0°C 38% 3.6 mph NNW5.8 kmh NNW 5.4 mph8.7 kmh 29.76 in1007.8 mb 0.00 in0.0 mm 0.00 in0.0 mm 0.03 in0.8 mm
06:34 PM 51.4°F10.8°C 26.6°F-3.0°C 38% 3.1 mph N5.0 kmh N 5.4 mph8.7 kmh 29.76 in1007.8 mb 0.00 in0.0 mm 0.00 in0.0 mm 0.03 in0.8 mm
06:35 PM 51.4°F10.8°C 27.3°F-2.6°C 39% 2.5 mph NW4.0 kmh NW 3.1 mph5.0 kmh 29.76 in1007.8 mb 0.00 in0.0 mm 0.00 in0.0 mm 0.03 in0.8 mm
06:36 PM 51.3°F10.7°C 27.1°F-2.7°C 39% 2.7 mph NW4.3 kmh NW 5.4 mph8.7 kmh 29.76 in1007.8 mb 0.00 in0.0 mm 0.00 in0.0 mm 0.03 in0.8 mm
06:37 PM 51.3°F10.7°C 27.1°F-2.7°C 39% 2.7 mph WNW4.3 kmh WNW 5.4 mph8.7 kmh 29.76 in1007.8 mb 0.00 in0.0 mm 0.00 in0.0 mm 0.03 in0.8 mm
06:38 PM 51.3°F10.7°C 27.1°F-2.7°C 39% 3.1 mph NE5.0 kmh NE 7.4 mph11.9 kmh 29.76 in1007.8 mb 0.00 in0.0 mm 0.00 in0.0 mm 0.03 in0.8 mm
06:39 PM 51.3°F10.7°C 26.6°F-3.0°C 38% 4.0 mph NW6.4 kmh NW 6.3 mph10.1 kmh 29.76 in1007.8 mb 0.00 in0.0 mm 0.00 in0.0 mm 0.03 in0.8 mm
06:40 PM 51.3°F10.7°C 26.6°F-3.0°C 38% 4.0 mph NNW6.4 kmh NNW 5.4 mph8.7 kmh 29.76 in1007.8 mb 0.00 in0.0 mm 0.00 in0.0 mm 0.03 in0.8 mm
06:41 PM 51.3°F10.7°C 26.6°F-3.0°C 38% 3.8 mph NW6.1 kmh NW 6.3 mph10.1 kmh 29.77 in1008.1 mb 0.00 in0.0 mm 0.00 in0.0 mm 0.03 in0.8 mm
06:42 PM 51.3°F10.7°C 26.6°F-3.0°C 38% 3.8 mph N6.1 kmh N 5.4 mph8.7 kmh 29.77 in1008.1 mb 0.00 in0.0 mm 0.00 in0.0 mm 0.03 in0.8 mm
06:43 PM 51.3°F10.7°C 26.6°F-3.0°C 38% 3.8 mph NNW6.1 kmh NNW 5.4 mph8.7 kmh 29.76 in1007.8 mb 0.00 in0.0 mm 0.00 in0.0 mm 0.03 in0.8 mm
06:44 PM 51.3°F10.7°C 26.6°F-3.0°C 38% 3.6 mph NNW5.8 kmh NNW 5.4 mph8.7 kmh 29.76 in1007.8 mb 0.00 in0.0 mm 0.00 in0.0 mm 0.03 in0.8 mm
06:45 PM 51.1°F10.6°C 27.0°F-2.8°C 39% 3.8 mph NW6.1 kmh NW 6.3 mph10.1 kmh 29.77 in1008.1 mb 0.00 in0.0 mm 0.00 in0.0 mm 0.03 in0.8 mm
06:46 PM 51.1°F10.6°C 26.4°F-3.1°C 38% 3.6 mph NW5.8 kmh NW 6.3 mph10.1 kmh 29.76 in1007.8 mb 0.00 in0.0 mm 0.00 in0.0 mm 0.03 in0.8 mm
06:47 PM 51.1°F10.6°C 26.4°F-3.1°C 38% 2.9 mph NW4.7 kmh NW 3.1 mph5.0 kmh 29.77 in1008.1 mb 0.00 in0.0 mm 0.00 in0.0 mm 0.03 in0.8 mm
06:48 PM 51.1°F10.6°C 27.0°F-2.8°C 39% 3.1 mph NNW5.0 kmh NNW 5.4 mph8.7 kmh 29.77 in1008.1 mb 0.00 in0.0 mm 0.00 in0.0 mm 0.03 in0.8 mm
06:49 PM 51.1°F10.6°C 27.0°F-2.8°C 39% 3.6 mph NW5.8 kmh NW 5.4 mph8.7 kmh 29.77 in1008.1 mb 0.00 in0.0 mm 0.00 in0.0 mm 0.03 in0.8 mm
06:50 PM 50.9°F10.5°C 26.8°F-2.9°C 39% 3.6 mph NNW5.8 kmh NNW 5.4 mph8.7 kmh 29.77 in1008.1 mb 0.00 in0.0 mm 0.00 in0.0 mm 0.03 in0.8 mm
06:51 PM 50.9°F10.5°C 26.8°F-2.9°C 39% 2.9 mph NW4.7 kmh NW 4.3 mph6.9 kmh 29.77 in1008.1 mb 0.00 in0.0 mm 0.00 in0.0 mm 0.03 in0.8 mm
06:52 PM 50.7°F10.4°C 26.6°F-3.0°C 39% 2.7 mph NNW4.3 kmh NNW 3.1 mph5.0 kmh 29.77 in1008.1 mb 0.00 in0.0 mm 0.00 in0.0 mm 0.03 in0.8 mm
06:53 PM 50.7°F10.4°C 27.3°F-2.6°C 40% 4.0 mph N6.4 kmh N 10.5 mph16.9 kmh 29.77 in1008.1 mb 0.00 in0.0 mm 0.00 in0.0 mm 0.03 in0.8 mm
06:54 PM 50.7°F10.4°C 27.3°F-2.6°C 40% 4.5 mph NNW7.2 kmh NNW 10.5 mph16.9 kmh 29.77 in1008.1 mb 0.00 in0.0 mm 0.00 in0.0 mm 0.03 in0.8 mm
06:55 PM 50.5°F10.3°C 27.1°F-2.7°C 40% 3.1 mph NW5.0 kmh NW 5.4 mph8.7 kmh 29.77 in1008.1 mb 0.00 in0.0 mm 0.00 in0.0 mm 0.03 in0.8 mm
06:56 PM 50.5°F10.3°C 27.1°F-2.7°C 40% 3.4 mph N5.5 kmh N 5.4 mph8.7 kmh 29.77 in1008.1 mb 0.00 in0.0 mm 0.00 in0.0 mm 0.03 in0.8 mm
06:57 PM 50.5°F10.3°C 27.1°F-2.7°C 40% 3.6 mph NW5.8 kmh NW 4.3 mph6.9 kmh 29.78 in1008.5 mb 0.00 in0.0 mm 0.00 in0.0 mm 0.03 in0.8 mm
06:58 PM 50.5°F10.3°C 27.1°F-2.7°C 40% 3.4 mph NW5.5 kmh NW 4.3 mph6.9 kmh 29.77 in1008.1 mb 0.00 in0.0 mm 0.00 in0.0 mm 0.03 in0.8 mm
06:59 PM 50.5°F10.3°C 27.7°F-2.4°C 41% 3.6 mph NW5.8 kmh NW 5.4 mph8.7 kmh 29.77 in1008.1 mb 0.00 in0.0 mm 0.00 in0.0 mm 0.03 in0.8 mm
07:00 PM 50.5°F10.3°C 27.1°F-2.7°C 40% 4.0 mph N6.4 kmh N 5.4 mph8.7 kmh 29.78 in1008.5 mb 0.00 in0.0 mm 0.00 in0.0 mm 0.03 in0.8 mm
07:01 PM 50.5°F10.3°C 27.1°F-2.7°C 40% 3.4 mph NNW5.5 kmh NNW 5.4 mph8.7 kmh 29.77 in1008.1 mb 0.00 in0.0 mm 0.00 in0.0 mm 0.03 in0.8 mm
07:02 PM 50.5°F10.3°C 27.1°F-2.7°C 40% 2.7 mph NNW4.3 kmh NNW 4.3 mph6.9 kmh 29.78 in1008.5 mb 0.00 in0.0 mm 0.00 in0.0 mm 0.03 in0.8 mm
07:03 PM 50.5°F10.3°C 27.1°F-2.7°C 40% 2.9 mph NW4.7 kmh NW 4.3 mph6.9 kmh 29.78 in1008.5 mb 0.00 in0.0 mm 0.00 in0.0 mm 0.03 in0.8 mm
07:04 PM 50.5°F10.3°C 27.1°F-2.7°C 40% 4.0 mph NW6.4 kmh NW 7.4 mph11.9 kmh 29.77 in1008.1 mb 0.00 in0.0 mm 0.00 in0.0 mm 0.03 in0.8 mm
07:05 PM 50.5°F10.3°C 27.1°F-2.7°C 40% 5.4 mph NW8.7 kmh NW 8.5 mph13.7 kmh 29.78 in1008.5 mb 0.00 in0.0 mm 0.00 in0.0 mm 0.03 in0.8 mm
07:06 PM 50.5°F10.3°C 27.1°F-2.7°C 40% 4.3 mph NNW6.9 kmh NNW 6.3 mph10.1 kmh 29.78 in1008.5 mb 0.00 in0.0 mm 0.00 in0.0 mm 0.03 in0.8 mm
07:07 PM 50.5°F10.3°C 27.1°F-2.7°C 40% 3.8 mph N6.1 kmh N 6.3 mph10.1 kmh 29.78 in1008.5 mb 0.00 in0.0 mm 0.00 in0.0 mm 0.03 in0.8 mm
07:08 PM 50.5°F10.3°C 26.4°F-3.1°C 39% 4.9 mph NW7.9 kmh NW 8.5 mph13.7 kmh 29.78 in1008.5 mb 0.00 in0.0 mm 0.00 in0.0 mm 0.03 in0.8 mm
07:09 PM 50.5°F10.3°C 26.4°F-3.1°C 39% 4.7 mph NW7.6 kmh NW 8.5 mph13.7 kmh 29.78 in1008.5 mb 0.00 in0.0 mm 0.00 in0.0 mm 0.03 in0.8 mm
07:10 PM 50.5°F10.3°C 26.4°F-3.1°C 39% 4.3 mph NNW6.9 kmh NNW 8.5 mph13.7 kmh 29.78 in1008.5 mb 0.00 in0.0 mm 0.00 in0.0 mm 0.03 in0.8 mm
07:11 PM 50.5°F10.3°C 26.4°F-3.1°C 39% 4.3 mph NNW6.9 kmh NNW 5.4 mph8.7 kmh 29.78 in1008.5 mb 0.00 in0.0 mm 0.00 in0.0 mm 0.03 in0.8 mm
07:12 PM 50.5°F10.3°C 26.4°F-3.1°C 39% 3.6 mph NNW5.8 kmh NNW 5.4 mph8.7 kmh 29.78 in1008.5 mb 0.00 in0.0 mm 0.00 in0.0 mm 0.03 in0.8 mm
07:13 PM 50.5°F10.3°C 26.4°F-3.1°C 39% 3.6 mph N5.8 kmh N 5.4 mph8.7 kmh 29.78 in1008.5 mb 0.00 in0.0 mm 0.00 in0.0 mm 0.03 in0.8 mm
07:14 PM 50.5°F10.3°C 26.4°F-3.1°C 39% 3.4 mph NNW5.5 kmh NNW 5.4 mph8.7 kmh 29.78 in1008.5 mb 0.00 in0.0 mm 0.00 in0.0 mm 0.03 in0.8 mm
07:15 PM 50.4°F10.2°C 26.4°F-3.1°C 39% 3.4 mph NW5.5 kmh NW 4.3 mph6.9 kmh 29.78 in1008.5 mb 0.00 in0.0 mm 0.00 in0.0 mm 0.03 in0.8 mm
07:16 PM 50.4°F10.2°C 27.0°F-2.8°C 40% 3.4 mph NNW5.5 kmh NNW 5.4 mph8.7 kmh 29.79 in1008.8 mb 0.00 in0.0 mm 0.00 in0.0 mm 0.03 in0.8 mm
07:17 PM 50.4°F10.2°C 27.0°F-2.8°C 40% 3.1 mph NNW5.0 kmh NNW 4.3 mph6.9 kmh 29.79 in1008.8 mb 0.00 in0.0 mm 0.00 in0.0 mm 0.03 in0.8 mm
07:18 PM 50.4°F10.2°C 27.0°F-2.8°C 40% 2.7 mph NW4.3 kmh NW 4.3 mph6.9 kmh 29.79 in1008.8 mb 0.00 in0.0 mm 0.00 in0.0 mm 0.03 in0.8 mm
07:19 PM 50.2°F10.1°C 26.8°F-2.9°C 40% 2.7 mph NW4.3 kmh NW 4.3 mph6.9 kmh 29.79 in1008.8 mb 0.00 in0.0 mm 0.00 in0.0 mm 0.03 in0.8 mm
07:20 PM 50.2°F10.1°C 26.8°F-2.9°C 40% 2.9 mph NW4.7 kmh NW 5.4 mph8.7 kmh 29.79 in1008.8 mb 0.00 in0.0 mm 0.00 in0.0 mm 0.03 in0.8 mm
07:21 PM 50.2°F10.1°C 27.3°F-2.6°C 41% 3.6 mph WNW5.8 kmh WNW 6.3 mph10.1 kmh 29.79 in1008.8 mb 0.00 in0.0 mm 0.00 in0.0 mm 0.03 in0.8 mm
07:22 PM 50.2°F10.1°C 27.3°F-2.6°C 41% 3.8 mph NNW6.1 kmh NNW 8.5 mph13.7 kmh 29.79 in1008.8 mb 0.00 in0.0 mm 0.00 in0.0 mm 0.03 in0.8 mm
07:23 PM 50.0°F10.0°C 27.1°F-2.7°C 41% 3.6 mph NW5.8 kmh NW 5.4 mph8.7 kmh 29.79 in1008.8 mb 0.00 in0.0 mm 0.00 in0.0 mm 0.03 in0.8 mm
07:24 PM 50.0°F10.0°C 27.1°F-2.7°C 41% 3.8 mph NW6.1 kmh NW 6.3 mph10.1 kmh 29.79 in1008.8 mb 0.00 in0.0 mm 0.00 in0.0 mm 0.03 in0.8 mm
07:25 PM 50.0°F10.0°C 27.1°F-2.7°C 41% 3.8 mph NW6.1 kmh NW 6.3 mph10.1 kmh 29.79 in1008.8 mb 0.00 in0.0 mm 0.00 in0.0 mm 0.03 in0.8 mm
07:26 PM 50.0°F10.0°C 27.9°F-2.3°C 42% 3.8 mph NW6.1 kmh NW 5.4 mph8.7 kmh 29.79 in1008.8 mb 0.00 in0.0 mm 0.00 in0.0 mm 0.03 in0.8 mm
07:27 PM 49.8°F9.9°C 27.7°F-2.4°C 42% 3.6 mph W5.8 kmh W 5.4 mph8.7 kmh 29.79 in1008.8 mb 0.00 in0.0 mm 0.00 in0.0 mm 0.03 in0.8 mm
07:28 PM 49.8°F9.9°C 27.7°F-2.4°C 42% 3.1 mph NW5.0 kmh NW 5.4 mph8.7 kmh 29.79 in1008.8 mb 0.00 in0.0 mm 0.00 in0.0 mm 0.03 in0.8 mm
07:29 PM 49.8°F9.9°C 27.7°F-2.4°C 42% 2.9 mph NW4.7 kmh NW 3.1 mph5.0 kmh 29.80 in1009.1 mb 0.00 in0.0 mm 0.00 in0.0 mm 0.03 in0.8 mm
07:30 PM 49.8°F9.9°C 27.7°F-2.4°C 42% 2.7 mph NW4.3 kmh NW 4.3 mph6.9 kmh 29.79 in1008.8 mb 0.00 in0.0 mm 0.00 in0.0 mm 0.03 in0.8 mm
07:31 PM 49.8°F9.9°C 27.7°F-2.4°C 42% 2.7 mph NW4.3 kmh NW 3.1 mph5.0 kmh 29.79 in1008.8 mb 0.00 in0.0 mm 0.00 in0.0 mm 0.03 in0.8 mm
07:32 PM 49.6°F9.8°C 27.5°F-2.5°C 42% 4.5 mph NW7.2 kmh NW 9.6 mph15.4 kmh 29.80 in1009.1 mb 0.00 in0.0 mm 0.00 in0.0 mm 0.03 in0.8 mm
07:33 PM 49.6°F9.8°C 27.5°F-2.5°C 42% 4.0 mph NW6.4 kmh NW 5.4 mph8.7 kmh 29.80 in1009.1 mb 0.00 in0.0 mm 0.00 in0.0 mm 0.03 in0.8 mm
07:34 PM 49.6°F9.8°C 27.5°F-2.5°C 42% 2.7 mph NW4.3 kmh NW 4.3 mph6.9 kmh 29.80 in1009.1 mb 0.00 in0.0 mm 0.00 in0.0 mm 0.03 in0.8 mm
07:35 PM 49.6°F9.8°C 27.5°F-2.5°C 42% 2.5 mph NW4.0 kmh NW 4.3 mph6.9 kmh 29.80 in1009.1 mb 0.00 in0.0 mm 0.00 in0.0 mm 0.03 in0.8 mm
07:36 PM 49.6°F9.8°C 27.5°F-2.5°C 42% 2.5 mph NW4.0 kmh NW 4.3 mph6.9 kmh 29.80 in1009.1 mb 0.00 in0.0 mm 0.00 in0.0 mm 0.03 in0.8 mm
07:37 PM 49.6°F9.8°C 27.5°F-2.5°C 42% 2.2 mph NW3.5 kmh NW 3.1 mph5.0 kmh 29.80 in1009.1 mb 0.00 in0.0 mm 0.00 in0.0 mm 0.03 in0.8 mm
07:38 PM 49.5°F9.7°C 27.9°F-2.3°C 43% 2.7 mph NW4.3 kmh NW 5.4 mph8.7 kmh 29.80 in1009.1 mb 0.00 in0.0 mm 0.00 in0.0 mm 0.03 in0.8 mm
07:39 PM 49.5°F9.7°C 27.9°F-2.3°C 43% 3.1 mph NNW5.0 kmh NNW 5.4 mph8.7 kmh 29.80 in1009.1 mb 0.00 in0.0 mm 0.00 in0.0 mm 0.03 in0.8 mm
07:40 PM 49.5°F9.7°C 27.9°F-2.3°C 43% 2.7 mph NW4.3 kmh NW 5.4 mph8.7 kmh 29.81 in1009.5 mb 0.00 in0.0 mm 0.00 in0.0 mm 0.03 in0.8 mm
07:42 PM 49.5°F9.7°C 27.9°F-2.3°C 43% 2.5 mph NNW4.0 kmh NNW 3.1 mph5.0 kmh 29.80 in1009.1 mb 0.00 in0.0 mm 0.00 in0.0 mm 0.03 in0.8 mm
07:43 PM 49.5°F9.7°C 27.3°F-2.6°C 42% 2.5 mph NNW4.0 kmh NNW 3.1 mph5.0 kmh 29.80 in1009.1 mb 0.00 in0.0 mm 0.00 in0.0 mm 0.03 in0.8 mm
07:44 PM 49.5°F9.7°C 27.9°F-2.3°C 43% 1.8 mph NNW2.9 kmh NNW 3.1 mph5.0 kmh